Darstellungsparameter: Aktuell verwendete Einstellungen:
Skalierung der Graphiken ... ?
xyx+y,   Skalierungsfaktor:      Skalierung: Modus: x, Faktor: 1
Darstellungszeitraum ... ?
Vom - - bis: - -   Zeitraum: 18.08.2004 - 17.11.2004
Min/Max/Avg-Anzeige ... ?
Zeige MMA aktuell
Zeige MMA Monat
Zeige MMA alles
Zeige --A aktuell
Zeige --A Monat
Zeige --A alles
Keine MMA-Anzeige
MMA:
Average (ber die Originaldaten)
MMA-Basis: 17.04.2019 - 19.05.2019
Quicknavigation für Darstellung... ?
Tage:      1T, 2T, 3T, 5T -1T -2T -3T -5T +1T +2T +3T +5T
Wochen: 1W, 2W, 3W -1W -2W -3W +1W +2W +3W
Monate: 1M, 3M, 6M -1M -3M -6M +1M +3M +6M
Jahre:    1J, 3J, 5J, 10J -1J -3J -5J -10J +1J +3J +5J +10J
Nutze für die Darstellung ... ?
Originaldaten oder Mittelwerte auf ...
Stundenbasis Tagesbasis Wochenbasis
Monatsbasis Jahresbasis      Datenbasis: Original-Daten
Darstellen als:
Statistik (Auto) Statistik J:M      Darstellung:
Zur Graphik,    zurück zur Übersicht aller Sensoren.
 
Tabellarische Datenbersicht: ?
 
Sensor: Nr:Datum:Temp:Abs-Feuchte:Windchill:Wind:
Aussen-T/F 1 18-08-2004 00:29:23 18.3 C 13.45 g/m*3 18.3 C 0 km/h
2 18-08-2004 00:59:24 18.3 C 13.6 g/m*3 18.3 C 0 km/h
3 18-08-2004 01:29:24 18 C 13.21 g/m*3 18 C 0 km/h
4 18-08-2004 01:59:24 18.4 C 13.53 g/m*3 18.4 C 0 km/h
5 18-08-2004 02:29:24 18.5 C 13.45 g/m*3 18.5 C 0 km/h
6 18-08-2004 02:59:24 18.4 C 13.37 g/m*3 18.4 C 0 km/h
7 18-08-2004 03:29:24 18.4 C 13.37 g/m*3 18.4 C 0 km/h
8 18-08-2004 03:59:24 18.5 C 13.29 g/m*3 18.5 C 0 km/h
9 18-08-2004 04:29:24 18.5 C 13.29 g/m*3 18.5 C 0 km/h
10 18-08-2004 04:59:24 17.8 C 13.51 g/m*3 17.8 C 0 km/h
11 18-08-2004 05:29:25 17.6 C 13.65 g/m*3 17.6 C 0 km/h
12 18-08-2004 05:59:25 17.7 C 13.43 g/m*3 17.7 C 0 km/h
13 18-08-2004 06:29:25 17.6 C 13.2 g/m*3 17.6 C 0 km/h
14 18-08-2004 06:59:25 17.6 C 13.35 g/m*3 17.6 C 0 km/h
15 18-08-2004 07:29:25 18.4 C 13.68 g/m*3 18.4 C 0 km/h
16 18-08-2004 07:59:25 19 C 13.2 g/m*3 19 C 0 km/h
17 18-08-2004 08:29:26 19.6 C 12.83 g/m*3 19.6 C 0 km/h
18 18-08-2004 08:59:26 19.8 C 12.64 g/m*3 19.8 C 0 km/h
19 18-08-2004 09:29:26 20.5 C 12.46 g/m*3 20.5 C 0 km/h
20 18-08-2004 09:59:26 21.1 C 12.53 g/m*3 21.1 C 0 km/h
21 18-08-2004 10:29:26 21.8 C 12.66 g/m*3 21.8 C 0 km/h
22 18-08-2004 10:59:26 22.5 C 12.58 g/m*3 22.5 C 0 km/h
23 18-08-2004 11:29:26 23.4 C 11.78 g/m*3 23.4 C 0 km/h
24 18-08-2004 11:59:26 24.4 C 11.13 g/m*3 24.4 C 0 km/h
25 18-08-2004 12:29:26 25.2 C 10.24 g/m*3 25.2 C 0 km/h
Sensor: Nr:Datum:Temp:Abs-Feuchte:Windchill:Wind:
Aussen-T/F 26 18-08-2004 12:59:26 26.2 C 9.35 g/m*3 26.2 C 0 km/h
27 18-08-2004 13:29:26 27.6 C 10.38 g/m*3 27.6 C 0 km/h
28 18-08-2004 13:59:26 28.4 C 10.56 g/m*3 28.4 C 0 km/h
29 18-08-2004 14:29:26 28.7 C 10.46 g/m*3 28.7 C 0 km/h
30 18-08-2004 14:59:26 28.7 C 11.59 g/m*3 28.7 C 0 km/h
31 18-08-2004 15:29:26 28.4 C 11.4 g/m*3 28.4 C 0 km/h
32 18-08-2004 15:59:27 29.6 C 10.68 g/m*3 29.6 C 0 km/h
33 18-08-2004 16:29:27 30.1 C 10.06 g/m*3 30.1 C 0 km/h
34 18-08-2004 16:59:27 30.7 C 10.08 g/m*3 30.7 C 0 km/h
35 18-08-2004 17:29:27 30.7 C 9.13 g/m*3 30.7 C 0 km/h
36 18-08-2004 17:59:27 30.6 C 8.77 g/m*3 30.6 C 0 km/h
37 18-08-2004 18:29:27 30.1 C 9.76 g/m*3 30.1 C 0 km/h
38 18-08-2004 18:59:27 28.5 C 12.3 g/m*3 28.5 C 0 km/h
39 18-08-2004 19:29:27 26.9 C 11.77 g/m*3 26.9 C 0 km/h
40 18-08-2004 19:59:27 25.5 C 11.6 g/m*3 25.5 C 0 km/h
41 18-08-2004 20:29:27 24.9 C 12.36 g/m*3 24.9 C 0 km/h
42 18-08-2004 20:59:27 24.9 C 12.82 g/m*3 24.9 C 0 km/h
43 18-08-2004 21:29:27 23.8 C 13.98 g/m*3 23.8 C 0 km/h
44 18-08-2004 21:59:27 18.9 C 14.26 g/m*3 18.9 C 0 km/h
45 18-08-2004 22:29:27 19 C 14.67 g/m*3 19 C 0 km/h
46 18-08-2004 22:59:28 18.9 C 14.9 g/m*3 18.9 C 0 km/h
47 18-08-2004 23:29:28 19 C 14.99 g/m*3 19 C 0 km/h
48 18-08-2004 23:59:28 18.9 C 14.74 g/m*3 18.9 C 0 km/h
49 19-08-2004 00:29:28 18.9 C 14.42 g/m*3 18.9 C 0 km/h
50 19-08-2004 00:59:28 18.7 C 14.41 g/m*3 18.7 C 0 km/h
Sensor: Nr:Datum:Temp:Abs-Feuchte:Windchill:Wind:
Aussen-T/F 51 19-08-2004 01:29:28 18.6 C 14.32 g/m*3 18.6 C 0 km/h
52 19-08-2004 01:59:29 18.3 C 14.07 g/m*3 18.3 C 0 km/h
53 19-08-2004 02:29:29 18.2 C 13.99 g/m*3 18.2 C 0 km/h
54 19-08-2004 02:59:29 17.9 C 14.05 g/m*3 17.9 C 0 km/h
55 19-08-2004 03:29:29 17.8 C 13.96 g/m*3 17.8 C 0 km/h
56 19-08-2004 03:59:29 17.6 C 13.8 g/m*3 17.6 C 0 km/h
57 19-08-2004 04:29:29 17.4 C 13.63 g/m*3 17.4 C 0 km/h
58 19-08-2004 04:59:29 17 C 13.31 g/m*3 17 C 0 km/h
59 19-08-2004 05:29:29 16.9 C 13.38 g/m*3 16.9 C 0 km/h
60 19-08-2004 05:59:29 17.3 C 13.55 g/m*3 17.3 C 0 km/h
61 19-08-2004 06:29:29 17.2 C 13.18 g/m*3 17.2 C 0 km/h
62 19-08-2004 06:59:29 17.4 C 13.04 g/m*3 17.4 C 0 km/h
63 19-08-2004 07:29:29 17.8 C 12.29 g/m*3 17.8 C 0 km/h
64 19-08-2004 07:59:29 17.7 C 12.07 g/m*3 17.7 C 0 km/h
65 19-08-2004 08:29:29 17.7 C 11.92 g/m*3 17.7 C 0 km/h
66 19-08-2004 08:59:29 17.9 C 12.21 g/m*3 17.9 C 0 km/h
67 19-08-2004 09:29:30 18.8 C 11.92 g/m*3 18.8 C 0 km/h
68 19-08-2004 09:59:30 19.9 C 11.17 g/m*3 19.9 C 0 km/h
69 19-08-2004 10:29:30 20.8 C 10.68 g/m*3 20.8 C 0 km/h
70 19-08-2004 10:59:30 21.7 C 10.68 g/m*3 21.7 C 0 km/h
71 19-08-2004 11:29:30 22.8 C 10.57 g/m*3 22.8 C 0 km/h
72 19-08-2004 11:59:30 23.8 C 10.33 g/m*3 23.8 C 0 km/h
73 19-08-2004 12:29:31 23.8 C 10.33 g/m*3 23.8 C 0 km/h
74 19-08-2004 12:59:31 24.5 C 9.62 g/m*3 24.5 C 0 km/h
75 19-08-2004 13:29:31 24.5 C 9.62 g/m*3 24.5 C 0 km/h
Sensor: Nr:Datum:Temp:Abs-Feuchte:Windchill:Wind:
Aussen-T/F 76 19-08-2004 13:59:31 25 C 8.52 g/m*3 25 C 0 km/h
77 19-08-2004 14:29:31 24.4 C 8.68 g/m*3 24.4 C 0 km/h
78 19-08-2004 14:59:31 24.3 C 9.07 g/m*3 24.3 C 0 km/h
79 19-08-2004 15:29:32 24.4 C 8.68 g/m*3 24.4 C 0 km/h
80 19-08-2004 15:59:32 25 C 8.98 g/m*3 25 C 0 km/h
81 19-08-2004 16:29:32 26.3 C 8.91 g/m*3 26.3 C 0 km/h
82 19-08-2004 16:59:32 27.3 C 8.37 g/m*3 27.3 C 0 km/h
83 19-08-2004 17:29:32 26.3 C 7.92 g/m*3 26.3 C 0 km/h
84 19-08-2004 17:59:32 26.7 C 8.86 g/m*3 26.7 C 0 km/h
85 19-08-2004 18:29:32 24.9 C 8.01 g/m*3 24.9 C 0 km/h
86 19-08-2004 18:59:32 25 C 8.52 g/m*3 25 C 0 km/h
87 19-08-2004 19:29:32 25.4 C 8.71 g/m*3 25.4 C 0 km/h
88 19-08-2004 19:59:32 25.6 C 9.52 g/m*3 25.6 C 0 km/h
89 19-08-2004 20:29:32 23.3 C 9.83 g/m*3 23.3 C 0 km/h
90 19-08-2004 20:59:32 21.6 C 9.86 g/m*3 21.6 C 0 km/h
91 19-08-2004 21:29:32 20.4 C 10.44 g/m*3 20.4 C 0 km/h
92 19-08-2004 21:59:32 19.5 C 10.57 g/m*3 19.5 C 0 km/h
93 19-08-2004 22:29:32 19 C 10.27 g/m*3 19 C 0 km/h
94 19-08-2004 22:59:33 18.5 C 10.76 g/m*3 18.5 C 0 km/h
95 19-08-2004 23:29:33 18.5 C 10.76 g/m*3 18.5 C 0 km/h
96 19-08-2004 23:59:33 18.3 C 11.1 g/m*3 18.3 C 0 km/h
97 20-08-2004 00:29:33 18 C 11.52 g/m*3 18 C 0 km/h
98 20-08-2004 00:59:33 18.4 C 11.8 g/m*3 18.4 C 0 km/h
99 20-08-2004 01:29:33 18.7 C 11.85 g/m*3 18.7 C 0 km/h
100 20-08-2004 01:59:33 18.8 C 11.76 g/m*3 18.8 C 0 km/h
Sensor: Nr:Datum:Temp:Abs-Feuchte:Windchill:Wind:
Aussen-T/F 101 20-08-2004 02:29:33 18.8 C 11.92 g/m*3 18.8 C 0 km/h
102 20-08-2004 02:59:33 18 C 11.52 g/m*3 18 C 0 km/h
103 20-08-2004 03:29:33 17.9 C 12.06 g/m*3 17.9 C 0 km/h
104 20-08-2004 03:59:33 17.4 C 11.71 g/m*3 17.4 C 0 km/h
105 20-08-2004 04:29:33 16.9 C 11.79 g/m*3 16.9 C 0 km/h
106 20-08-2004 04:59:33 16.7 C 11.8 g/m*3 16.7 C 0 km/h
107 20-08-2004 05:29:33 16.6 C 11.72 g/m*3 16.6 C 0 km/h
108 20-08-2004 05:59:33 15.9 C 11.38 g/m*3 15.9 C 0 km/h
109 20-08-2004 06:29:34 15.8 C 11.44 g/m*3 15.8 C 0 km/h
110 20-08-2004 06:59:34 16 C 11.44 g/m*3 16 C 0 km/h
111 20-08-2004 07:29:34 16.2 C 11.45 g/m*3 16.2 C 0 km/h
112 20-08-2004 07:59:34 16.9 C 11.65 g/m*3 16.9 C 0 km/h
113 20-08-2004 08:29:34 17.3 C 11.64 g/m*3 17.3 C 0 km/h
114 20-08-2004 08:59:34 18.6 C 10.03 g/m*3 18.6 C 0 km/h
115 20-08-2004 09:29:35 18.9 C 9.88 g/m*3 18.9 C 0 km/h
116 20-08-2004 09:59:35 18.9 C 9.72 g/m*3 18.9 C 0 km/h
117 20-08-2004 10:29:35 19.5 C 9.9 g/m*3 19.5 C 0 km/h
118 20-08-2004 10:59:35 20.2 C 9.62 g/m*3 20.2 C 0 km/h
119 20-08-2004 11:29:35 19.9 C 9.45 g/m*3 19.9 C 0 km/h
120 20-08-2004 11:59:35 20.4 C 9.55 g/m*3 20.4 C 0 km/h
121 20-08-2004 12:29:36 20.8 C 9.05 g/m*3 20.8 C 0 km/h
122 20-08-2004 12:59:36 21.5 C 8.67 g/m*3 21.5 C 0 km/h
123 20-08-2004 13:29:36 22.5 C 7.99 g/m*3 22.5 C 0 km/h
124 20-08-2004 13:59:36 22.4 C 7.94 g/m*3 22.4 C 0 km/h
125 20-08-2004 14:29:36 23.5 C 7.82 g/m*3 23.5 C 0 km/h
Sensor: Nr:Datum:Temp:Abs-Feuchte:Windchill:Wind:
Aussen-T/F 126 20-08-2004 14:59:36 23.9 C 7.57 g/m*3 23.9 C 0 km/h
127 20-08-2004 15:29:36 24.8 C 7.51 g/m*3 24.8 C 0 km/h
128 20-08-2004 15:59:36 24.1 C 7.22 g/m*3 24.1 C 0 km/h
129 20-08-2004 16:29:36 24.1 C 8.1 g/m*3 24.1 C 0 km/h
130 20-08-2004 16:59:36 24.1 C 7.66 g/m*3 24.1 C 0 km/h
131 20-08-2004 17:29:36 23.5 C 8.46 g/m*3 23.5 C 0 km/h
132 20-08-2004 17:59:36 23.4 C 8.2 g/m*3 23.4 C 0 km/h
133 20-08-2004 18:29:36 22 C 7.76 g/m*3 22 C 0 km/h
134 20-08-2004 18:59:36 21.6 C 8.53 g/m*3 21.6 C 0 km/h
135 20-08-2004 19:29:37 20.4 C 9.02 g/m*3 20.4 C 0 km/h
136 20-08-2004 19:59:37 15.4 C 6.7 g/m*3 15.4 C 0 km/h
137 20-08-2004 20:29:37 15 C 7.18 g/m*3 15 C 0 km/h
138 20-08-2004 20:59:37 15 C 11.54 g/m*3 15 C 0 km/h
139 20-08-2004 21:29:37 14.7 C 11.46 g/m*3 14.7 C 0 km/h
140 20-08-2004 21:59:37 14.5 C 11.07 g/m*3 14.5 C 0 km/h
141 20-08-2004 22:29:38 14.7 C 10.95 g/m*3 14.7 C 0 km/h
142 20-08-2004 22:59:38 14.8 C 11.02 g/m*3 14.8 C 0 km/h
143 20-08-2004 23:29:38 14.8 C 11.15 g/m*3 14.8 C 0 km/h
144 20-08-2004 23:59:38 14.8 C 11.15 g/m*3 14.8 C 0 km/h
145 21-08-2004 00:29:38 14.7 C 11.08 g/m*3 14.7 C 0 km/h
146 21-08-2004 00:59:38 14.2 C 10.87 g/m*3 14.2 C 0 km/h
147 21-08-2004 01:29:38 14.1 C 10.8 g/m*3 14.1 C 0 km/h
148 21-08-2004 01:59:38 14.1 C 10.44 g/m*3 14.1 C 0 km/h
149 21-08-2004 02:29:38 13.8 C 10.48 g/m*3 13.8 C 0 km/h
150 21-08-2004 02:59:38 13.8 C 10.6 g/m*3 13.8 C 0 km/h
Sensor: Nr:Datum:Temp:Abs-Feuchte:Windchill:Wind:
Aussen-T/F 151 21-08-2004 03:29:38 14.2 C 10.75 g/m*3 14.2 C 0 km/h
152 21-08-2004 03:59:38 14.4 C 10.75 g/m*3 14.4 C 0 km/h
153 21-08-2004 04:29:39 14.5 C 10.94 g/m*3 14.5 C 0 km/h
154 21-08-2004 04:59:39 14.6 C 10.76 g/m*3 14.6 C 0 km/h
155 21-08-2004 05:29:39 14.7 C 10.45 g/m*3 14.7 C 0 km/h
156 21-08-2004 05:59:39 14.8 C 10.39 g/m*3 14.8 C 0 km/h
157 21-08-2004 06:29:39 14.7 C 10.45 g/m*3 14.7 C 0 km/h
158 21-08-2004 06:59:39 14.7 C 10.45 g/m*3 14.7 C 0 km/h
159 21-08-2004 07:29:39 15 C 10.51 g/m*3 15 C 0 km/h
160 21-08-2004 07:59:39 14.9 C 10.45 g/m*3 14.9 C 0 km/h
161 21-08-2004 08:29:39 15.3 C 10.58 g/m*3 15.3 C 0 km/h
162 21-08-2004 08:59:40 15.9 C 10.83 g/m*3 15.9 C 0 km/h
163 21-08-2004 09:29:40 16.5 C 10.81 g/m*3 16.5 C 0 km/h
164 21-08-2004 09:59:40 17.3 C 10.9 g/m*3 17.3 C 0 km/h
165 21-08-2004 10:29:40 17 C 10.85 g/m*3 17 C 0 km/h
166 21-08-2004 10:59:40 18.2 C 11.04 g/m*3 18.2 C 0 km/h
167 21-08-2004 11:29:40 17 C 11.58 g/m*3 17 C 0 km/h
168 21-08-2004 11:59:41 17.4 C 11.41 g/m*3 17.4 C 0 km/h
169 21-08-2004 12:29:41 17.1 C 11.5 g/m*3 17.1 C 0 km/h
170 21-08-2004 12:59:41 18.4 C 11.64 g/m*3 18.4 C 0 km/h
171 21-08-2004 13:29:41 19.1 C 10.98 g/m*3 19.1 C 0 km/h
172 21-08-2004 13:59:41 19.5 C 10.41 g/m*3 19.5 C 0 km/h
173 21-08-2004 14:29:41 18.9 C 10.21 g/m*3 18.9 C 0 km/h
174 21-08-2004 14:59:42 18.3 C 10.01 g/m*3 18.3 C 0 km/h
175 21-08-2004 15:29:42 17.5 C 9.99 g/m*3 17.5 C 0 km/h
Sensor: Nr:Datum:Temp:Abs-Feuchte:Windchill:Wind:
Aussen-T/F 176 21-08-2004 15:59:42 17.6 C 10.35 g/m*3 17.6 C 0 km/h
177 21-08-2004 16:29:42 15 C 10.9 g/m*3 15 C 0 km/h
178 21-08-2004 16:59:42 15.1 C 11.61 g/m*3 15.1 C 0 km/h
179 21-08-2004 17:29:42 14.7 C 11.21 g/m*3 14.7 C 0 km/h
180 21-08-2004 17:59:43 15.3 C 10.84 g/m*3 15.3 C 0 km/h
181 21-08-2004 18:29:43 14.9 C 10.07 g/m*3 14.9 C 0 km/h
182 21-08-2004 18:59:43 15.7 C 10.17 g/m*3 15.7 C 0 km/h
183 21-08-2004 19:29:43 15.2 C 9.86 g/m*3 15.2 C 0 km/h
184 21-08-2004 19:59:43 15.4 C 9.59 g/m*3 15.4 C 0 km/h
185 21-08-2004 20:29:43 14.8 C 9.88 g/m*3 14.8 C 0 km/h
186 21-08-2004 20:59:43 14.7 C 9.69 g/m*3 14.7 C 0 km/h
187 21-08-2004 21:29:43 14.4 C 9.64 g/m*3 14.4 C 0 km/h
188 21-08-2004 21:59:43 14.4 C 9.52 g/m*3 14.4 C 0 km/h
189 21-08-2004 22:29:43 14.2 C 9.28 g/m*3 14.2 C 0 km/h
190 21-08-2004 22:59:43 13.9 C 9.35 g/m*3 13.9 C 0 km/h
191 21-08-2004 23:29:43 12.8 C 9.41 g/m*3 12.8 C 0 km/h
192 21-08-2004 23:59:43 12.6 C 9.51 g/m*3 12.6 C 0 km/h
193 22-08-2004 00:29:43 12.4 C 9.4 g/m*3 12.4 C 0 km/h
194 22-08-2004 00:59:44 12.1 C 9.12 g/m*3 12.1 C 0 km/h
195 22-08-2004 01:29:44 11.7 C 9.1 g/m*3 11.7 C 0 km/h
196 22-08-2004 01:59:44 11.2 C 8.92 g/m*3 11.2 C 0 km/h
197 22-08-2004 02:29:44 11.1 C 9.07 g/m*3 11.1 C 0 km/h
198 22-08-2004 02:59:44 11.1 C 9.17 g/m*3 11.1 C 0 km/h
199 22-08-2004 03:29:44 11.3 C 9.08 g/m*3 11.3 C 0 km/h
200 22-08-2004 03:59:45 11 C 9.01 g/m*3 11 C 0 km/h
Sensor: Nr:Datum:Temp:Abs-Feuchte:Windchill:Wind:
Aussen-T/F 201 22-08-2004 04:29:45 10.4 C 8.77 g/m*3 10.4 C 0 km/h
202 22-08-2004 04:59:45 10.3 C 8.81 g/m*3 10.3 C 0 km/h
203 22-08-2004 05:29:45 10.3 C 8.81 g/m*3 10.3 C 0 km/h
204 22-08-2004 05:59:45 10 C 8.64 g/m*3 10 C 0 km/h
205 22-08-2004 06:29:45 9.7 C 8.67 g/m*3 9.7 C 0 km/h
206 22-08-2004 06:59:45 10.1 C 8.89 g/m*3 10.1 C 0 km/h
207 22-08-2004 07:29:45 10.4 C 9.06 g/m*3 10.4 C 0 km/h
208 22-08-2004 07:59:45 10.6 C 9.08 g/m*3 10.6 C 0 km/h
209 22-08-2004 08:29:45 11.4 C 9.34 g/m*3 11.4 C 0 km/h
210 22-08-2004 08:59:45 11.7 C 8.99 g/m*3 11.7 C 0 km/h
211 22-08-2004 09:29:45 12.4 C 9.18 g/m*3 12.4 C 0 km/h
212 22-08-2004 09:59:45 12.6 C 9.18 g/m*3 12.6 C 0 km/h
213 22-08-2004 10:29:45 13.4 C 9.42 g/m*3 13.4 C 0 km/h
214 22-08-2004 10:59:45 15.1 C 9.8 g/m*3 15.1 C 0 km/h
215 22-08-2004 11:29:45 16.6 C 9.89 g/m*3 16.6 C 0 km/h
216 22-08-2004 11:59:45 18.2 C 8.24 g/m*3 18.2 C 0 km/h
217 22-08-2004 12:29:45 19.2 C 8.74 g/m*3 19.2 C 0 km/h
218 22-08-2004 12:59:45 19.3 C 7.8 g/m*3 19.3 C 0 km/h
219 22-08-2004 13:29:45 21 C 7.69 g/m*3 21 C 0 km/h
220 22-08-2004 13:59:46 21.9 C 6.95 g/m*3 21.9 C 0 km/h
221 22-08-2004 14:29:46 21.8 C 6.52 g/m*3 21.8 C 0 km/h
222 22-08-2004 14:59:46 22.7 C 6.47 g/m*3 22.7 C 0 km/h
223 22-08-2004 15:29:46 24.1 C 6.56 g/m*3 24.1 C 0 km/h
224 22-08-2004 15:59:46 26 C 6.57 g/m*3 26 C 0 km/h
225 22-08-2004 16:29:46 27.3 C 6.02 g/m*3 27.3 C 0 km/h
Sensor: Nr:Datum:Temp:Abs-Feuchte:Windchill:Wind:
Aussen-T/F 226 22-08-2004 16:59:46 25.9 C 7.02 g/m*3 25.9 C 0 km/h
227 22-08-2004 17:29:46 26.8 C 6.87 g/m*3 26.8 C 0 km/h
228 22-08-2004 17:59:46 27.1 C 6.73 g/m*3 27.1 C 0 km/h
229 22-08-2004 18:29:46 26.6 C 7.3 g/m*3 26.6 C 0 km/h
230 22-08-2004 18:59:46 26.6 C 7.55 g/m*3 26.6 C 0 km/h
231 22-08-2004 19:29:46 24.9 C 8.24 g/m*3 24.9 C 0 km/h
232 22-08-2004 19:59:46 23 C 8.22 g/m*3 23 C 0 km/h
233 22-08-2004 20:29:46 18.5 C 8.07 g/m*3 18.5 C 0 km/h
234 22-08-2004 20:59:46 16.3 C 7.77 g/m*3 16.3 C 0 km/h
235 22-08-2004 21:29:46 15.1 C 6.97 g/m*3 15.1 C 0 km/h
236 22-08-2004 21:59:46 14.5 C 7.46 g/m*3 14.5 C 0 km/h
237 22-08-2004 22:29:46 14.4 C 7.42 g/m*3 14.4 C 0 km/h
238 22-08-2004 22:59:46 13.7 C 7.58 g/m*3 13.7 C 0 km/h
239 22-08-2004 23:29:46 13.1 C 7.65 g/m*3 13.1 C 0 km/h
240 22-08-2004 23:59:46 12.8 C 7.84 g/m*3 12.8 C 0 km/h
241 23-08-2004 00:29:47 12.5 C 8.14 g/m*3 12.5 C 0 km/h
242 23-08-2004 00:59:47 11.9 C 8.15 g/m*3 11.9 C 0 km/h
243 23-08-2004 01:29:47 11.5 C 8.16 g/m*3 11.5 C 0 km/h
244 23-08-2004 01:59:47 11.2 C 8.01 g/m*3 11.2 C 0 km/h
245 23-08-2004 02:29:47 10.7 C 7.96 g/m*3 10.7 C 0 km/h
246 23-08-2004 02:59:47 11 C 8.11 g/m*3 11 C 0 km/h
247 23-08-2004 03:29:47 11 C 8.21 g/m*3 11 C 0 km/h
248 23-08-2004 03:59:47 10.8 C 8.2 g/m*3 10.8 C 0 km/h
249 23-08-2004 04:29:47 10.6 C 8.1 g/m*3 10.6 C 0 km/h
250 23-08-2004 04:59:47 9.9 C 8.03 g/m*3 9.9 C 0 km/h
Sensor: Nr:Datum:Temp:Abs-Feuchte:Windchill:Wind:
Aussen-T/F 251 23-08-2004 05:29:47 9.7 C 8.02 g/m*3 9.7 C 0 km/h
252 23-08-2004 05:59:47 9.9 C 8.22 g/m*3 9.9 C 0 km/h
253 23-08-2004 06:29:47 10.4 C 8.29 g/m*3 10.4 C 0 km/h
254 23-08-2004 06:59:47 11 C 8.51 g/m*3 11 C 0 km/h
255 23-08-2004 07:29:47 11.3 C 8.47 g/m*3 11.3 C 0 km/h
256 23-08-2004 07:59:47 11.4 C 8.52 g/m*3 11.4 C 0 km/h
257 23-08-2004 08:29:47 11.4 C 8.72 g/m*3 11.4 C 0 km/h
258 23-08-2004 08:59:47 11.8 C 9.26 g/m*3 11.8 C 0 km/h
259 23-08-2004 09:29:47 12.7 C 9.68 g/m*3 12.7 C 0 km/h
260 23-08-2004 09:59:47 14.3 C 10.07 g/m*3 14.3 C 0 km/h
261 23-08-2004 10:29:47 15.5 C 9.52 g/m*3 15.5 C 0 km/h
262 23-08-2004 10:59:47 16.9 C 9.06 g/m*3 16.9 C 0 km/h
263 23-08-2004 11:29:48 18.7 C 9.45 g/m*3 18.7 C 0 km/h
264 23-08-2004 11:59:48 19.5 C 9.4 g/m*3 19.5 C 0 km/h
265 23-08-2004 12:29:48 20.9 C 9.47 g/m*3 20.9 C 0 km/h
266 23-08-2004 12:59:48 21.9 C 9.84 g/m*3 21.9 C 0 km/h
267 23-08-2004 13:29:48 23.8 C 9.68 g/m*3 23.8 C 0 km/h
268 23-08-2004 13:59:48 24.5 C 9.4 g/m*3 24.5 C 0 km/h
269 23-08-2004 14:29:48 23.7 C 9.84 g/m*3 23.7 C 0 km/h
270 23-08-2004 14:59:48 24.8 C 9.33 g/m*3 24.8 C 0 km/h
271 23-08-2004 15:29:48 24.1 C 10.28 g/m*3 24.1 C 0 km/h
272 23-08-2004 15:59:48 22.1 C 11.91 g/m*3 22.1 C 0 km/h
273 23-08-2004 16:29:48 20.7 C 12.6 g/m*3 20.7 C 0 km/h
274 23-08-2004 16:59:48 20.3 C 12.66 g/m*3 20.3 C 0 km/h
275 23-08-2004 17:29:48 20.6 C 12.35 g/m*3 20.6 C 0 km/h
Sensor: Nr:Datum:Temp:Abs-Feuchte:Windchill:Wind:
Aussen-T/F 276 23-08-2004 17:59:48 20.2 C 12.59 g/m*3 20.2 C 0 km/h
277 23-08-2004 18:29:48 21.1 C 12.16 g/m*3 21.1 C 0 km/h
278 23-08-2004 18:59:48 21.6 C 12.33 g/m*3 21.6 C 0 km/h
279 23-08-2004 19:29:48 20.4 C 12.74 g/m*3 20.4 C 0 km/h
280 23-08-2004 19:59:48 19.6 C 12.49 g/m*3 19.6 C 0 km/h
281 23-08-2004 20:29:48 19 C 12.22 g/m*3 19 C 0 km/h
282 23-08-2004 20:59:48 18.7 C 12.33 g/m*3 18.7 C 0 km/h
283 23-08-2004 21:29:48 18.4 C 12.27 g/m*3 18.4 C 0 km/h
284 23-08-2004 21:59:48 18.1 C 12.21 g/m*3 18.1 C 0 km/h
285 23-08-2004 22:29:49 17.7 C 12.37 g/m*3 17.7 C 0 km/h
286 23-08-2004 22:59:49 17.4 C 12.15 g/m*3 17.4 C 0 km/h
287 23-08-2004 23:29:49 16.9 C 11.94 g/m*3 16.9 C 0 km/h
288 23-08-2004 23:59:49 16.4 C 11.58 g/m*3 16.4 C 0 km/h
289 24-08-2004 00:29:49 16.3 C 11.65 g/m*3 16.3 C 0 km/h
290 24-08-2004 00:59:49 15.8 C 11.44 g/m*3 15.8 C 0 km/h
291 24-08-2004 01:29:49 16.1 C 11.79 g/m*3 16.1 C 0 km/h
292 24-08-2004 01:59:49 15.7 C 11.64 g/m*3 15.7 C 0 km/h
293 24-08-2004 02:29:49 15.3 C 11.36 g/m*3 15.3 C 0 km/h
294 24-08-2004 02:59:49 15.1 C 11.35 g/m*3 15.1 C 0 km/h
295 24-08-2004 03:29:49 15.1 C 11.48 g/m*3 15.1 C 0 km/h
296 24-08-2004 03:59:49 14.9 C 11.6 g/m*3 14.9 C 0 km/h
297 24-08-2004 04:29:49 14.7 C 11.46 g/m*3 14.7 C 0 km/h
298 24-08-2004 04:59:49 14.7 C 11.58 g/m*3 14.7 C 0 km/h
299 24-08-2004 05:29:49 14.4 C 11.37 g/m*3 14.4 C 0 km/h
300 24-08-2004 05:59:49 14.1 C 11.29 g/m*3 14.1 C 0 km/h
Sensor: Nr:Datum:Temp:Abs-Feuchte:Windchill:Wind:
Aussen-T/F 301 24-08-2004 06:29:49 14 C 11.22 g/m*3 14 C 0 km/h
302 24-08-2004 06:59:49 13.9 C 11.15 g/m*3 13.9 C 0 km/h
303 24-08-2004 07:29:49 14.3 C 11.43 g/m*3 14.3 C 0 km/h
304 24-08-2004 07:59:49 14.7 C 11.71 g/m*3 14.7 C 0 km/h
305 24-08-2004 08:29:49 15.2 C 11.94 g/m*3 15.2 C 0 km/h
306 24-08-2004 08:59:50 15.8 C 12.25 g/m*3 15.8 C 0 km/h
307 24-08-2004 09:29:50 16.7 C 12.36 g/m*3 16.7 C 0 km/h
308 24-08-2004 09:59:50 17 C 12.01 g/m*3 17 C 0 km/h
309 24-08-2004 10:29:50 17.1 C 11.94 g/m*3 17.1 C 0 km/h
310 24-08-2004 10:59:50 16.8 C 13.01 g/m*3 16.8 C 0 km/h
311 24-08-2004 11:29:50 16.5 C 12.78 g/m*3 16.5 C 0 km/h
312 24-08-2004 11:59:50 17.3 C 13.55 g/m*3 17.3 C 0 km/h
313 24-08-2004 12:29:50 18.5 C 13.77 g/m*3 18.5 C 0 km/h
314 24-08-2004 12:59:50 18.1 C 12.82 g/m*3 18.1 C 0 km/h
315 24-08-2004 13:29:50 17.7 C 12.22 g/m*3 17.7 C 0 km/h
316 24-08-2004 13:59:50 17.2 C 12.59 g/m*3 17.2 C 0 km/h
317 24-08-2004 14:29:50 19.6 C 12.83 g/m*3 19.6 C 0 km/h
318 24-08-2004 14:59:50 21.6 C 12.14 g/m*3 21.6 C 0 km/h
319 24-08-2004 15:29:50 20.4 C 11.68 g/m*3 20.4 C 0 km/h
320 24-08-2004 15:59:50 16.5 C 11.37 g/m*3 16.5 C 0 km/h
321 24-08-2004 16:29:50 19.2 C 12.04 g/m*3 19.2 C 0 km/h
322 24-08-2004 16:59:50 21.3 C 10.62 g/m*3 21.3 C 0 km/h
323 24-08-2004 17:29:50 22 C 10.48 g/m*3 22 C 0 km/h
324 24-08-2004 17:59:50 22.4 C 9.93 g/m*3 22.4 C 0 km/h
325 24-08-2004 18:29:50 21 C 9.89 g/m*3 21 C 0 km/h
Sensor: Nr:Datum:Temp:Abs-Feuchte:Windchill:Wind:
Aussen-T/F 326 24-08-2004 18:59:50 21.1 C 10.5 g/m*3 21.1 C 0 km/h
327 24-08-2004 19:29:50 21.7 C 10.3 g/m*3 21.7 C 0 km/h
328 24-08-2004 19:59:51 21 C 10.44 g/m*3 21 C 0 km/h
329 24-08-2004 20:29:51 19.2 C 10.72 g/m*3 19.2 C 0 km/h
330 24-08-2004 20:59:51 19 C 9.61 g/m*3 19 C 0 km/h
331 24-08-2004 21:29:51 18.9 C 9.56 g/m*3 18.9 C 0 km/h
332 24-08-2004 21:59:51 18.3 C 9.07 g/m*3 18.3 C 0 km/h
333 24-08-2004 22:29:51 18.1 C 9.12 g/m*3 18.1 C 0 km/h
334 24-08-2004 22:59:51 17.7 C 9.66 g/m*3 17.7 C 0 km/h
335 24-08-2004 23:29:51 17.2 C 9.67 g/m*3 17.2 C 0 km/h
336 24-08-2004 23:59:51 17 C 9.84 g/m*3 17 C 0 km/h
337 25-08-2004 00:29:51 16.9 C 9.92 g/m*3 16.9 C 0 km/h
338 25-08-2004 00:59:51 16.8 C 10.01 g/m*3 16.8 C 0 km/h
339 25-08-2004 01:29:51 16.9 C 9.92 g/m*3 16.9 C 0 km/h
340 25-08-2004 01:59:51 16.8 C 9.87 g/m*3 16.8 C 0 km/h
341 25-08-2004 02:29:51 16.6 C 9.75 g/m*3 16.6 C 0 km/h
342 25-08-2004 02:59:51 16.7 C 9.66 g/m*3 16.7 C 0 km/h
343 25-08-2004 03:29:51 16.4 C 9.49 g/m*3 16.4 C 0 km/h
344 25-08-2004 03:59:51 16.3 C 9.43 g/m*3 16.3 C 0 km/h
345 25-08-2004 04:29:51 16.2 C 9.52 g/m*3 16.2 C 0 km/h
346 25-08-2004 04:59:51 15.9 C 9.34 g/m*3 15.9 C 0 km/h
347 25-08-2004 05:29:51 15.8 C 9.29 g/m*3 15.8 C 0 km/h
348 25-08-2004 05:59:51 15.6 C 9.18 g/m*3 15.6 C 0 km/h
349 25-08-2004 06:29:51 15.4 C 9.2 g/m*3 15.4 C 0 km/h
350 25-08-2004 06:59:52 15.5 C 9.12 g/m*3 15.5 C 0 km/h
Sensor: Nr:Datum:Temp:Abs-Feuchte:Windchill:Wind:
Aussen-T/F 351 25-08-2004 07:29:52 15.5 C 8.72 g/m*3 15.5 C 0 km/h
352 25-08-2004 07:59:52 15.5 C 8.86 g/m*3 15.5 C 0 km/h
353 25-08-2004 08:29:52 15.6 C 9.18 g/m*3 15.6 C 0 km/h
354 25-08-2004 08:59:52 15.7 C 9.23 g/m*3 15.7 C 0 km/h
355 25-08-2004 09:29:52 16 C 8.86 g/m*3 16 C 0 km/h
356 25-08-2004 09:59:52 16.6 C 8.9 g/m*3 16.6 C 0 km/h
357 25-08-2004 10:29:52 16.6 C 8.9 g/m*3 16.6 C 0 km/h
358 25-08-2004 10:59:52 16.1 C 9.18 g/m*3 16.1 C 0 km/h
359 25-08-2004 11:29:52 16.1 C 9.46 g/m*3 16.1 C 0 km/h
360 25-08-2004 11:59:52 17.1 C 9.17 g/m*3 17.1 C 0 km/h
361 25-08-2004 12:29:52 18.6 C 8.91 g/m*3 18.6 C 0 km/h
362 25-08-2004 12:59:52 17.8 C 9.11 g/m*3 17.8 C 0 km/h
363 25-08-2004 13:29:52 16.9 C 9.92 g/m*3 16.9 C 0 km/h
364 25-08-2004 13:59:52 16 C 10.76 g/m*3 16 C 0 km/h
365 25-08-2004 14:29:52 16.9 C 11.22 g/m*3 16.9 C 0 km/h
366 25-08-2004 14:59:52 18.1 C 10.97 g/m*3 18.1 C 0 km/h
367 25-08-2004 15:29:52 19.4 C 9.68 g/m*3 19.4 C 0 km/h
368 25-08-2004 15:59:52 19.2 C 9.89 g/m*3 19.2 C 0 km/h
369 25-08-2004 16:29:52 19.2 C 9.56 g/m*3 19.2 C 0 km/h
370 25-08-2004 16:59:52 16.6 C 11.16 g/m*3 16.6 C 0 km/h
371 25-08-2004 17:29:01 17.5 C 11.18 g/m*3 17.5 C 0 km/h
372 25-08-2004 17:59:00 18 C 10.44 g/m*3 18 C 0 km/h
373 25-08-2004 18:29:00 17.8 C 10.02 g/m*3 17.8 C 0 km/h
374 25-08-2004 18:59:01 18.7 C 10.25 g/m*3 18.7 C 0 km/h
375 25-08-2004 19:29:01 17.5 C 10.14 g/m*3 17.5 C 0 km/h
Sensor: Nr:Datum:Temp:Abs-Feuchte:Windchill:Wind:
Aussen-T/F 376 25-08-2004 19:59:02 16.9 C 10.5 g/m*3 16.9 C 0 km/h
377 25-08-2004 20:22:02 15.3 C 11.23 g/m*3 15.3 C 0 km/h
378 25-08-2004 20:34:03 15.2 C 11.29 g/m*3 15.2 C 0 km/h
379 25-08-2004 20:46:02 14.8 C 11.15 g/m*3 14.8 C 0 km/h
380 25-08-2004 20:58:02 14.7 C 11.21 g/m*3 14.7 C 0 km/h
381 25-08-2004 21:10:02 14.7 C 11.21 g/m*3 14.7 C 0 km/h
382 25-08-2004 21:22:00 14.6 C 11.01 g/m*3 14.6 C 0 km/h
383 25-08-2004 21:34:01 14.7 C 10.95 g/m*3 14.7 C 0 km/h
384 25-08-2004 21:46:01 14.8 C 10.89 g/m*3 14.8 C 0 km/h
385 25-08-2004 21:58:02 14.8 C 10.89 g/m*3 14.8 C 0 km/h
386 25-08-2004 22:10:01 14.7 C 10.83 g/m*3 14.7 C 0 km/h
387 25-08-2004 22:22:01 14.6 C 10.76 g/m*3 14.6 C 0 km/h
388 25-08-2004 22:34:01 14.8 C 10.77 g/m*3 14.8 C 0 km/h
389 25-08-2004 22:46:01 14.8 C 10.77 g/m*3 14.8 C 0 km/h
390 25-08-2004 22:58:01 14.9 C 10.83 g/m*3 14.9 C 0 km/h
391 25-08-2004 23:10:01 14.9 C 10.83 g/m*3 14.9 C 0 km/h
392 25-08-2004 23:22:00 15 C 10.77 g/m*3 15 C 0 km/h
393 25-08-2004 23:34:00 15.1 C 10.71 g/m*3 15.1 C 0 km/h
394 25-08-2004 23:46:02 15.1 C 10.71 g/m*3 15.1 C 0 km/h
395 25-08-2004 23:58:02 15.1 C 10.71 g/m*3 15.1 C 0 km/h
396 26-08-2004 00:10:02 15 C 10.64 g/m*3 15 C 0 km/h
397 26-08-2004 00:22:01 15.4 C 10.64 g/m*3 15.4 C 0 km/h
398 26-08-2004 00:34:01 15.4 C 10.38 g/m*3 15.4 C 0 km/h
399 26-08-2004 00:46:01 15.4 C 10.51 g/m*3 15.4 C 0 km/h
400 26-08-2004 00:58:01 15 C 10.51 g/m*3 15 C 0 km/h
Sensor: Nr:Datum:Temp:Abs-Feuchte:Windchill:Wind:
Aussen-T/F 401 26-08-2004 01:10:01 14.8 C 10.64 g/m*3 14.8 C 0 km/h
402 26-08-2004 01:22:00 14.8 C 10.64 g/m*3 14.8 C 0 km/h
403 26-08-2004 01:34:00 14.6 C 10.64 g/m*3 14.6 C 0 km/h
404 26-08-2004 01:46:01 14.5 C 10.57 g/m*3 14.5 C 0 km/h
405 26-08-2004 01:58:01 14.8 C 10.64 g/m*3 14.8 C 0 km/h
406 26-08-2004 02:10:01 14.8 C 10.51 g/m*3 14.8 C 0 km/h
407 26-08-2004 02:22:02 14.7 C 10.58 g/m*3 14.7 C 0 km/h
408 26-08-2004 02:34:01 14.5 C 10.45 g/m*3 14.5 C 0 km/h
409 26-08-2004 02:47:02 14.6 C 10.51 g/m*3 14.6 C 0 km/h
410 26-08-2004 02:59:02 14.6 C 10.51 g/m*3 14.6 C 0 km/h
411 26-08-2004 03:11:02 14.7 C 10.45 g/m*3 14.7 C 0 km/h
412 26-08-2004 03:23:02 14.7 C 10.58 g/m*3 14.7 C 0 km/h
413 26-08-2004 03:35:01 14.7 C 10.45 g/m*3 14.7 C 0 km/h
414 26-08-2004 03:47:01 14.7 C 10.32 g/m*3 14.7 C 0 km/h
415 26-08-2004 03:59:01 14.6 C 10.39 g/m*3 14.6 C 0 km/h
416 26-08-2004 04:11:01 14.6 C 10.39 g/m*3 14.6 C 0 km/h
417 26-08-2004 04:23:01 14.3 C 10.07 g/m*3 14.3 C 0 km/h
418 26-08-2004 04:35:00 14 C 10.13 g/m*3 14 C 0 km/h
419 26-08-2004 04:47:01 14 C 10.13 g/m*3 14 C 0 km/h
420 26-08-2004 04:59:01 14.1 C 10.19 g/m*3 14.1 C 0 km/h
421 26-08-2004 05:11:01 14.1 C 10.19 g/m*3 14.1 C 0 km/h
422 26-08-2004 05:23:00 14.1 C 10.19 g/m*3 14.1 C 0 km/h
423 26-08-2004 05:35:00 14.1 C 10.32 g/m*3 14.1 C 0 km/h
424 26-08-2004 05:47:01 14.2 C 10.38 g/m*3 14.2 C 0 km/h
425 26-08-2004 05:59:01 14.1 C 10.32 g/m*3 14.1 C 0 km/h
Sensor: Nr:Datum:Temp:Abs-Feuchte:Windchill:Wind:
Aussen-T/F 426 26-08-2004 06:11:02 14.1 C 10.32 g/m*3 14.1 C 0 km/h
427 26-08-2004 06:23:01 14.2 C 10.38 g/m*3 14.2 C 0 km/h
428 26-08-2004 06:35:01 14.2 C 10.38 g/m*3 14.2 C 0 km/h
429 26-08-2004 06:47:01 14.3 C 10.32 g/m*3 14.3 C 0 km/h
430 26-08-2004 06:59:01 14.4 C 10.38 g/m*3 14.4 C 0 km/h
431 26-08-2004 07:11:01 14.4 C 10.38 g/m*3 14.4 C 0 km/h
432 26-08-2004 07:23:00 14.5 C 10.45 g/m*3 14.5 C 0 km/h
433 26-08-2004 07:35:00 14.7 C 10.45 g/m*3 14.7 C 0 km/h
434 26-08-2004 07:47:02 14.8 C 10.51 g/m*3 14.8 C 0 km/h
435 26-08-2004 07:59:02 14.9 C 10.58 g/m*3 14.9 C 0 km/h
436 26-08-2004 08:11:02 15.1 C 10.45 g/m*3 15.1 C 0 km/h
437 26-08-2004 08:23:01 15.2 C 10.25 g/m*3 15.2 C 0 km/h
438 26-08-2004 08:35:01 15.4 C 10.38 g/m*3 15.4 C 0 km/h
439 26-08-2004 08:47:01 15.9 C 10.7 g/m*3 15.9 C 0 km/h
440 26-08-2004 08:59:01 16 C 10.49 g/m*3 16 C 0 km/h
441 26-08-2004 09:11:01 16.1 C 10.55 g/m*3 16.1 C 0 km/h
442 26-08-2004 09:23:00 15.5 C 10.71 g/m*3 15.5 C 0 km/h
443 26-08-2004 09:35:00 15 C 11.03 g/m*3 15 C 0 km/h
444 26-08-2004 09:47:01 14.8 C 11.15 g/m*3 14.8 C 0 km/h
445 26-08-2004 09:59:01 14.9 C 11.34 g/m*3 14.9 C 0 km/h
446 26-08-2004 10:11:01 15.3 C 11.62 g/m*3 15.3 C 0 km/h
447 26-08-2004 10:23:01 15.6 C 11.7 g/m*3 15.6 C 0 km/h
448 26-08-2004 10:35:01 16.1 C 11.65 g/m*3 16.1 C 0 km/h
449 26-08-2004 10:47:02 16.2 C 11.31 g/m*3 16.2 C 0 km/h
450 26-08-2004 10:59:02 16.5 C 11.37 g/m*3 16.5 C 0 km/h
Sensor: Nr:Datum:Temp:Abs-Feuchte:Windchill:Wind:
Aussen-T/F 451 26-08-2004 11:11:02 17 C 11.43 g/m*3 17 C 0 km/h
452 26-08-2004 11:23:01 17.8 C 11.54 g/m*3 17.8 C 0 km/h
453 26-08-2004 11:35:01 18 C 10.91 g/m*3 18 C 0 km/h
454 26-08-2004 11:47:01 18.1 C 11.12 g/m*3 18.1 C 0 km/h
455 26-08-2004 11:59:01 17.7 C 10.56 g/m*3 17.7 C 0 km/h
456 26-08-2004 12:11:01 19 C 10.59 g/m*3 19 C 0 km/h
457 26-08-2004 12:23:03 18.8 C 9.99 g/m*3 18.8 C 0 km/h
458 26-08-2004 12:35:01 19.4 C 10.18 g/m*3 19.4 C 0 km/h
459 26-08-2004 12:47:01 19.2 C 10.06 g/m*3 19.2 C 0 km/h
460 26-08-2004 12:59:01 19 C 10.1 g/m*3 19 C 0 km/h
461 26-08-2004 13:11:01 19.4 C 10.18 g/m*3 19.4 C 0 km/h
462 26-08-2004 13:23:05 19.2 C 9.73 g/m*3 19.2 C 0 km/h
463 26-08-2004 13:35:01 19.8 C 10.08 g/m*3 19.8 C 0 km/h
464 26-08-2004 13:47:01 20 C 9.68 g/m*3 20 C 0 km/h
465 26-08-2004 13:59:01 19.5 C 9.9 g/m*3 19.5 C 0 km/h
466 26-08-2004 14:11:01 19.7 C 9.68 g/m*3 19.7 C 0 km/h
467 26-08-2004 14:23:01 20 C 9.68 g/m*3 20 C 0 km/h
468 26-08-2004 14:35:01 20.4 C 9.55 g/m*3 20.4 C 0 km/h
469 26-08-2004 14:47:02 20.1 C 9.39 g/m*3 20.1 C 0 km/h
470 26-08-2004 14:59:02 19.9 C 9.11 g/m*3 19.9 C 0 km/h
471 26-08-2004 15:11:02 20.2 C 10.14 g/m*3 20.2 C 0 km/h
472 26-08-2004 15:23:09 21.2 C 10.19 g/m*3 21.2 C 0 km/h
473 26-08-2004 15:35:01 20.8 C 9.42 g/m*3 20.8 C 0 km/h
474 26-08-2004 15:47:01 20.5 C 9.43 g/m*3 20.5 C 0 km/h
475 26-08-2004 15:59:01 20 C 8.81 g/m*3 20 C 0 km/h
Sensor: Nr:Datum:Temp:Abs-Feuchte:Windchill:Wind:
Aussen-T/F 476 26-08-2004 16:11:01 20.5 C 9.25 g/m*3 20.5 C 0 km/h
477 26-08-2004 16:23:01 20.7 C 9.54 g/m*3 20.7 C 0 km/h
478 26-08-2004 16:35:01 20.1 C 8.69 g/m*3 20.1 C 0 km/h
479 26-08-2004 16:47:02 19.9 C 8.59 g/m*3 19.9 C 0 km/h
480 26-08-2004 16:59:02 20.1 C 8.87 g/m*3 20.1 C 0 km/h
481 26-08-2004 17:11:02 20 C 8.99 g/m*3 20 C 0 km/h
482 26-08-2004 17:23:02 20 C 8.99 g/m*3 20 C 0 km/h
483 26-08-2004 17:35:01 19.8 C 9.22 g/m*3 19.8 C 0 km/h
484 26-08-2004 17:47:01 20.1 C 9.04 g/m*3 20.1 C 0 km/h
485 26-08-2004 17:59:01 19.8 C 9.05 g/m*3 19.8 C 0 km/h
486 26-08-2004 18:11:01 19.6 C 8.95 g/m*3 19.6 C 0 km/h
487 26-08-2004 18:23:01 19.2 C 9.07 g/m*3 19.2 C 0 km/h
488 26-08-2004 18:35:00 19.8 C 9.22 g/m*3 19.8 C 0 km/h
489 26-08-2004 18:47:01 20.5 C 9.25 g/m*3 20.5 C 0 km/h
490 26-08-2004 18:59:01 20.4 C 9.55 g/m*3 20.4 C 0 km/h
491 26-08-2004 19:11:01 20.2 C 9.09 g/m*3 20.2 C 0 km/h
492 26-08-2004 19:23:01 20.2 C 8.92 g/m*3 20.2 C 0 km/h
493 26-08-2004 19:35:01 19.6 C 8.78 g/m*3 19.6 C 0 km/h
494 26-08-2004 19:47:01 19.2 C 9.07 g/m*3 19.2 C 0 km/h
495 26-08-2004 19:59:01 18.8 C 8.7 g/m*3 18.8 C 0 km/h
496 26-08-2004 20:11:01 18.3 C 8.6 g/m*3 18.3 C 0 km/h
497 26-08-2004 20:23:00 17.7 C 8.75 g/m*3 17.7 C 0 km/h
498 26-08-2004 20:35:00 17 C 8.68 g/m*3 17 C 0 km/h
499 26-08-2004 20:47:02 16.8 C 8.44 g/m*3 16.8 C 0 km/h
500 26-08-2004 20:59:03 16.8 C 8.29 g/m*3 16.8 C 0 km/h
Sensor: Nr:Datum:Temp:Abs-Feuchte:Windchill:Wind:
Aussen-T/F 501 26-08-2004 21:11:01 16.7 C 8.24 g/m*3 16.7 C 0 km/h
502 26-08-2004 21:23:01 16.5 C 8.14 g/m*3 16.5 C 0 km/h
503 26-08-2004 21:35:01 16.2 C 8.14 g/m*3 16.2 C 0 km/h
504 26-08-2004 21:47:02 15.9 C 8.4 g/m*3 15.9 C 0 km/h
505 26-08-2004 21:59:02 15.6 C 8.38 g/m*3 15.6 C 0 km/h
506 26-08-2004 22:11:02 15.3 C 8.36 g/m*3 15.3 C 0 km/h
507 26-08-2004 22:23:02 15.1 C 8.26 g/m*3 15.1 C 0 km/h
508 26-08-2004 22:35:01 14.8 C 8.49 g/m*3 14.8 C 0 km/h
509 26-08-2004 22:47:01 14.7 C 8.56 g/m*3 14.7 C 0 km/h
510 26-08-2004 22:59:01 14.7 C 8.18 g/m*3 14.7 C 0 km/h
511 26-08-2004 23:11:01 14.4 C 8.03 g/m*3 14.4 C 0 km/h
512 26-08-2004 23:23:00 14.2 C 7.94 g/m*3 14.2 C 0 km/h
513 26-08-2004 23:35:00 14 C 8.08 g/m*3 14 C 0 km/h
514 26-08-2004 23:47:01 13.7 C 8.05 g/m*3 13.7 C 0 km/h
515 26-08-2004 23:59:01 13.7 C 8.05 g/m*3 13.7 C 0 km/h
516 27-08-2004 00:11:02 13.6 C 8 g/m*3 13.6 C 0 km/h
517 27-08-2004 00:23:02 13.3 C 7.97 g/m*3 13.3 C 0 km/h
518 27-08-2004 00:35:01 13.3 C 8.09 g/m*3 13.3 C 0 km/h
519 27-08-2004 00:47:01 13.3 C 8.09 g/m*3 13.3 C 0 km/h
520 27-08-2004 00:59:01 13 C 7.94 g/m*3 13 C 0 km/h
521 27-08-2004 01:11:01 12.9 C 8.11 g/m*3 12.9 C 0 km/h
522 27-08-2004 01:23:01 12.4 C 8.09 g/m*3 12.4 C 0 km/h
523 27-08-2004 01:35:00 12.1 C 8.26 g/m*3 12.1 C 0 km/h
524 27-08-2004 01:47:01 12 C 8.21 g/m*3 12 C 0 km/h
525 27-08-2004 01:59:01 11.8 C 8.31 g/m*3 11.8 C 0 km/h
Sensor: Nr:Datum:Temp:Abs-Feuchte:Windchill:Wind:
Aussen-T/F 526 27-08-2004 02:11:01 11.6 C 8.32 g/m*3 11.6 C 0 km/h
527 27-08-2004 02:23:00 11.5 C 8.37 g/m*3 11.5 C 0 km/h
528 27-08-2004 02:35:00 11.3 C 8.36 g/m*3 11.3 C 0 km/h
529 27-08-2004 02:48:03 11.1 C 8.46 g/m*3 11.1 C 0 km/h
530 27-08-2004 03:00:03 11.1 C 8.46 g/m*3 11.1 C 0 km/h
531 27-08-2004 03:12:03 11.1 C 8.36 g/m*3 11.1 C 0 km/h
532 27-08-2004 03:24:03 11 C 8.31 g/m*3 11 C 0 km/h
533 27-08-2004 03:36:01 11 C 8.31 g/m*3 11 C 0 km/h
534 27-08-2004 03:48:01 11.3 C 8.36 g/m*3 11.3 C 0 km/h
535 27-08-2004 04:00:01 11.5 C 8.37 g/m*3 11.5 C 0 km/h
536 27-08-2004 04:12:01 11.4 C 8.31 g/m*3 11.4 C 0 km/h
537 27-08-2004 04:24:00 11.2 C 8.31 g/m*3 11.2 C 0 km/h
538 27-08-2004 04:36:00 11.1 C 8.36 g/m*3 11.1 C 0 km/h
539 27-08-2004 04:48:01 11 C 8.31 g/m*3 11 C 0 km/h
540 27-08-2004 05:00:01 10.9 C 8.36 g/m*3 10.9 C 0 km/h
541 27-08-2004 05:12:01 11.1 C 8.46 g/m*3 11.1 C 0 km/h
542 27-08-2004 05:24:01 11.1 C 8.46 g/m*3 11.1 C 0 km/h
543 27-08-2004 05:36:01 11.4 C 8.62 g/m*3 11.4 C 0 km/h
544 27-08-2004 05:48:01 11.6 C 8.63 g/m*3 11.6 C 0 km/h
545 27-08-2004 06:00:01 11.5 C 8.57 g/m*3 11.5 C 0 km/h
546 27-08-2004 06:12:01 11.4 C 8.52 g/m*3 11.4 C 0 km/h
547 27-08-2004 06:24:00 11.4 C 8.62 g/m*3 11.4 C 0 km/h
548 27-08-2004 06:36:00 11.6 C 8.63 g/m*3 11.6 C 0 km/h
549 27-08-2004 06:48:01 11.7 C 8.68 g/m*3 11.7 C 0 km/h
550 27-08-2004 07:00:01 11.9 C 8.79 g/m*3 11.9 C 0 km/h
Sensor: Nr:Datum:Temp:Abs-Feuchte:Windchill:Wind:
Aussen-T/F 551 27-08-2004 07:12:01 12 C 8.74 g/m*3 12 C 0 km/h
552 27-08-2004 07:24:00 12 C 8.74 g/m*3 12 C 0 km/h
553 27-08-2004 07:36:00 12.2 C 8.85 g/m*3 12.2 C 0 km/h
554 27-08-2004 07:48:02 12.2 C 8.74 g/m*3 12.2 C 0 km/h
555 27-08-2004 08:00:02 12.4 C 8.85 g/m*3 12.4 C 0 km/h
556 27-08-2004 08:12:02 12.5 C 8.91 g/m*3 12.5 C 0 km/h
557 27-08-2004 08:24:01 12.8 C 9.07 g/m*3 12.8 C 0 km/h
558 27-08-2004 08:36:01 13.2 C 9.07 g/m*3 13.2 C 0 km/h
559 27-08-2004 08:48:02 13.4 C 9.07 g/m*3 13.4 C 0 km/h
560 27-08-2004 09:00:02 13.6 C 9.18 g/m*3 13.6 C 0 km/h
561 27-08-2004 09:12:01 13.8 C 9.29 g/m*3 13.8 C 0 km/h
562 27-08-2004 09:24:01 14 C 9.29 g/m*3 14 C 0 km/h
563 27-08-2004 09:36:00 14.3 C 9.46 g/m*3 14.3 C 0 km/h
564 27-08-2004 09:48:01 14.5 C 9.45 g/m*3 14.5 C 0 km/h
565 27-08-2004 10:00:01 14.7 C 9.69 g/m*3 14.7 C 0 km/h
566 27-08-2004 10:12:02 15.4 C 9.85 g/m*3 15.4 C 0 km/h
567 27-08-2004 10:24:02 15.9 C 9.89 g/m*3 15.9 C 0 km/h
568 27-08-2004 10:36:02 16.3 C 9.71 g/m*3 16.3 C 0 km/h
569 27-08-2004 10:48:01 16.6 C 9.61 g/m*3 16.6 C 0 km/h
570 27-08-2004 11:00:01 16.5 C 9.55 g/m*3 16.5 C 0 km/h
571 27-08-2004 11:12:01 17.1 C 9.46 g/m*3 17.1 C 0 km/h
572 27-08-2004 11:24:01 17.2 C 9.08 g/m*3 17.2 C 0 km/h
573 27-08-2004 11:36:00 17.3 C 9.28 g/m*3 17.3 C 0 km/h
574 27-08-2004 11:48:01 17.7 C 9.05 g/m*3 17.7 C 0 km/h
575 27-08-2004 12:00:01 17.8 C 8.95 g/m*3 17.8 C 0 km/h
Sensor: Nr:Datum:Temp:Abs-Feuchte:Windchill:Wind:
Aussen-T/F 576 27-08-2004 12:12:01 18.1 C 8.96 g/m*3 18.1 C 0 km/h
577 27-08-2004 12:24:00 18.9 C 9.23 g/m*3 18.9 C 0 km/h
578 27-08-2004 12:36:01 19.3 C 8.79 g/m*3 19.3 C 0 km/h
579 27-08-2004 12:48:02 19.6 C 8.78 g/m*3 19.6 C 0 km/h
580 27-08-2004 13:00:02 20.2 C 9.09 g/m*3 20.2 C 0 km/h
581 27-08-2004 13:12:02 20.3 C 8.62 g/m*3 20.3 C 0 km/h
582 27-08-2004 13:24:02 20.3 C 8.27 g/m*3 20.3 C 0 km/h
583 27-08-2004 13:36:01 21.2 C 8.52 g/m*3 21.2 C 0 km/h
584 27-08-2004 13:48:01 20.8 C 8.87 g/m*3 20.8 C 0 km/h
585 27-08-2004 14:00:01 20.2 C 8.57 g/m*3 20.2 C 0 km/h
586 27-08-2004 14:12:01 20.3 C 8.79 g/m*3 20.3 C 0 km/h
587 27-08-2004 14:24:03 20.3 C 8.62 g/m*3 20.3 C 0 km/h
588 27-08-2004 14:36:01 20.6 C 8.59 g/m*3 20.6 C 0 km/h
589 27-08-2004 14:48:01 20.8 C 8.69 g/m*3 20.8 C 0 km/h
590 27-08-2004 15:00:01 20.9 C 8.74 g/m*3 20.9 C 0 km/h
591 27-08-2004 15:12:01 20.5 C 8.72 g/m*3 20.5 C 0 km/h
592 27-08-2004 15:24:01 20.2 C 8.57 g/m*3 20.2 C 0 km/h
593 27-08-2004 15:36:00 20.2 C 8.39 g/m*3 20.2 C 0 km/h
594 27-08-2004 15:48:02 20 C 8.3 g/m*3 20 C 0 km/h
595 27-08-2004 16:00:02 20 C 8.47 g/m*3 20 C 0 km/h
596 27-08-2004 16:12:01 20 C 8.64 g/m*3 20 C 0 km/h
597 27-08-2004 16:24:00 19.8 C 8.71 g/m*3 19.8 C 0 km/h
598 27-08-2004 16:36:00 19.7 C 8.83 g/m*3 19.7 C 0 km/h
599 27-08-2004 16:48:02 19.7 C 8.83 g/m*3 19.7 C 0 km/h
600 27-08-2004 17:00:02 19.9 C 8.93 g/m*3 19.9 C 0 km/h
Sensor: Nr:Datum:Temp:Abs-Feuchte:Windchill:Wind:
Aussen-T/F 601 27-08-2004 17:12:02 20 C 8.81 g/m*3 20 C 0 km/h
602 27-08-2004 17:24:02 18.8 C 9.99 g/m*3 18.8 C 0 km/h
603 27-08-2004 17:36:01 17.8 C 10.78 g/m*3 17.8 C 0 km/h
604 27-08-2004 17:48:01 18.3 C 10.48 g/m*3 18.3 C 0 km/h
605 27-08-2004 18:00:01 18.3 C 10.79 g/m*3 18.3 C 0 km/h
606 27-08-2004 18:12:01 18.2 C 10.88 g/m*3 18.2 C 0 km/h
607 27-08-2004 18:24:01 18.6 C 10.35 g/m*3 18.6 C 0 km/h
608 27-08-2004 18:36:01 18.7 C 10.09 g/m*3 18.7 C 0 km/h
609 27-08-2004 18:48:02 17.8 C 10.62 g/m*3 17.8 C 0 km/h
610 27-08-2004 19:00:02 17.7 C 10.86 g/m*3 17.7 C 0 km/h
611 27-08-2004 19:12:01 17.3 C 10.9 g/m*3 17.3 C 0 km/h
612 27-08-2004 19:24:03 16.9 C 11.08 g/m*3 16.9 C 0 km/h
613 27-08-2004 19:36:01 17 C 11 g/m*3 17 C 0 km/h
614 27-08-2004 19:48:01 17.1 C 11.06 g/m*3 17.1 C 0 km/h
615 27-08-2004 20:00:01 17.1 C 11.06 g/m*3 17.1 C 0 km/h
616 27-08-2004 20:12:01 17.1 C 11.21 g/m*3 17.1 C 0 km/h
617 27-08-2004 20:24:01 17 C 11.14 g/m*3 17 C 0 km/h
618 27-08-2004 20:36:01 17.1 C 11.06 g/m*3 17.1 C 0 km/h
619 27-08-2004 20:48:02 17.1 C 11.21 g/m*3 17.1 C 0 km/h
620 27-08-2004 21:00:02 17.1 C 11.21 g/m*3 17.1 C 0 km/h
621 27-08-2004 21:12:01 17.2 C 11.28 g/m*3 17.2 C 0 km/h
622 27-08-2004 21:24:02 17.3 C 11.05 g/m*3 17.3 C 0 km/h
623 27-08-2004 21:36:01 17.8 C 10.78 g/m*3 17.8 C 0 km/h
624 27-08-2004 21:48:01 17.9 C 10.69 g/m*3 17.9 C 0 km/h
625 27-08-2004 22:00:01 18 C 10.44 g/m*3 18 C 0 km/h
Sensor: Nr:Datum:Temp:Abs-Feuchte:Windchill:Wind:
Aussen-T/F 626 27-08-2004 22:12:01 18.2 C 10.57 g/m*3 18.2 C 0 km/h
627 27-08-2004 22:24:00 18.4 C 10.7 g/m*3 18.4 C 0 km/h
628 27-08-2004 22:36:00 18.1 C 10.66 g/m*3 18.1 C 0 km/h
629 27-08-2004 22:48:01 18.1 C 10.66 g/m*3 18.1 C 0 km/h
630 27-08-2004 23:00:01 18.1 C 10.66 g/m*3 18.1 C 0 km/h
631 27-08-2004 23:12:01 17.9 C 10.99 g/m*3 17.9 C 0 km/h
632 27-08-2004 23:24:00 17.7 C 10.86 g/m*3 17.7 C 0 km/h
633 27-08-2004 23:36:01 17.8 C 10.93 g/m*3 17.8 C 0 km/h
634 27-08-2004 23:48:02 17.7 C 10.86 g/m*3 17.7 C 0 km/h
635 28-08-2004 00:00:02 17.7 C 10.86 g/m*3 17.7 C 0 km/h
636 28-08-2004 00:12:02 17.6 C 10.8 g/m*3 17.6 C 0 km/h
637 28-08-2004 00:24:01 17.5 C 11.03 g/m*3 17.5 C 0 km/h
638 28-08-2004 00:36:01 17.5 C 11.03 g/m*3 17.5 C 0 km/h
639 28-08-2004 00:48:01 17.2 C 11.28 g/m*3 17.2 C 0 km/h
640 28-08-2004 01:00:01 16.8 C 11.44 g/m*3 16.8 C 0 km/h
641 28-08-2004 01:12:01 16.6 C 11.44 g/m*3 16.6 C 0 km/h
642 28-08-2004 01:24:01 16.7 C 11.51 g/m*3 16.7 C 0 km/h
643 28-08-2004 01:36:01 16.7 C 11.65 g/m*3 16.7 C 0 km/h
644 28-08-2004 01:48:02 16.8 C 11.58 g/m*3 16.8 C 0 km/h
645 28-08-2004 02:00:02 16.9 C 11.51 g/m*3 16.9 C 0 km/h
646 28-08-2004 02:12:02 17 C 11.29 g/m*3 17 C 0 km/h
647 28-08-2004 02:24:02 17 C 11.29 g/m*3 17 C 0 km/h
648 28-08-2004 02:36:01 17 C 11.29 g/m*3 17 C 0 km/h
649 28-08-2004 02:49:02 16.9 C 11.36 g/m*3 16.9 C 0 km/h
650 28-08-2004 03:01:02 16.9 C 11.36 g/m*3 16.9 C 0 km/h
Sensor: Nr:Datum:Temp:Abs-Feuchte:Windchill:Wind:
Aussen-T/F 651 28-08-2004 03:13:03 17 C 11.29 g/m*3 17 C 0 km/h
652 28-08-2004 03:25:03 17 C 11.14 g/m*3 17 C 0 km/h
653 28-08-2004 03:37:01 17 C 11.29 g/m*3 17 C 0 km/h
654 28-08-2004 03:49:01 17 C 11.29 g/m*3 17 C 0 km/h
655 28-08-2004 04:01:01 16.9 C 11.36 g/m*3 16.9 C 0 km/h
656 28-08-2004 04:13:01 16.9 C 11.51 g/m*3 16.9 C 0 km/h
657 28-08-2004 04:25:01 16.8 C 11.44 g/m*3 16.8 C 0 km/h
658 28-08-2004 04:37:00 16.6 C 11.58 g/m*3 16.6 C 0 km/h
659 28-08-2004 04:49:01 16.2 C 11.58 g/m*3 16.2 C 0 km/h
660 28-08-2004 05:01:01 16.1 C 11.65 g/m*3 16.1 C 0 km/h
661 28-08-2004 05:13:01 15.9 C 11.78 g/m*3 15.9 C 0 km/h
662 28-08-2004 05:25:01 15.8 C 11.85 g/m*3 15.8 C 0 km/h
663 28-08-2004 05:37:01 15.9 C 12.05 g/m*3 15.9 C 0 km/h
664 28-08-2004 05:49:02 15.8 C 11.98 g/m*3 15.8 C 0 km/h
665 28-08-2004 06:01:02 15.7 C 12.04 g/m*3 15.7 C 0 km/h
666 28-08-2004 06:13:02 15.7 C 12.18 g/m*3 15.7 C 0 km/h
667 28-08-2004 06:25:01 15.6 C 12.1 g/m*3 15.6 C 0 km/h
668 28-08-2004 06:37:01 15.6 C 12.23 g/m*3 15.6 C 0 km/h
669 28-08-2004 06:49:01 15.5 C 12.16 g/m*3 15.5 C 0 km/h
670 28-08-2004 07:01:01 15.5 C 12.16 g/m*3 15.5 C 0 km/h
671 28-08-2004 07:13:01 15.5 C 12.16 g/m*3 15.5 C 0 km/h
672 28-08-2004 07:25:00 15.9 C 12.46 g/m*3 15.9 C 0 km/h
673 28-08-2004 07:37:00 15.6 C 12.23 g/m*3 15.6 C 0 km/h
674 28-08-2004 07:49:02 15.6 C 12.23 g/m*3 15.6 C 0 km/h
675 28-08-2004 08:01:02 15.8 C 12.38 g/m*3 15.8 C 0 km/h
Sensor: Nr:Datum:Temp:Abs-Feuchte:Windchill:Wind:
Aussen-T/F 676 28-08-2004 08:13:02 15.8 C 12.38 g/m*3 15.8 C 0 km/h
677 28-08-2004 08:25:01 15.8 C 12.38 g/m*3 15.8 C 0 km/h
678 28-08-2004 08:37:01 16 C 12.4 g/m*3 16 C 0 km/h
679 28-08-2004 08:49:01 16.1 C 12.47 g/m*3 16.1 C 0 km/h
680 28-08-2004 09:01:01 16.2 C 12.41 g/m*3 16.2 C 0 km/h
681 28-08-2004 09:13:01 16 C 12.26 g/m*3 16 C 0 km/h
682 28-08-2004 09:25:00 16 C 12.26 g/m*3 16 C 0 km/h
683 28-08-2004 09:37:00 16 C 12.26 g/m*3 16 C 0 km/h
684 28-08-2004 09:49:01 16 C 12.26 g/m*3 16 C 0 km/h
685 28-08-2004 10:01:01 16.2 C 12.41 g/m*3 16.2 C 0 km/h
686 28-08-2004 10:13:01 16.2 C 12.27 g/m*3 16.2 C 0 km/h
687 28-08-2004 10:25:01 16.1 C 12.2 g/m*3 16.1 C 0 km/h
688 28-08-2004 10:37:01 16 C 12.13 g/m*3 16 C 0 km/h
689 28-08-2004 10:49:01 16.1 C 12.2 g/m*3 16.1 C 0 km/h
690 28-08-2004 11:01:01 16 C 12.13 g/m*3 16 C 0 km/h
691 28-08-2004 11:13:01 16.1 C 12.2 g/m*3 16.1 C 0 km/h
692 28-08-2004 11:25:00 16.4 C 12.42 g/m*3 16.4 C 0 km/h
693 28-08-2004 11:37:00 16.6 C 12.71 g/m*3 16.6 C 0 km/h
694 28-08-2004 11:49:01 16.9 C 12.94 g/m*3 16.9 C 0 km/h
695 28-08-2004 12:01:01 16.7 C 12.65 g/m*3 16.7 C 0 km/h
696 28-08-2004 12:13:01 17 C 12.73 g/m*3 17 C 0 km/h
697 28-08-2004 12:25:00 17.4 C 12.89 g/m*3 17.4 C 0 km/h
698 28-08-2004 12:37:01 17.3 C 12.82 g/m*3 17.3 C 0 km/h
699 28-08-2004 12:49:02 17.4 C 12.89 g/m*3 17.4 C 0 km/h
700 28-08-2004 13:01:03 17.9 C 13.13 g/m*3 17.9 C 0 km/h
Sensor: Nr:Datum:Temp:Abs-Feuchte:Windchill:Wind:
Aussen-T/F 701 28-08-2004 13:13:03 18.3 C 13.13 g/m*3 18.3 C 0 km/h
702 28-08-2004 13:25:01 18.8 C 13.05 g/m*3 18.8 C 0 km/h
703 28-08-2004 13:37:01 18.6 C 12.89 g/m*3 18.6 C 0 km/h
704 28-08-2004 13:49:01 19.7 C 13.08 g/m*3 19.7 C 0 km/h
705 28-08-2004 14:01:01 19.7 C 12.4 g/m*3 19.7 C 0 km/h
706 28-08-2004 14:13:01 19.7 C 12.4 g/m*3 19.7 C 0 km/h
707 28-08-2004 14:25:00 19.8 C 12.64 g/m*3 19.8 C 0 km/h
708 28-08-2004 14:37:00 20.1 C 12.52 g/m*3 20.1 C 0 km/h
709 28-08-2004 14:49:02 21.2 C 12.6 g/m*3 21.2 C 0 km/h
710 28-08-2004 15:01:02 20.9 C 12.75 g/m*3 20.9 C 0 km/h
711 28-08-2004 15:13:02 21.5 C 12.26 g/m*3 21.5 C 0 km/h
712 28-08-2004 15:25:02 21.9 C 12.35 g/m*3 21.9 C 0 km/h
713 28-08-2004 15:37:01 22 C 12.03 g/m*3 22 C 0 km/h
714 28-08-2004 15:49:01 21.9 C 11.96 g/m*3 21.9 C 0 km/h
715 28-08-2004 16:01:01 22.1 C 12.1 g/m*3 22.1 C 0 km/h
716 28-08-2004 16:13:01 21.8 C 11.9 g/m*3 21.8 C 0 km/h
717 28-08-2004 16:25:00 21.7 C 11.64 g/m*3 21.7 C 0 km/h
718 28-08-2004 16:37:00 21.6 C 11.76 g/m*3 21.6 C 0 km/h
719 28-08-2004 16:49:01 21.3 C 11.37 g/m*3 21.3 C 0 km/h
720 28-08-2004 17:01:01 21.3 C 11.74 g/m*3 21.3 C 0 km/h
721 28-08-2004 17:13:01 21.2 C 11.86 g/m*3 21.2 C 0 km/h
722 28-08-2004 17:25:01 20.8 C 11.95 g/m*3 20.8 C 0 km/h
723 28-08-2004 17:37:01 20.8 C 12.31 g/m*3 20.8 C 0 km/h
724 28-08-2004 17:49:01 20.8 C 12.49 g/m*3 20.8 C 0 km/h
725 28-08-2004 18:01:01 20.5 C 12.46 g/m*3 20.5 C 0 km/h
Sensor: Nr:Datum:Temp:Abs-Feuchte:Windchill:Wind:
Aussen-T/F 726 28-08-2004 18:13:01 20.2 C 12.59 g/m*3 20.2 C 0 km/h
727 28-08-2004 18:25:01 19.9 C 12.71 g/m*3 19.9 C 0 km/h
728 28-08-2004 18:37:00 19.4 C 12.85 g/m*3 19.4 C 0 km/h
729 28-08-2004 18:49:01 18.9 C 13.45 g/m*3 18.9 C 0 km/h
730 28-08-2004 19:01:01 18.6 C 13.53 g/m*3 18.6 C 0 km/h
731 28-08-2004 19:13:01 18.4 C 13.68 g/m*3 18.4 C 0 km/h
732 28-08-2004 19:25:00 18.2 C 13.68 g/m*3 18.2 C 0 km/h
733 28-08-2004 19:37:00 18 C 13.52 g/m*3 18 C 0 km/h
734 28-08-2004 19:49:02 17.9 C 13.59 g/m*3 17.9 C 0 km/h
735 28-08-2004 20:01:02 17.7 C 13.58 g/m*3 17.7 C 0 km/h
736 28-08-2004 20:13:02 17.4 C 13.34 g/m*3 17.4 C 0 km/h
737 28-08-2004 20:25:01 17.1 C 12.96 g/m*3 17.1 C 0 km/h
738 28-08-2004 20:37:01 17.1 C 12.96 g/m*3 17.1 C 0 km/h
739 28-08-2004 20:49:01 17 C 12.59 g/m*3 17 C 0 km/h
740 28-08-2004 21:01:01 17 C 12.59 g/m*3 17 C 0 km/h
741 28-08-2004 21:13:01 17 C 12.59 g/m*3 17 C 0 km/h
742 28-08-2004 21:25:00 16.9 C 12.66 g/m*3 16.9 C 0 km/h
743 28-08-2004 21:37:00 16.8 C 12.72 g/m*3 16.8 C 0 km/h
744 28-08-2004 21:49:01 16.8 C 12.87 g/m*3 16.8 C 0 km/h
745 28-08-2004 22:01:02 16.8 C 12.87 g/m*3 16.8 C 0 km/h
746 28-08-2004 22:13:02 16.7 C 12.79 g/m*3 16.7 C 0 km/h
747 28-08-2004 22:25:01 16.6 C 12.71 g/m*3 16.6 C 0 km/h
748 28-08-2004 22:37:01 16.6 C 12.71 g/m*3 16.6 C 0 km/h
749 28-08-2004 22:49:01 16.6 C 12.71 g/m*3 16.6 C 0 km/h
750 28-08-2004 23:01:01 16.4 C 12.56 g/m*3 16.4 C 0 km/h
Sensor: Nr:Datum:Temp:Abs-Feuchte:Windchill:Wind:
Aussen-T/F 751 28-08-2004 23:13:01 16.5 C 12.78 g/m*3 16.5 C 0 km/h
752 28-08-2004 23:25:01 16.4 C 12.7 g/m*3 16.4 C 0 km/h
753 28-08-2004 23:37:00 16.4 C 12.7 g/m*3 16.4 C 0 km/h
754 28-08-2004 23:49:01 16.4 C 12.7 g/m*3 16.4 C 0 km/h
755 29-08-2004 00:01:01 16.5 C 12.92 g/m*3 16.5 C 0 km/h
756 29-08-2004 00:13:01 16.4 C 12.84 g/m*3 16.4 C 0 km/h
757 29-08-2004 00:25:01 16.4 C 12.7 g/m*3 16.4 C 0 km/h
758 29-08-2004 00:37:01 16.4 C 12.7 g/m*3 16.4 C 0 km/h
759 29-08-2004 00:49:01 16.5 C 12.64 g/m*3 16.5 C 0 km/h
760 29-08-2004 01:01:01 16.6 C 12.71 g/m*3 16.6 C 0 km/h
761 29-08-2004 01:13:01 16.6 C 12.57 g/m*3 16.6 C 0 km/h
762 29-08-2004 01:25:01 16.3 C 12.49 g/m*3 16.3 C 0 km/h
763 29-08-2004 01:37:00 16.1 C 12.34 g/m*3 16.1 C 0 km/h
764 29-08-2004 01:49:01 15.8 C 12.25 g/m*3 15.8 C 0 km/h
765 29-08-2004 02:01:01 15.8 C 12.25 g/m*3 15.8 C 0 km/h
766 29-08-2004 02:13:01 15.7 C 12.18 g/m*3 15.7 C 0 km/h
767 29-08-2004 02:25:00 15.7 C 12.18 g/m*3 15.7 C 0 km/h
768 29-08-2004 02:37:00 15.7 C 12.18 g/m*3 15.7 C 0 km/h
769 29-08-2004 02:50:03 15.6 C 12.1 g/m*3 15.6 C 0 km/h
770 29-08-2004 03:02:03 15.6 C 12.1 g/m*3 15.6 C 0 km/h
771 29-08-2004 03:14:03 15.4 C 11.96 g/m*3 15.4 C 0 km/h
772 29-08-2004 03:26:03 15.4 C 12.09 g/m*3 15.4 C 0 km/h
773 29-08-2004 03:38:01 15.4 C 12.09 g/m*3 15.4 C 0 km/h
774 29-08-2004 03:50:01 15.4 C 11.96 g/m*3 15.4 C 0 km/h
775 29-08-2004 04:02:02 15.4 C 11.96 g/m*3 15.4 C 0 km/h
Sensor: Nr:Datum:Temp:Abs-Feuchte:Windchill:Wind:
Aussen-T/F 776 29-08-2004 04:14:02 15.5 C 11.9 g/m*3 15.5 C 0 km/h
777 29-08-2004 04:26:01 15.7 C 11.91 g/m*3 15.7 C 0 km/h
778 29-08-2004 04:38:01 15.8 C 11.85 g/m*3 15.8 C 0 km/h
779 29-08-2004 04:50:01 15.7 C 11.77 g/m*3 15.7 C 0 km/h
780 29-08-2004 05:02:01 15.7 C 11.91 g/m*3 15.7 C 0 km/h
781 29-08-2004 05:14:01 15.8 C 11.98 g/m*3 15.8 C 0 km/h
782 29-08-2004 05:26:00 15.9 C 12.05 g/m*3 15.9 C 0 km/h
783 29-08-2004 05:38:00 15.9 C 11.92 g/m*3 15.9 C 0 km/h
784 29-08-2004 05:50:01 15.6 C 11.7 g/m*3 15.6 C 0 km/h
785 29-08-2004 06:02:01 15.9 C 11.92 g/m*3 15.9 C 0 km/h
786 29-08-2004 06:14:01 15.8 C 11.85 g/m*3 15.8 C 0 km/h
787 29-08-2004 06:26:00 15.6 C 11.84 g/m*3 15.6 C 0 km/h
788 29-08-2004 06:38:00 15.1 C 11.48 g/m*3 15.1 C 0 km/h
789 29-08-2004 06:50:02 14.9 C 11.6 g/m*3 14.9 C 0 km/h
790 29-08-2004 07:02:02 14.8 C 11.53 g/m*3 14.8 C 0 km/h
791 29-08-2004 07:14:02 14.8 C 11.53 g/m*3 14.8 C 0 km/h
792 29-08-2004 07:26:01 14.9 C 11.73 g/m*3 14.9 C 0 km/h
793 29-08-2004 07:38:01 15 C 11.67 g/m*3 15 C 0 km/h
794 29-08-2004 07:50:01 15.3 C 12.01 g/m*3 15.3 C 0 km/h
795 29-08-2004 08:02:01 15.7 C 12.31 g/m*3 15.7 C 0 km/h
796 29-08-2004 08:14:01 16 C 12.4 g/m*3 16 C 0 km/h
797 29-08-2004 08:26:00 15.9 C 12.46 g/m*3 15.9 C 0 km/h
798 29-08-2004 08:38:00 16.2 C 12.41 g/m*3 16.2 C 0 km/h
799 29-08-2004 08:50:01 16.5 C 12.5 g/m*3 16.5 C 0 km/h
800 29-08-2004 09:02:02 16.8 C 12.58 g/m*3 16.8 C 0 km/h
Sensor: Nr:Datum:Temp:Abs-Feuchte:Windchill:Wind:
Aussen-T/F 801 29-08-2004 09:14:02 17 C 12.3 g/m*3 17 C 0 km/h
802 29-08-2004 09:26:01 17.5 C 12.37 g/m*3 17.5 C 0 km/h
803 29-08-2004 09:38:01 18.1 C 12.52 g/m*3 18.1 C 0 km/h
804 29-08-2004 09:50:01 18.3 C 12.51 g/m*3 18.3 C 0 km/h
805 29-08-2004 10:02:01 18.5 C 12.5 g/m*3 18.5 C 0 km/h
806 29-08-2004 10:14:01 18.7 C 12.17 g/m*3 18.7 C 0 km/h
807 29-08-2004 10:26:00 18.9 C 12.15 g/m*3 18.9 C 0 km/h
808 29-08-2004 10:38:00 19.2 C 12.04 g/m*3 19.2 C 0 km/h
809 29-08-2004 10:50:01 19.2 C 11.71 g/m*3 19.2 C 0 km/h
810 29-08-2004 11:02:01 19.2 C 11.87 g/m*3 19.2 C 0 km/h
811 29-08-2004 11:14:01 19.4 C 11.68 g/m*3 19.4 C 0 km/h
812 29-08-2004 11:26:00 20 C 11.92 g/m*3 20 C 0 km/h
813 29-08-2004 11:38:00 20 C 11.41 g/m*3 20 C 0 km/h
814 29-08-2004 11:50:02 20 C 11.23 g/m*3 20 C 0 km/h
815 29-08-2004 12:02:02 20.8 C 11.59 g/m*3 20.8 C 0 km/h
816 29-08-2004 12:14:02 20.8 C 11.23 g/m*3 20.8 C 0 km/h
817 29-08-2004 12:26:01 20.9 C 11.47 g/m*3 20.9 C 0 km/h
818 29-08-2004 12:38:01 21.5 C 10.75 g/m*3 21.5 C 0 km/h
819 29-08-2004 12:50:01 21.8 C 9.98 g/m*3 21.8 C 0 km/h
820 29-08-2004 13:02:01 22.2 C 9.82 g/m*3 22.2 C 0 km/h
821 29-08-2004 13:14:01 22.5 C 9.79 g/m*3 22.5 C 0 km/h
822 29-08-2004 13:26:00 22.5 C 9.39 g/m*3 22.5 C 0 km/h
823 29-08-2004 13:38:00 22.6 C 9.24 g/m*3 22.6 C 0 km/h
824 29-08-2004 13:50:02 22.9 C 9.61 g/m*3 22.9 C 0 km/h
825 29-08-2004 14:02:02 22.9 C 9.81 g/m*3 22.9 C 0 km/h
Sensor: Nr:Datum:Temp:Abs-Feuchte:Windchill:Wind:
Aussen-T/F 826 29-08-2004 14:14:02 23.8 C 9.9 g/m*3 23.8 C 0 km/h
827 29-08-2004 14:26:02 23.3 C 9.62 g/m*3 23.3 C 0 km/h
828 29-08-2004 14:38:01 22.9 C 9.81 g/m*3 22.9 C 0 km/h
829 29-08-2004 14:50:01 22.9 C 9.2 g/m*3 22.9 C 0 km/h
830 29-08-2004 15:02:01 23.1 C 8.89 g/m*3 23.1 C 0 km/h
831 29-08-2004 15:14:01 23.4 C 9.46 g/m*3 23.4 C 0 km/h
832 29-08-2004 15:26:00 23.3 C 8.99 g/m*3 23.3 C 0 km/h
833 29-08-2004 15:38:00 23.1 C 9.72 g/m*3 23.1 C 0 km/h
834 29-08-2004 15:50:01 22.9 C 9.61 g/m*3 22.9 C 0 km/h
835 29-08-2004 16:02:01 23.3 C 9.2 g/m*3 23.3 C 0 km/h
836 29-08-2004 16:14:01 23.1 C 9.51 g/m*3 23.1 C 0 km/h
837 29-08-2004 16:26:00 24.3 C 9.52 g/m*3 24.3 C 0 km/h
838 29-08-2004 16:38:01 23.7 C 9.41 g/m*3 23.7 C 0 km/h
839 29-08-2004 16:50:01 23.8 C 9.68 g/m*3 23.8 C 0 km/h
840 29-08-2004 17:02:01 23.1 C 9.51 g/m*3 23.1 C 0 km/h
841 29-08-2004 17:14:01 23.4 C 9.88 g/m*3 23.4 C 0 km/h
842 29-08-2004 17:26:01 23.4 C 9.88 g/m*3 23.4 C 0 km/h
843 29-08-2004 17:38:01 23.3 C 10.04 g/m*3 23.3 C 0 km/h
844 29-08-2004 17:50:01 22.9 C 10.01 g/m*3 22.9 C 0 km/h
845 29-08-2004 18:02:02 22.4 C 9.93 g/m*3 22.4 C 0 km/h
846 29-08-2004 18:14:02 23.5 C 10.15 g/m*3 23.5 C 0 km/h
847 29-08-2004 18:26:01 23.3 C 10.04 g/m*3 23.3 C 0 km/h
848 29-08-2004 18:38:00 22.9 C 10.01 g/m*3 22.9 C 0 km/h
849 29-08-2004 18:50:02 23.1 C 9.92 g/m*3 23.1 C 0 km/h
850 29-08-2004 19:02:02 22.1 C 9.76 g/m*3 22.1 C 0 km/h
Sensor: Nr:Datum:Temp:Abs-Feuchte:Windchill:Wind:
Aussen-T/F 851 29-08-2004 19:14:02 21.6 C 10.62 g/m*3 21.6 C 0 km/h
852 29-08-2004 19:26:02 21.1 C 10.5 g/m*3 21.1 C 0 km/h
853 29-08-2004 19:38:01 20.6 C 10.92 g/m*3 20.6 C 0 km/h
854 29-08-2004 19:50:01 20 C 10.71 g/m*3 20 C 0 km/h
855 29-08-2004 20:02:01 19.6 C 10.8 g/m*3 19.6 C 0 km/h
856 29-08-2004 20:14:01 19.2 C 10.55 g/m*3 19.2 C 0 km/h
857 29-08-2004 20:26:01 18.7 C 10.73 g/m*3 18.7 C 0 km/h
858 29-08-2004 20:38:00 18.7 C 10.89 g/m*3 18.7 C 0 km/h
859 29-08-2004 20:50:01 18.8 C 11.27 g/m*3 18.8 C 0 km/h
860 29-08-2004 21:02:02 18.7 C 11.37 g/m*3 18.7 C 0 km/h
861 29-08-2004 21:14:02 18.8 C 11.43 g/m*3 18.8 C 0 km/h
862 29-08-2004 21:26:01 18.7 C 11.37 g/m*3 18.7 C 0 km/h
863 29-08-2004 21:38:01 18.5 C 11.39 g/m*3 18.5 C 0 km/h
864 29-08-2004 21:50:01 18.3 C 11.26 g/m*3 18.3 C 0 km/h
865 29-08-2004 22:02:01 18.2 C 11.35 g/m*3 18.2 C 0 km/h
866 29-08-2004 22:14:01 18.2 C 11.5 g/m*3 18.2 C 0 km/h
867 29-08-2004 22:26:00 17.9 C 11.45 g/m*3 17.9 C 0 km/h
868 29-08-2004 22:38:00 17.9 C 11.6 g/m*3 17.9 C 0 km/h
869 29-08-2004 22:50:01 18 C 11.21 g/m*3 18 C 0 km/h
870 29-08-2004 23:02:01 18 C 11.37 g/m*3 18 C 0 km/h
871 29-08-2004 23:14:01 18 C 11.37 g/m*3 18 C 0 km/h
872 29-08-2004 23:26:00 17.8 C 11.23 g/m*3 17.8 C 0 km/h
873 29-08-2004 23:38:01 17.7 C 11.32 g/m*3 17.7 C 0 km/h
874 29-08-2004 23:50:02 17.7 C 11.47 g/m*3 17.7 C 0 km/h
875 30-08-2004 00:02:02 17.8 C 11.54 g/m*3 17.8 C 0 km/h
Sensor: Nr:Datum:Temp:Abs-Feuchte:Windchill:Wind:
Aussen-T/F 876 30-08-2004 00:14:02 17.9 C 11.45 g/m*3 17.9 C 0 km/h
877 30-08-2004 00:26:02 17.9 C 11.6 g/m*3 17.9 C 0 km/h
878 30-08-2004 00:38:01 17.9 C 11.6 g/m*3 17.9 C 0 km/h
879 30-08-2004 00:50:01 17.8 C 11.38 g/m*3 17.8 C 0 km/h
880 30-08-2004 01:02:01 17.9 C 11.6 g/m*3 17.9 C 0 km/h
881 30-08-2004 01:14:01 18 C 11.21 g/m*3 18 C 0 km/h
882 30-08-2004 01:26:02 18 C 11.21 g/m*3 18 C 0 km/h
883 30-08-2004 01:38:02 17.8 C 11.23 g/m*3 17.8 C 0 km/h
884 30-08-2004 01:50:02 17.7 C 11.32 g/m*3 17.7 C 0 km/h
885 30-08-2004 02:02:02 17.7 C 11.16 g/m*3 17.7 C 0 km/h
886 30-08-2004 02:14:02 17.7 C 11.16 g/m*3 17.7 C 0 km/h
887 30-08-2004 02:26:02 17.6 C 11.1 g/m*3 17.6 C 0 km/h
888 30-08-2004 02:38:01 17.6 C 11.25 g/m*3 17.6 C 0 km/h
889 30-08-2004 02:51:03 17.6 C 10.95 g/m*3 17.6 C 0 km/h
890 30-08-2004 03:03:03 17 C 11.29 g/m*3 17 C 0 km/h
891 30-08-2004 03:15:03 16.3 C 11.52 g/m*3 16.3 C 0 km/h
892 30-08-2004 03:27:03 16.1 C 11.65 g/m*3 16.1 C 0 km/h
893 30-08-2004 03:39:01 15.9 C 11.78 g/m*3 15.9 C 0 km/h
894 30-08-2004 03:51:01 15.8 C 11.85 g/m*3 15.8 C 0 km/h
895 30-08-2004 04:03:01 15.8 C 11.85 g/m*3 15.8 C 0 km/h
896 30-08-2004 04:15:01 16.1 C 11.93 g/m*3 16.1 C 0 km/h
897 30-08-2004 04:27:01 15.1 C 11.09 g/m*3 15.1 C 0 km/h
898 30-08-2004 04:39:00 14.7 C 11.08 g/m*3 14.7 C 0 km/h
899 30-08-2004 04:51:01 14.5 C 11.07 g/m*3 14.5 C 0 km/h
900 30-08-2004 05:03:02 14.2 C 10.75 g/m*3 14.2 C 0 km/h
Sensor: Nr:Datum:Temp:Abs-Feuchte:Windchill:Wind:
Aussen-T/F 901 30-08-2004 05:15:01 13.9 C 10.55 g/m*3 13.9 C 0 km/h
902 30-08-2004 05:27:01 13.9 C 10.67 g/m*3 13.9 C 0 km/h
903 30-08-2004 05:39:01 13.8 C 10.6 g/m*3 13.8 C 0 km/h
904 30-08-2004 05:51:01 13.6 C 10.47 g/m*3 13.6 C 0 km/h
905 30-08-2004 06:03:01 13.6 C 10.47 g/m*3 13.6 C 0 km/h
906 30-08-2004 06:15:01 13.7 C 10.42 g/m*3 13.7 C 0 km/h
907 30-08-2004 06:27:01 13.6 C 10.24 g/m*3 13.6 C 0 km/h
908 30-08-2004 06:39:01 13.6 C 10.36 g/m*3 13.6 C 0 km/h
909 30-08-2004 06:51:01 13.7 C 10.3 g/m*3 13.7 C 0 km/h
910 30-08-2004 07:03:01 13.7 C 10.18 g/m*3 13.7 C 0 km/h
911 30-08-2004 07:15:01 13.7 C 10.18 g/m*3 13.7 C 0 km/h
912 30-08-2004 07:27:01 13.7 C 10.3 g/m*3 13.7 C 0 km/h
913 30-08-2004 07:39:01 13.8 C 10.37 g/m*3 13.8 C 0 km/h
914 30-08-2004 07:51:02 13.8 C 10.37 g/m*3 13.8 C 0 km/h
915 30-08-2004 08:03:02 14 C 10.25 g/m*3 14 C 0 km/h
916 30-08-2004 08:15:01 14.2 C 10.26 g/m*3 14.2 C 0 km/h
917 30-08-2004 08:27:01 14.4 C 10.14 g/m*3 14.4 C 0 km/h
918 30-08-2004 08:39:01 14.4 C 10.14 g/m*3 14.4 C 0 km/h
919 30-08-2004 08:51:01 14.6 C 10.01 g/m*3 14.6 C 0 km/h
920 30-08-2004 09:03:01 14.8 C 10.01 g/m*3 14.8 C 0 km/h
921 30-08-2004 09:15:01 14.9 C 10.07 g/m*3 14.9 C 0 km/h
922 30-08-2004 09:27:01 15 C 10 g/m*3 15 C 0 km/h
923 30-08-2004 09:39:00 15.2 C 9.86 g/m*3 15.2 C 0 km/h
924 30-08-2004 09:51:02 15.3 C 9.92 g/m*3 15.3 C 0 km/h
925 30-08-2004 10:03:02 15.6 C 10.11 g/m*3 15.6 C 0 km/h
Sensor: Nr:Datum:Temp:Abs-Feuchte:Windchill:Wind:
Aussen-T/F 926 30-08-2004 10:15:02 15.9 C 10.16 g/m*3 15.9 C 0 km/h
927 30-08-2004 10:27:02 16 C 9.81 g/m*3 16 C 0 km/h
928 30-08-2004 10:39:01 16 C 9.81 g/m*3 16 C 0 km/h
929 30-08-2004 10:51:02 16.1 C 10.01 g/m*3 16.1 C 0 km/h
930 30-08-2004 11:03:01 16.8 C 10.29 g/m*3 16.8 C 0 km/h
931 30-08-2004 11:15:00 16.5 C 9.97 g/m*3 16.5 C 0 km/h
932 30-08-2004 11:27:00 16.2 C 9.93 g/m*3 16.2 C 0 km/h
933 30-08-2004 11:39:00 14.7 C 10.2 g/m*3 14.7 C 0 km/h
934 30-08-2004 11:51:01 14.1 C 9.95 g/m*3 14.1 C 0 km/h
935 30-08-2004 12:03:01 14.4 C 10.26 g/m*3 14.4 C 0 km/h
936 30-08-2004 12:15:02 15 C 10.64 g/m*3 15 C 0 km/h
937 30-08-2004 12:27:02 16.1 C 11.51 g/m*3 16.1 C 0 km/h
938 30-08-2004 12:39:01 16.8 C 11.15 g/m*3 16.8 C 0 km/h
939 30-08-2004 12:51:01 17.8 C 10.62 g/m*3 17.8 C 0 km/h
940 30-08-2004 13:03:01 18.3 C 10.16 g/m*3 18.3 C 0 km/h
941 30-08-2004 13:15:00 18.5 C 9.97 g/m*3 18.5 C 0 km/h
942 30-08-2004 13:27:00 17.6 C 9.45 g/m*3 17.6 C 0 km/h
943 30-08-2004 13:39:00 18.7 C 9.77 g/m*3 18.7 C 0 km/h
944 30-08-2004 13:51:01 18.5 C 9.49 g/m*3 18.5 C 0 km/h
945 30-08-2004 14:03:01 17.1 C 9.75 g/m*3 17.1 C 0 km/h
946 30-08-2004 14:15:00 15.7 C 10.44 g/m*3 15.7 C 0 km/h
947 30-08-2004 14:27:00 16.2 C 10.76 g/m*3 16.2 C 0 km/h
948 30-08-2004 14:39:01 17.6 C 10.8 g/m*3 17.6 C 0 km/h
949 30-08-2004 14:51:02 18.6 C 10.5 g/m*3 18.6 C 0 km/h
950 30-08-2004 15:03:02 19.3 C 9.95 g/m*3 19.3 C 0 km/h
Sensor: Nr:Datum:Temp:Abs-Feuchte:Windchill:Wind:
Aussen-T/F 951 30-08-2004 15:15:01 18.4 C 9.44 g/m*3 18.4 C 0 km/h
952 30-08-2004 15:27:01 15.7 C 10.17 g/m*3 15.7 C 0 km/h
953 30-08-2004 15:39:01 14.7 C 10.2 g/m*3 14.7 C 0 km/h
954 30-08-2004 15:51:01 14 C 10.13 g/m*3 14 C 0 km/h
955 30-08-2004 16:03:01 13.9 C 10.55 g/m*3 13.9 C 0 km/h
956 30-08-2004 16:15:00 15.5 C 11.37 g/m*3 15.5 C 0 km/h
957 30-08-2004 16:27:00 17.2 C 11.57 g/m*3 17.2 C 0 km/h
958 30-08-2004 16:39:00 18.4 C 11.48 g/m*3 18.4 C 0 km/h
959 30-08-2004 16:51:01 19.5 C 11.92 g/m*3 19.5 C 0 km/h
960 30-08-2004 17:03:02 19.1 C 9.67 g/m*3 19.1 C 0 km/h
961 30-08-2004 17:15:02 18.8 C 10.15 g/m*3 18.8 C 0 km/h
962 30-08-2004 17:27:02 17.6 C 9.6 g/m*3 17.6 C 0 km/h
963 30-08-2004 17:39:01 17.6 C 9.9 g/m*3 17.6 C 0 km/h
964 30-08-2004 17:51:01 17.4 C 9.78 g/m*3 17.4 C 0 km/h
965 30-08-2004 18:03:01 15.7 C 10.03 g/m*3 15.7 C 0 km/h
966 30-08-2004 18:15:01 15.5 C 10.31 g/m*3 15.5 C 0 km/h
967 30-08-2004 18:27:01 15.9 C 10.02 g/m*3 15.9 C 0 km/h
968 30-08-2004 18:39:01 16.2 C 9.79 g/m*3 16.2 C 0 km/h
969 30-08-2004 18:51:01 16 C 9.67 g/m*3 16 C 0 km/h
970 30-08-2004 19:03:01 16.3 C 10.13 g/m*3 16.3 C 0 km/h
971 30-08-2004 19:15:01 16.4 C 10.05 g/m*3 16.4 C 0 km/h
972 30-08-2004 19:27:01 17.2 C 10.1 g/m*3 17.2 C 0 km/h
973 30-08-2004 19:39:01 17 C 9.26 g/m*3 17 C 0 km/h
974 30-08-2004 19:51:02 16.4 C 9.21 g/m*3 16.4 C 0 km/h
975 30-08-2004 20:03:02 15.7 C 9.23 g/m*3 15.7 C 0 km/h
Sensor: Nr:Datum:Temp:Abs-Feuchte:Windchill:Wind:
Aussen-T/F 976 30-08-2004 20:15:01 15.3 C 9.27 g/m*3 15.3 C 0 km/h
977 30-08-2004 20:27:01 15 C 9.36 g/m*3 15 C 0 km/h
978 30-08-2004 20:39:01 14.9 C 9.43 g/m*3 14.9 C 0 km/h
979 30-08-2004 20:51:01 14.8 C 9.37 g/m*3 14.8 C 0 km/h
980 30-08-2004 21:03:02 14.7 C 9.57 g/m*3 14.7 C 0 km/h
981 30-08-2004 21:15:00 14.4 C 9.64 g/m*3 14.4 C 0 km/h
982 30-08-2004 21:27:00 14.3 C 9.71 g/m*3 14.3 C 0 km/h
983 30-08-2004 21:39:00 14.4 C 9.77 g/m*3 14.4 C 0 km/h
984 30-08-2004 21:51:02 14.4 C 9.77 g/m*3 14.4 C 0 km/h
985 30-08-2004 22:03:02 14.5 C 9.83 g/m*3 14.5 C 0 km/h
986 30-08-2004 22:15:02 14.4 C 9.89 g/m*3 14.4 C 0 km/h
987 30-08-2004 22:27:02 14.3 C 9.83 g/m*3 14.3 C 0 km/h
988 30-08-2004 22:39:01 14.4 C 9.77 g/m*3 14.4 C 0 km/h
989 30-08-2004 22:51:01 14.2 C 10.01 g/m*3 14.2 C 0 km/h
990 30-08-2004 23:03:01 14.1 C 10.07 g/m*3 14.1 C 0 km/h
991 30-08-2004 23:15:01 13.5 C 10.18 g/m*3 13.5 C 0 km/h
992 30-08-2004 23:27:01 12.8 C 9.86 g/m*3 12.8 C 0 km/h
993 30-08-2004 23:39:00 12.8 C 10.08 g/m*3 12.8 C 0 km/h
994 30-08-2004 23:51:01 12.9 C 10.26 g/m*3 12.9 C 0 km/h
995 31-08-2004 00:03:01 13 C 10.32 g/m*3 13 C 0 km/h
996 31-08-2004 00:15:02 12.8 C 10.3 g/m*3 12.8 C 0 km/h
997 31-08-2004 00:27:03 12.6 C 9.96 g/m*3 12.6 C 0 km/h
998 31-08-2004 00:39:01 12.4 C 9.72 g/m*3 12.4 C 0 km/h
999 31-08-2004 00:51:02 12.2 C 9.5 g/m*3 12.2 C 0 km/h
1000 31-08-2004 01:03:01 11.9 C 9.43 g/m*3 11.9 C 0 km/h
Sensor: Nr:Datum:Temp:Abs-Feuchte:Windchill:Wind:
Aussen-T/F 1001 31-08-2004 01:15:02 11.7 C 9.31 g/m*3 11.7 C 0 km/h
1002 31-08-2004 01:27:02 11.7 C 9.31 g/m*3 11.7 C 0 km/h
1003 31-08-2004 01:39:02 11.6 C 9.25 g/m*3 11.6 C 0 km/h
1004 31-08-2004 01:51:01 11.5 C 9.19 g/m*3 11.5 C 0 km/h
1005 31-08-2004 02:03:01 11.5 C 9.09 g/m*3 11.5 C 0 km/h
1006 31-08-2004 02:15:01 11.5 C 9.09 g/m*3 11.5 C 0 km/h
1007 31-08-2004 02:27:01 11.4 C 8.93 g/m*3 11.4 C 0 km/h
1008 31-08-2004 02:39:00 11.4 C 8.93 g/m*3 11.4 C 0 km/h
1009 31-08-2004 02:52:03 11.3 C 8.87 g/m*3 11.3 C 0 km/h
1010 31-08-2004 03:04:03 11.4 C 8.83 g/m*3 11.4 C 0 km/h
1011 31-08-2004 03:16:03 11.3 C 8.87 g/m*3 11.3 C 0 km/h
1012 31-08-2004 03:28:03 11.1 C 8.86 g/m*3 11.1 C 0 km/h
1013 31-08-2004 03:40:01 11.3 C 8.98 g/m*3 11.3 C 0 km/h
1014 31-08-2004 03:52:01 11.6 C 9.04 g/m*3 11.6 C 0 km/h
1015 31-08-2004 04:04:01 11.9 C 8.9 g/m*3 11.9 C 0 km/h
1016 31-08-2004 04:16:01 12.2 C 8.85 g/m*3 12.2 C 0 km/h
1017 31-08-2004 04:28:01 12 C 8.74 g/m*3 12 C 0 km/h
1018 31-08-2004 04:40:00 11.6 C 8.83 g/m*3 11.6 C 0 km/h
1019 31-08-2004 04:52:02 11.4 C 8.83 g/m*3 11.4 C 0 km/h
1020 31-08-2004 05:04:02 11.2 C 8.82 g/m*3 11.2 C 0 km/h
1021 31-08-2004 05:16:01 11.3 C 8.87 g/m*3 11.3 C 0 km/h
1022 31-08-2004 05:28:01 11.2 C 8.82 g/m*3 11.2 C 0 km/h
1023 31-08-2004 05:40:01 11.4 C 8.93 g/m*3 11.4 C 0 km/h
1024 31-08-2004 05:52:01 11.4 C 8.83 g/m*3 11.4 C 0 km/h
1025 31-08-2004 06:04:01 11.4 C 8.72 g/m*3 11.4 C 0 km/h
Sensor: Nr:Datum:Temp:Abs-Feuchte:Windchill:Wind:
Aussen-T/F 1026 31-08-2004 06:16:00 11.5 C 8.78 g/m*3 11.5 C 0 km/h
1027 31-08-2004 06:28:00 11.5 C 8.68 g/m*3 11.5 C 0 km/h
1028 31-08-2004 06:40:00 11.6 C 8.63 g/m*3 11.6 C 0 km/h
1029 31-08-2004 06:52:01 11.6 C 8.63 g/m*3 11.6 C 0 km/h
1030 31-08-2004 07:04:02 11.5 C 8.57 g/m*3 11.5 C 0 km/h
1031 31-08-2004 07:16:01 11.4 C 8.52 g/m*3 11.4 C 0 km/h
1032 31-08-2004 07:28:01 11.6 C 8.63 g/m*3 11.6 C 0 km/h
1033 31-08-2004 07:40:01 11.8 C 8.63 g/m*3 11.8 C 0 km/h
1034 31-08-2004 07:52:01 12 C 8.53 g/m*3 12 C 0 km/h
1035 31-08-2004 08:04:01 12.3 C 8.58 g/m*3 12.3 C 0 km/h
1036 31-08-2004 08:16:01 12.4 C 8.74 g/m*3 12.4 C 0 km/h
1037 31-08-2004 08:28:01 12.5 C 8.69 g/m*3 12.5 C 0 km/h
1038 31-08-2004 08:40:00 12.5 C 8.69 g/m*3 12.5 C 0 km/h
1039 31-08-2004 08:52:01 12.5 C 8.69 g/m*3 12.5 C 0 km/h
1040 31-08-2004 09:04:02 12.8 C 8.85 g/m*3 12.8 C 0 km/h
1041 31-08-2004 09:16:01 12.9 C 8.9 g/m*3 12.9 C 0 km/h
1042 31-08-2004 09:28:01 13.1 C 8.9 g/m*3 13.1 C 0 km/h
1043 31-08-2004 09:40:01 13.9 C 9.11 g/m*3 13.9 C 0 km/h
1044 31-08-2004 09:52:01 14.4 C 9.02 g/m*3 14.4 C 0 km/h
1045 31-08-2004 10:04:01 14.7 C 9.19 g/m*3 14.7 C 0 km/h
1046 31-08-2004 10:16:01 14.5 C 9.08 g/m*3 14.5 C 0 km/h
1047 31-08-2004 10:28:01 15 C 9.23 g/m*3 15 C 0 km/h
1048 31-08-2004 10:40:00 15.2 C 9.09 g/m*3 15.2 C 0 km/h
1049 31-08-2004 10:52:01 15.5 C 9.25 g/m*3 15.5 C 0 km/h
1050 31-08-2004 11:04:01 15.6 C 9.18 g/m*3 15.6 C 0 km/h
Sensor: Nr:Datum:Temp:Abs-Feuchte:Windchill:Wind:
Aussen-T/F 1051 31-08-2004 11:16:00 16.2 C 9.24 g/m*3 16.2 C 0 km/h
1052 31-08-2004 11:28:00 16.6 C 9.32 g/m*3 16.6 C 0 km/h
1053 31-08-2004 11:40:00 16.9 C 9.21 g/m*3 16.9 C 0 km/h
1054 31-08-2004 11:52:02 16.9 C 8.77 g/m*3 16.9 C 0 km/h
1055 31-08-2004 12:04:02 16.9 C 8.49 g/m*3 16.9 C 0 km/h
1056 31-08-2004 12:16:01 17.1 C 8.3 g/m*3 17.1 C 0 km/h
1057 31-08-2004 12:28:01 17.2 C 8.2 g/m*3 17.2 C 0 km/h
1058 31-08-2004 12:40:01 16.8 C 9.01 g/m*3 16.8 C 0 km/h
1059 31-08-2004 12:52:01 17.1 C 8.59 g/m*3 17.1 C 0 km/h
1060 31-08-2004 13:04:01 17.7 C 8.9 g/m*3 17.7 C 0 km/h
1061 31-08-2004 13:16:00 18.3 C 8.29 g/m*3 18.3 C 0 km/h
1062 31-08-2004 13:28:00 17.8 C 8.65 g/m*3 17.8 C 0 km/h
1063 31-08-2004 13:40:00 17.7 C 9.05 g/m*3 17.7 C 0 km/h
1064 31-08-2004 13:52:02 17.7 C 8.3 g/m*3 17.7 C 0 km/h
1065 31-08-2004 14:04:02 17.4 C 7.85 g/m*3 17.4 C 0 km/h
1066 31-08-2004 14:16:01 17.5 C 8.35 g/m*3 17.5 C 0 km/h
1067 31-08-2004 14:28:01 18.5 C 8.07 g/m*3 18.5 C 0 km/h
1068 31-08-2004 14:40:01 18.9 C 8.75 g/m*3 18.9 C 0 km/h
1069 31-08-2004 14:52:01 19.7 C 8.32 g/m*3 19.7 C 0 km/h
1070 31-08-2004 15:04:01 19.5 C 7.89 g/m*3 19.5 C 0 km/h
1071 31-08-2004 15:16:00 19 C 7.82 g/m*3 19 C 0 km/h
1072 31-08-2004 15:28:00 18.8 C 9.34 g/m*3 18.8 C 0 km/h
1073 31-08-2004 15:40:00 18.8 C 9.5 g/m*3 18.8 C 0 km/h
1074 31-08-2004 15:52:01 18.1 C 9.27 g/m*3 18.1 C 0 km/h
1075 31-08-2004 16:04:01 18.6 C 8.12 g/m*3 18.6 C 0 km/h
Sensor: Nr:Datum:Temp:Abs-Feuchte:Windchill:Wind:
Aussen-T/F 1076 31-08-2004 16:16:01 19.2 C 7.91 g/m*3 19.2 C 0 km/h
1077 31-08-2004 16:28:01 19.1 C 7.87 g/m*3 19.1 C 0 km/h
1078 31-08-2004 16:40:01 18.8 C 8.7 g/m*3 18.8 C 0 km/h
1079 31-08-2004 16:52:01 18.7 C 7.84 g/m*3 18.7 C 0 km/h
1080 31-08-2004 17:04:01 18.9 C 8.26 g/m*3 18.9 C 0 km/h
1081 31-08-2004 17:16:00 19.3 C 8.63 g/m*3 19.3 C 0 km/h
1082 31-08-2004 17:28:00 19.6 C 8.61 g/m*3 19.6 C 0 km/h
1083 31-08-2004 17:40:00 19.1 C 8.03 g/m*3 19.1 C 0 km/h
1084 31-08-2004 17:52:01 19.4 C 8.01 g/m*3 19.4 C 0 km/h
1085 31-08-2004 18:04:02 19.2 C 7.59 g/m*3 19.2 C 0 km/h
1086 31-08-2004 18:16:01 18.9 C 7.29 g/m*3 18.9 C 0 km/h
1087 31-08-2004 18:28:01 19.4 C 7.84 g/m*3 19.4 C 0 km/h
1088 31-08-2004 18:40:01 19.1 C 8.36 g/m*3 19.1 C 0 km/h
1089 31-08-2004 18:52:01 18.4 C 8.18 g/m*3 18.4 C 0 km/h
1090 31-08-2004 19:04:01 18 C 7.68 g/m*3 18 C 0 km/h
1091 31-08-2004 19:16:00 17.4 C 7.71 g/m*3 17.4 C 0 km/h
1092 31-08-2004 19:28:00 17.2 C 7.91 g/m*3 17.2 C 0 km/h
1093 31-08-2004 19:40:00 16.4 C 8.1 g/m*3 16.4 C 0 km/h
1094 31-08-2004 19:52:01 16.3 C 8.19 g/m*3 16.3 C 0 km/h
1095 31-08-2004 20:04:01 16.1 C 7.68 g/m*3 16.1 C 0 km/h
1096 31-08-2004 20:16:01 15.9 C 7.85 g/m*3 15.9 C 0 km/h
1097 31-08-2004 20:28:01 15.8 C 8.21 g/m*3 15.8 C 0 km/h
1098 31-08-2004 20:40:01 15.8 C 8.08 g/m*3 15.8 C 0 km/h
1099 31-08-2004 20:52:02 15.7 C 8.16 g/m*3 15.7 C 0 km/h
1100 31-08-2004 21:04:02 15.8 C 8.08 g/m*3 15.8 C 0 km/h
Sensor: Nr:Datum:Temp:Abs-Feuchte:Windchill:Wind:
Aussen-T/F 1101 31-08-2004 21:16:03 15.7 C 8.16 g/m*3 15.7 C 0 km/h
1102 31-08-2004 21:28:03 15.6 C 8.51 g/m*3 15.6 C 0 km/h
1103 31-08-2004 21:40:02 15.3 C 8.62 g/m*3 15.3 C 0 km/h
1104 31-08-2004 21:52:02 15.1 C 8.64 g/m*3 15.1 C 0 km/h
1105 31-08-2004 22:04:01 14.9 C 8.54 g/m*3 14.9 C 0 km/h
1106 31-08-2004 22:16:02 14.8 C 8.74 g/m*3 14.8 C 0 km/h
1107 31-08-2004 22:28:02 14.7 C 8.81 g/m*3 14.7 C 0 km/h
1108 31-08-2004 22:40:02 14.5 C 8.95 g/m*3 14.5 C 0 km/h
1109 31-08-2004 22:52:01 14.2 C 8.91 g/m*3 14.2 C 0 km/h
1110 31-08-2004 23:04:01 13.8 C 8.82 g/m*3 13.8 C 0 km/h
1111 31-08-2004 23:16:01 13.5 C 8.66 g/m*3 13.5 C 0 km/h
1112 31-08-2004 23:28:01 13.3 C 8.55 g/m*3 13.3 C 0 km/h
1113 31-08-2004 23:40:00 13.1 C 8.79 g/m*3 13.1 C 0 km/h
1114 31-08-2004 23:52:01 13 C 8.73 g/m*3 13 C 0 km/h
1115 01-09-2004 00:04:01 12.7 C 8.68 g/m*3 12.7 C 0 km/h
1116 01-09-2004 00:16:01 12.6 C 8.63 g/m*3 12.6 C 0 km/h
1117 01-09-2004 00:28:01 12.3 C 8.47 g/m*3 12.3 C 0 km/h
1118 01-09-2004 00:40:01 12.1 C 8.36 g/m*3 12.1 C 0 km/h
1119 01-09-2004 00:52:01 11.9 C 8.58 g/m*3 11.9 C 0 km/h
1120 01-09-2004 01:04:01 11.7 C 8.47 g/m*3 11.7 C 0 km/h
1121 01-09-2004 01:16:01 11.5 C 8.37 g/m*3 11.5 C 0 km/h
1122 01-09-2004 01:28:01 11.1 C 8.16 g/m*3 11.1 C 0 km/h
1123 01-09-2004 01:40:01 11 C 8.21 g/m*3 11 C 0 km/h
1124 01-09-2004 01:52:01 11 C 8.31 g/m*3 11 C 0 km/h
1125 01-09-2004 02:04:02 10.8 C 8.3 g/m*3 10.8 C 0 km/h
Sensor: Nr:Datum:Temp:Abs-Feuchte:Windchill:Wind:
Aussen-T/F 1126 01-09-2004 02:16:02 10.8 C 8.4 g/m*3 10.8 C 0 km/h
1127 01-09-2004 02:28:02 10.5 C 8.34 g/m*3 10.5 C 0 km/h
1128 01-09-2004 02:40:01 10.2 C 8.18 g/m*3 10.2 C 0 km/h
1129 01-09-2004 02:53:02 10.2 C 8.18 g/m*3 10.2 C 0 km/h
1130 01-09-2004 03:05:02 10.1 C 8.23 g/m*3 10.1 C 0 km/h
1131 01-09-2004 03:17:02 10 C 8.17 g/m*3 10 C 0 km/h
1132 01-09-2004 03:29:02 9.8 C 8.16 g/m*3 9.8 C 0 km/h
1133 01-09-2004 03:41:02 9.7 C 8.2 g/m*3 9.7 C 0 km/h
1134 01-09-2004 03:53:02 9.8 C 8.26 g/m*3 9.8 C 0 km/h
1135 01-09-2004 04:05:02 9.8 C 8.35 g/m*3 9.8 C 0 km/h
1136 01-09-2004 04:17:01 9.8 C 8.35 g/m*3 9.8 C 0 km/h
1137 01-09-2004 04:29:01 10 C 8.36 g/m*3 10 C 0 km/h
1138 01-09-2004 04:41:01 10 C 8.36 g/m*3 10 C 0 km/h
1139 01-09-2004 04:53:01 10 C 8.36 g/m*3 10 C 0 km/h
1140 01-09-2004 05:05:01 9.8 C 8.35 g/m*3 9.8 C 0 km/h
1141 01-09-2004 05:17:00 9.9 C 8.4 g/m*3 9.9 C 0 km/h
1142 01-09-2004 05:29:00 10 C 8.36 g/m*3 10 C 0 km/h
1143 01-09-2004 05:41:00 10 C 8.36 g/m*3 10 C 0 km/h
1144 01-09-2004 05:53:02 10 C 8.36 g/m*3 10 C 0 km/h
1145 01-09-2004 06:05:02 10 C 8.36 g/m*3 10 C 0 km/h
1146 01-09-2004 06:17:01 10 C 8.46 g/m*3 10 C 0 km/h
1147 01-09-2004 06:29:01 9.8 C 8.44 g/m*3 9.8 C 0 km/h
1148 01-09-2004 06:41:01 9.8 C 8.44 g/m*3 9.8 C 0 km/h
1149 01-09-2004 06:53:01 9.8 C 8.54 g/m*3 9.8 C 0 km/h
1150 01-09-2004 07:05:01 9.9 C 8.59 g/m*3 9.9 C 0 km/h
Sensor: Nr:Datum:Temp:Abs-Feuchte:Windchill:Wind:
Aussen-T/F 1151 01-09-2004 07:17:00 9.9 C 8.59 g/m*3 9.9 C 0 km/h
1152 01-09-2004 07:29:00 9.8 C 8.44 g/m*3 9.8 C 0 km/h
1153 01-09-2004 07:41:01 10 C 8.46 g/m*3 10 C 0 km/h
1154 01-09-2004 07:53:01 10.3 C 8.71 g/m*3 10.3 C 0 km/h
1155 01-09-2004 08:05:02 10.6 C 8.88 g/m*3 10.6 C 0 km/h
1156 01-09-2004 08:17:01 11 C 9.11 g/m*3 11 C 0 km/h
1157 01-09-2004 08:29:01 11.3 C 9.18 g/m*3 11.3 C 0 km/h
1158 01-09-2004 08:41:01 11.7 C 9.31 g/m*3 11.7 C 0 km/h
1159 01-09-2004 08:53:01 12.1 C 9.33 g/m*3 12.1 C 0 km/h
1160 01-09-2004 09:05:01 12.2 C 8.96 g/m*3 12.2 C 0 km/h
1161 01-09-2004 09:17:00 12.6 C 9.07 g/m*3 12.6 C 0 km/h
1162 01-09-2004 09:29:00 13 C 8.96 g/m*3 13 C 0 km/h
1163 01-09-2004 09:41:00 13.5 C 9.12 g/m*3 13.5 C 0 km/h
1164 01-09-2004 09:53:01 13.2 C 8.84 g/m*3 13.2 C 0 km/h
1165 01-09-2004 10:05:01 13.2 C 8.96 g/m*3 13.2 C 0 km/h
1166 01-09-2004 10:17:01 13.6 C 9.3 g/m*3 13.6 C 0 km/h
1167 01-09-2004 10:29:01 14.8 C 9.75 g/m*3 14.8 C 0 km/h
1168 01-09-2004 10:41:01 15.4 C 9.72 g/m*3 15.4 C 0 km/h
1169 01-09-2004 10:53:02 15.4 C 9.72 g/m*3 15.4 C 0 km/h
1170 01-09-2004 11:05:02 16 C 9.95 g/m*3 16 C 0 km/h
1171 01-09-2004 11:17:01 16.2 C 9.79 g/m*3 16.2 C 0 km/h
1172 01-09-2004 11:29:01 17 C 9.84 g/m*3 17 C 0 km/h
1173 01-09-2004 11:41:01 17.7 C 9.66 g/m*3 17.7 C 0 km/h
1174 01-09-2004 11:53:01 17.8 C 9.41 g/m*3 17.8 C 0 km/h
1175 01-09-2004 12:05:01 18.6 C 9.39 g/m*3 18.6 C 0 km/h
Sensor: Nr:Datum:Temp:Abs-Feuchte:Windchill:Wind:
Aussen-T/F 1176 01-09-2004 12:17:56 19.1 C 9.34 g/m*3 19.1 C 0 km/h
1177 01-09-2004 12:29:56 19.3 C 8.46 g/m*3 19.3 C 0 km/h
1178 01-09-2004 12:41:56 19.9 C 8.08 g/m*3 19.9 C 0 km/h
1179 01-09-2004 12:53:56 20.8 C 7.79 g/m*3 20.8 C 0 km/h
1180 01-09-2004 13:05:56 20.8 C 7.97 g/m*3 20.8 C 0 km/h
1181 01-09-2004 13:17:56 21.2 C 9.27 g/m*3 21.2 C 0 km/h
1182 01-09-2004 13:29:56 21.2 C 9.27 g/m*3 21.2 C 0 km/h
1183 01-09-2004 13:41:57 21 C 9.53 g/m*3 21 C 0 km/h
1184 01-09-2004 13:53:57 21.2 C 9.82 g/m*3 21.2 C 0 km/h
1185 01-09-2004 14:05:57 22.2 C 8.44 g/m*3 22.2 C 0 km/h
1186 01-09-2004 14:17:57 22 C 7.96 g/m*3 22 C 0 km/h
1187 01-09-2004 14:29:57 22.9 C 8.17 g/m*3 22.9 C 0 km/h
1188 01-09-2004 14:41:57 22.7 C 8.69 g/m*3 22.7 C 0 km/h
1189 01-09-2004 14:53:57 22.5 C 8.59 g/m*3 22.5 C 0 km/h
1190 01-09-2004 15:05:57 22.8 C 8.13 g/m*3 22.8 C 0 km/h
1191 01-09-2004 15:17:57 23.5 C 8.04 g/m*3 23.5 C 0 km/h
1192 01-09-2004 15:29:57 23.9 C 8.44 g/m*3 23.9 C 0 km/h
1193 01-09-2004 15:41:57 24.6 C 8.1 g/m*3 24.6 C 0 km/h
1194 01-09-2004 15:53:57 25.7 C 7.42 g/m*3 25.7 C 0 km/h
1195 01-09-2004 16:05:57 25.3 C 7.26 g/m*3 25.3 C 0 km/h
1196 01-09-2004 16:17:57 25.4 C 7.3 g/m*3 25.4 C 0 km/h
1197 01-09-2004 16:29:57 26 C 8.03 g/m*3 26 C 0 km/h
1198 01-09-2004 16:41:57 26.4 C 7.47 g/m*3 26.4 C 0 km/h
1199 01-09-2004 16:53:57 26.7 C 7.34 g/m*3 26.7 C 0 km/h
1200 01-09-2004 17:05:57 25.9 C 6.78 g/m*3 25.9 C 0 km/h
Sensor: Nr:Datum:Temp:Abs-Feuchte:Windchill:Wind:
Aussen-T/F 1201 01-09-2004 17:17:57 25.9 C 8.23 g/m*3 25.9 C 0 km/h
1202 01-09-2004 17:29:57 26 C 6.82 g/m*3 26 C 0 km/h
1203 01-09-2004 17:41:57 26.5 C 7.76 g/m*3 26.5 C 0 km/h
1204 01-09-2004 17:53:01 26.3 C 7.18 g/m*3 26.3 C 0 km/h
1205 01-09-2004 18:05:01 26.4 C 6.97 g/m*3 26.4 C 0 km/h
1206 01-09-2004 18:17:01 26 C 7.79 g/m*3 26 C 0 km/h
1207 01-09-2004 18:29:01 26.2 C 8.62 g/m*3 26.2 C 0 km/h
1208 01-09-2004 18:41:01 24.5 C 8.95 g/m*3 24.5 C 0 km/h
1209 01-09-2004 18:53:01 22.3 C 9.08 g/m*3 22.3 C 0 km/h
1210 01-09-2004 19:05:00 20.4 C 8.85 g/m*3 20.4 C 0 km/h
1211 01-09-2004 19:17:00 19.5 C 9.06 g/m*3 19.5 C 0 km/h
1212 01-09-2004 19:29:00 19.3 C 8.96 g/m*3 19.3 C 0 km/h
1213 01-09-2004 19:41:00 18.9 C 9.07 g/m*3 18.9 C 0 km/h
1214 01-09-2004 19:53:00 18.4 C 8.81 g/m*3 18.4 C 0 km/h
1215 01-09-2004 20:05:01 17.7 C 8.6 g/m*3 17.7 C 0 km/h
1216 01-09-2004 20:17:01 17 C 8.39 g/m*3 17 C 0 km/h
1217 01-09-2004 20:29:01 16.3 C 8.32 g/m*3 16.3 C 0 km/h
1218 01-09-2004 20:41:01 15.8 C 8.35 g/m*3 15.8 C 0 km/h
1219 01-09-2004 20:53:01 15.6 C 8.25 g/m*3 15.6 C 0 km/h
1220 01-09-2004 21:05:01 15.4 C 8.41 g/m*3 15.4 C 0 km/h
1221 01-09-2004 21:17:01 15.2 C 8.44 g/m*3 15.2 C 0 km/h
1222 01-09-2004 21:29:01 15.2 C 8.44 g/m*3 15.2 C 0 km/h
1223 01-09-2004 21:41:00 14.9 C 8.54 g/m*3 14.9 C 0 km/h
1224 01-09-2004 21:53:00 14.7 C 8.44 g/m*3 14.7 C 0 km/h
1225 01-09-2004 22:05:00 14.5 C 8.21 g/m*3 14.5 C 0 km/h
Sensor: Nr:Datum:Temp:Abs-Feuchte:Windchill:Wind:
Aussen-T/F 1226 01-09-2004 22:17:00 14.3 C 8.35 g/m*3 14.3 C 0 km/h
1227 01-09-2004 22:29:00 14.2 C 8.43 g/m*3 14.2 C 0 km/h
1228 01-09-2004 22:41:00 14 C 8.2 g/m*3 14 C 0 km/h
1229 01-09-2004 22:53:00 13.8 C 8.34 g/m*3 13.8 C 0 km/h
1230 01-09-2004 23:05:00 13.6 C 8.47 g/m*3 13.6 C 0 km/h
1231 01-09-2004 23:17:00 13.4 C 8.37 g/m*3 13.4 C 0 km/h
1232 01-09-2004 23:29:00 13.3 C 8.66 g/m*3 13.3 C 0 km/h
1233 01-09-2004 23:41:00 13.2 C 8.73 g/m*3 13.2 C 0 km/h
1234 01-09-2004 23:53:00 13 C 8.62 g/m*3 13 C 0 km/h
1235 02-09-2004 00:05:01 12.7 C 8.46 g/m*3 12.7 C 0 km/h
1236 02-09-2004 00:17:01 12.5 C 8.36 g/m*3 12.5 C 0 km/h
1237 02-09-2004 00:29:01 12.4 C 8.41 g/m*3 12.4 C 0 km/h
1238 02-09-2004 00:41:00 12.2 C 8.42 g/m*3 12.2 C 0 km/h
1239 02-09-2004 00:53:00 12.1 C 8.36 g/m*3 12.1 C 0 km/h
1240 02-09-2004 01:05:00 12 C 8.53 g/m*3 12 C 0 km/h
1241 02-09-2004 01:17:00 11.9 C 8.58 g/m*3 11.9 C 0 km/h
1242 02-09-2004 01:29:00 11.7 C 8.58 g/m*3 11.7 C 0 km/h
1243 02-09-2004 01:41:00 11.7 C 8.58 g/m*3 11.7 C 0 km/h
1244 02-09-2004 01:53:00 11.5 C 8.57 g/m*3 11.5 C 0 km/h
1245 02-09-2004 02:05:00 11.4 C 8.52 g/m*3 11.4 C 0 km/h
1246 02-09-2004 02:17:59 11.2 C 8.41 g/m*3 11.2 C 0 km/h
1247 02-09-2004 02:29:59 11 C 8.31 g/m*3 11 C 0 km/h
1248 02-09-2004 02:40:59 10.7 C 8.25 g/m*3 10.7 C 0 km/h
1249 02-09-2004 02:54:01 10.5 C 8.15 g/m*3 10.5 C 0 km/h
1250 02-09-2004 03:06:01 10.3 C 8.14 g/m*3 10.3 C 0 km/h
Sensor: Nr:Datum:Temp:Abs-Feuchte:Windchill:Wind:
Aussen-T/F 1251 02-09-2004 03:18:01 10.2 C 8.09 g/m*3 10.2 C 0 km/h
1252 02-09-2004 03:30:01 10.1 C 8.13 g/m*3 10.1 C 0 km/h
1253 02-09-2004 03:42:01 10 C 8.08 g/m*3 10 C 0 km/h
1254 02-09-2004 03:54:01 9.8 C 8.07 g/m*3 9.8 C 0 km/h
1255 02-09-2004 04:06:01 9.7 C 8.11 g/m*3 9.7 C 0 km/h
1256 02-09-2004 04:18:01 9.5 C 8.01 g/m*3 9.5 C 0 km/h
1257 02-09-2004 04:30:01 9.5 C 8.01 g/m*3 9.5 C 0 km/h
1258 02-09-2004 04:42:01 9.4 C 7.96 g/m*3 9.4 C 0 km/h
1259 02-09-2004 04:54:02 9.2 C 7.86 g/m*3 9.2 C 0 km/h
1260 02-09-2004 05:06:01 9.2 C 7.86 g/m*3 9.2 C 0 km/h
1261 02-09-2004 05:18:01 9.1 C 7.9 g/m*3 9.1 C 0 km/h
1262 02-09-2004 05:30:01 9.1 C 7.9 g/m*3 9.1 C 0 km/h
1263 02-09-2004 05:42:01 9.3 C 8 g/m*3 9.3 C 0 km/h
1264 02-09-2004 05:54:01 9.5 C 8.19 g/m*3 9.5 C 0 km/h
1265 02-09-2004 06:06:01 9.6 C 8.24 g/m*3 9.6 C 0 km/h
1266 02-09-2004 06:18:01 9.7 C 8.3 g/m*3 9.7 C 0 km/h
1267 02-09-2004 06:30:01 9.6 C 8.24 g/m*3 9.6 C 0 km/h
1268 02-09-2004 06:42:01 9.6 C 8.24 g/m*3 9.6 C 0 km/h
1269 02-09-2004 06:54:01 9.6 C 8.15 g/m*3 9.6 C 0 km/h
1270 02-09-2004 07:06:02 9.8 C 8.26 g/m*3 9.8 C 0 km/h
1271 02-09-2004 07:18:01 10 C 8.27 g/m*3 10 C 0 km/h
1272 02-09-2004 07:30:01 10.2 C 8.37 g/m*3 10.2 C 0 km/h
1273 02-09-2004 07:42:01 10.4 C 8.38 g/m*3 10.4 C 0 km/h
1274 02-09-2004 07:54:00 10.5 C 8.34 g/m*3 10.5 C 0 km/h
1275 02-09-2004 08:06:00 10.4 C 8.1 g/m*3 10.4 C 0 km/h
Sensor: Nr:Datum:Temp:Abs-Feuchte:Windchill:Wind:
Aussen-T/F 1276 02-09-2004 08:18:00 10.7 C 8.25 g/m*3 10.7 C 0 km/h
1277 02-09-2004 08:30:00 10.7 C 8.25 g/m*3 10.7 C 0 km/h
1278 02-09-2004 08:42:01 10.7 C 8.25 g/m*3 10.7 C 0 km/h
1279 02-09-2004 08:54:01 10.7 C 8.25 g/m*3 10.7 C 0 km/h
1280 02-09-2004 09:06:02 10.7 C 8.35 g/m*3 10.7 C 0 km/h
1281 02-09-2004 09:18:01 10.9 C 8.55 g/m*3 10.9 C 0 km/h
1282 02-09-2004 09:30:01 11.2 C 8.72 g/m*3 11.2 C 0 km/h
1283 02-09-2004 09:42:01 11.7 C 8.99 g/m*3 11.7 C 0 km/h
1284 02-09-2004 09:54:01 12.2 C 9.06 g/m*3 12.2 C 0 km/h
1285 02-09-2004 10:06:01 12.7 C 9.24 g/m*3 12.7 C 0 km/h
1286 02-09-2004 10:18:01 13.3 C 9.47 g/m*3 13.3 C 0 km/h
1287 02-09-2004 10:30:01 14 C 9.65 g/m*3 14 C 0 km/h
1288 02-09-2004 10:42:00 14.5 C 9.7 g/m*3 14.5 C 0 km/h
1289 02-09-2004 10:54:00 15.1 C 9.68 g/m*3 15.1 C 0 km/h
1290 02-09-2004 11:06:00 15.6 C 9.84 g/m*3 15.6 C 0 km/h
1291 02-09-2004 11:18:00 16.2 C 10.07 g/m*3 16.2 C 0 km/h
1292 02-09-2004 11:30:00 17 C 9.98 g/m*3 17 C 0 km/h
1293 02-09-2004 11:42:00 17.7 C 9.05 g/m*3 17.7 C 0 km/h
1294 02-09-2004 11:54:00 18.7 C 9.29 g/m*3 18.7 C 0 km/h
1295 02-09-2004 12:06:00 19.3 C 9.12 g/m*3 19.3 C 0 km/h
1296 02-09-2004 12:18:00 19.8 C 8.54 g/m*3 19.8 C 0 km/h
1297 02-09-2004 12:30:00 20.4 C 9.02 g/m*3 20.4 C 0 km/h
1298 02-09-2004 12:42:01 20.8 C 8.87 g/m*3 20.8 C 0 km/h
1299 02-09-2004 12:54:01 21.1 C 8.84 g/m*3 21.1 C 0 km/h
1300 02-09-2004 13:06:01 21.6 C 9.1 g/m*3 21.6 C 0 km/h
Sensor: Nr:Datum:Temp:Abs-Feuchte:Windchill:Wind:
Aussen-T/F 1301 02-09-2004 13:18:00 22.1 C 9.17 g/m*3 22.1 C 0 km/h
1302 02-09-2004 13:30:00 22.6 C 9.24 g/m*3 22.6 C 0 km/h
1303 02-09-2004 13:42:00 23.1 C 9.3 g/m*3 23.1 C 0 km/h
1304 02-09-2004 13:54:00 23.7 C 8.98 g/m*3 23.7 C 0 km/h
1305 02-09-2004 14:06:00 24.1 C 9.19 g/m*3 24.1 C 0 km/h
1306 02-09-2004 14:18:00 24.9 C 9.39 g/m*3 24.9 C 0 km/h
1307 02-09-2004 14:30:00 25.6 C 9.05 g/m*3 25.6 C 0 km/h
1308 02-09-2004 14:42:00 26.5 C 10.26 g/m*3 26.5 C 0 km/h
1309 02-09-2004 14:54:00 26.8 C 8.91 g/m*3 26.8 C 0 km/h
1310 02-09-2004 15:06:00 27.1 C 8.02 g/m*3 27.1 C 0 km/h
1311 02-09-2004 15:18:00 27.4 C 7.89 g/m*3 27.4 C 0 km/h
1312 02-09-2004 15:30:00 27.5 C 8.2 g/m*3 27.5 C 0 km/h
1313 02-09-2004 15:42:00 27.9 C 8.38 g/m*3 27.9 C 0 km/h
1314 02-09-2004 15:54:00 27.4 C 6.84 g/m*3 27.4 C 0 km/h
1315 02-09-2004 16:06:59 27.7 C 7.22 g/m*3 27.7 C 0 km/h
1316 02-09-2004 16:29:59 27.4 C 6.84 g/m*3 27.4 C 0 km/h
1317 02-09-2004 16:30:00 27.4 C 7.89 g/m*3 27.4 C 0 km/h
1318 02-09-2004 16:42:00 27.5 C 7.41 g/m*3 27.5 C 0 km/h
1319 02-09-2004 16:54:00 28.1 C 7.93 g/m*3 28.1 C 0 km/h
1320 02-09-2004 17:06:00 28.2 C 7.7 g/m*3 28.2 C 0 km/h
1321 02-09-2004 17:18:00 28.9 C 8.57 g/m*3 28.9 C 0 km/h
1322 02-09-2004 17:30:00 29.3 C 9.63 g/m*3 29.3 C 0 km/h
1323 02-09-2004 17:42:00 29.3 C 9.93 g/m*3 29.3 C 0 km/h
1324 02-09-2004 17:54:00 29.3 C 9.05 g/m*3 29.3 C 0 km/h
1325 02-09-2004 18:06:00 29.1 C 9.82 g/m*3 29.1 C 0 km/h
Sensor: Nr:Datum:Temp:Abs-Feuchte:Windchill:Wind:
Aussen-T/F 1326 02-09-2004 18:18:00 28.6 C 10.12 g/m*3 28.6 C 0 km/h
1327 02-09-2004 18:30:00 28.2 C 10.17 g/m*3 28.2 C 0 km/h
1328 02-09-2004 18:42:00 27.4 C 10.26 g/m*3 27.4 C 0 km/h
1329 02-09-2004 18:54:59 26.9 C 10.49 g/m*3 26.9 C 0 km/h
1330 02-09-2004 19:06:59 25.9 C 10.17 g/m*3 25.9 C 0 km/h
1331 02-09-2004 19:18:59 25.3 C 10.3 g/m*3 25.3 C 0 km/h
1332 02-09-2004 19:30:59 24.5 C 10.07 g/m*3 24.5 C 0 km/h
1333 02-09-2004 19:42:59 23.7 C 10.05 g/m*3 23.7 C 0 km/h
1334 02-09-2004 19:54:59 22 C 10.09 g/m*3 22 C 0 km/h
1335 02-09-2004 20:05:59 21 C 9.89 g/m*3 21 C 0 km/h
1336 02-09-2004 20:30:00 19.8 C 10.08 g/m*3 19.8 C 0 km/h
1337 02-09-2004 20:42:00 19.5 C 10.07 g/m*3 19.5 C 0 km/h
1338 02-09-2004 20:54:00 19.1 C 10.16 g/m*3 19.1 C 0 km/h
1339 02-09-2004 21:06:00 18.8 C 10.15 g/m*3 18.8 C 0 km/h
1340 02-09-2004 21:18:59 18.6 C 10.19 g/m*3 18.6 C 0 km/h
1341 02-09-2004 21:30:59 18.4 C 10.38 g/m*3 18.4 C 0 km/h
1342 02-09-2004 21:42:59 18.3 C 10.32 g/m*3 18.3 C 0 km/h
1343 02-09-2004 21:54:59 18 C 10.29 g/m*3 18 C 0 km/h
1344 02-09-2004 22:05:59 17.9 C 10.38 g/m*3 17.9 C 0 km/h
1345 02-09-2004 22:18:00 17.7 C 10.41 g/m*3 17.7 C 0 km/h
1346 02-09-2004 22:30:00 17.4 C 10.37 g/m*3 17.4 C 0 km/h
1347 02-09-2004 22:42:00 17.2 C 10.4 g/m*3 17.2 C 0 km/h
1348 02-09-2004 22:54:59 17.1 C 10.48 g/m*3 17.1 C 0 km/h
1349 02-09-2004 23:06:59 16.9 C 10.5 g/m*3 16.9 C 0 km/h
1350 02-09-2004 23:18:59 16.6 C 10.45 g/m*3 16.6 C 0 km/h
Sensor: Nr:Datum:Temp:Abs-Feuchte:Windchill:Wind:
Aussen-T/F 1351 02-09-2004 23:30:59 16.4 C 10.47 g/m*3 16.4 C 0 km/h
1352 02-09-2004 23:42:59 16.3 C 10.41 g/m*3 16.3 C 0 km/h
1353 02-09-2004 23:54:59 16 C 10.35 g/m*3 16 C 0 km/h
1354 03-09-2004 00:06:59 15.9 C 10.56 g/m*3 15.9 C 0 km/h
1355 03-09-2004 00:30:00 15.6 C 10.51 g/m*3 15.6 C 0 km/h
1356 03-09-2004 00:30:59 15.4 C 10.51 g/m*3 15.4 C 0 km/h
1357 03-09-2004 00:42:59 15.4 C 10.64 g/m*3 15.4 C 0 km/h
1358 03-09-2004 00:54:59 15.1 C 10.45 g/m*3 15.1 C 0 km/h
1359 03-09-2004 01:06:59 15.1 C 10.45 g/m*3 15.1 C 0 km/h
1360 03-09-2004 01:18:59 14.9 C 10.45 g/m*3 14.9 C 0 km/h
1361 03-09-2004 01:30:59 14.9 C 10.45 g/m*3 14.9 C 0 km/h
1362 03-09-2004 01:42:59 14.7 C 10.45 g/m*3 14.7 C 0 km/h
1363 03-09-2004 01:54:59 14.5 C 10.32 g/m*3 14.5 C 0 km/h
1364 03-09-2004 02:06:58 14.4 C 10.26 g/m*3 14.4 C 0 km/h
1365 03-09-2004 02:18:58 14.3 C 10.2 g/m*3 14.3 C 0 km/h
1366 03-09-2004 02:30:58 14.2 C 10.26 g/m*3 14.2 C 0 km/h
1367 03-09-2004 02:42:58 14 C 10.01 g/m*3 14 C 0 km/h
1368 03-09-2004 02:55:00 14 C 10.13 g/m*3 14 C 0 km/h
1369 03-09-2004 03:07:00 13.9 C 10.07 g/m*3 13.9 C 0 km/h
1370 03-09-2004 03:19:00 13.9 C 10.19 g/m*3 13.9 C 0 km/h
1371 03-09-2004 03:31:00 13.7 C 9.95 g/m*3 13.7 C 0 km/h
1372 03-09-2004 03:43:00 13.6 C 10 g/m*3 13.6 C 0 km/h
1373 03-09-2004 03:55:00 13.5 C 9.94 g/m*3 13.5 C 0 km/h
1374 03-09-2004 04:07:00 13.4 C 9.88 g/m*3 13.4 C 0 km/h
1375 03-09-2004 04:19:00 13.4 C 10 g/m*3 13.4 C 0 km/h
Sensor: Nr:Datum:Temp:Abs-Feuchte:Windchill:Wind:
Aussen-T/F 1376 03-09-2004 04:31:00 13.2 C 9.76 g/m*3 13.2 C 0 km/h
1377 03-09-2004 04:43:00 13.1 C 9.7 g/m*3 13.1 C 0 km/h
1378 03-09-2004 04:55:00 13.2 C 9.87 g/m*3 13.2 C 0 km/h
1379 03-09-2004 05:07:00 13 C 9.75 g/m*3 13 C 0 km/h
1380 03-09-2004 05:19:00 12.9 C 9.81 g/m*3 12.9 C 0 km/h
1381 03-09-2004 05:31:00 12.8 C 9.74 g/m*3 12.8 C 0 km/h
1382 03-09-2004 05:43:00 12.7 C 9.68 g/m*3 12.7 C 0 km/h
1383 03-09-2004 05:55:00 12.7 C 9.68 g/m*3 12.7 C 0 km/h
1384 03-09-2004 06:07:00 12.8 C 9.86 g/m*3 12.8 C 0 km/h
1385 03-09-2004 06:19:00 12.7 C 9.68 g/m*3 12.7 C 0 km/h
1386 03-09-2004 06:31:00 12.7 C 9.8 g/m*3 12.7 C 0 km/h
1387 03-09-2004 06:43:01 13 C 9.87 g/m*3 13 C 0 km/h
1388 03-09-2004 06:55:00 13 C 9.75 g/m*3 13 C 0 km/h
1389 03-09-2004 07:07:00 13 C 9.64 g/m*3 13 C 0 km/h
1390 03-09-2004 07:19:00 13 C 9.64 g/m*3 13 C 0 km/h
1391 03-09-2004 07:31:59 12.9 C 9.69 g/m*3 12.9 C 0 km/h
1392 03-09-2004 07:43:59 13.1 C 9.81 g/m*3 13.1 C 0 km/h
1393 03-09-2004 07:55:59 13.3 C 9.94 g/m*3 13.3 C 0 km/h
1394 03-09-2004 08:07:59 13.5 C 9.94 g/m*3 13.5 C 0 km/h
1395 03-09-2004 08:18:59 13.8 C 10.13 g/m*3 13.8 C 0 km/h
1396 03-09-2004 08:31:00 13.8 C 10.01 g/m*3 13.8 C 0 km/h
1397 03-09-2004 08:43:00 14.1 C 10.19 g/m*3 14.1 C 0 km/h
1398 03-09-2004 08:55:00 14.8 C 10.64 g/m*3 14.8 C 0 km/h
1399 03-09-2004 09:07:00 15.4 C 10.51 g/m*3 15.4 C 0 km/h
1400 03-09-2004 09:19:00 15.2 C 10.25 g/m*3 15.2 C 0 km/h
Sensor: Nr:Datum:Temp:Abs-Feuchte:Windchill:Wind:
Aussen-T/F 1401 03-09-2004 09:31:00 15.7 C 10.57 g/m*3 15.7 C 0 km/h
1402 03-09-2004 09:43:00 15.7 C 10.3 g/m*3 15.7 C 0 km/h
1403 03-09-2004 09:55:00 15.7 C 10.57 g/m*3 15.7 C 0 km/h
1404 03-09-2004 10:07:00 16.3 C 10.41 g/m*3 16.3 C 0 km/h
1405 03-09-2004 10:19:59 17.3 C 10.9 g/m*3 17.3 C 0 km/h
1406 03-09-2004 10:31:59 18.2 C 10.57 g/m*3 18.2 C 0 km/h
1407 03-09-2004 10:43:59 19.1 C 10.82 g/m*3 19.1 C 0 km/h
1408 03-09-2004 10:55:59 19.7 C 11.21 g/m*3 19.7 C 0 km/h
1409 03-09-2004 11:07:59 19.7 C 10.87 g/m*3 19.7 C 0 km/h
1410 03-09-2004 11:19:59 20 C 11.58 g/m*3 20 C 0 km/h
1411 03-09-2004 11:31:59 20.6 C 11.63 g/m*3 20.6 C 0 km/h
1412 03-09-2004 11:43:59 21.1 C 11.98 g/m*3 21.1 C 0 km/h
1413 03-09-2004 11:55:59 21.5 C 12.07 g/m*3 21.5 C 0 km/h
1414 03-09-2004 12:07:59 22 C 12.42 g/m*3 22 C 0 km/h
1415 03-09-2004 12:19:00 22.7 C 12.73 g/m*3 22.7 C 0 km/h
1416 03-09-2004 12:31:00 22.9 C 12.47 g/m*3 22.9 C 0 km/h
1417 03-09-2004 12:43:00 23.1 C 12.61 g/m*3 23.1 C 0 km/h
1418 03-09-2004 12:55:00 23.4 C 13.25 g/m*3 23.4 C 0 km/h
1419 03-09-2004 13:07:59 23.8 C 13.12 g/m*3 23.8 C 0 km/h
1420 03-09-2004 13:19:59 24.3 C 13.28 g/m*3 24.3 C 0 km/h
1421 03-09-2004 13:31:59 24.9 C 13.28 g/m*3 24.9 C 0 km/h
1422 03-09-2004 13:43:59 25.5 C 11.84 g/m*3 25.5 C 0 km/h
1423 03-09-2004 13:55:59 26.1 C 11.26 g/m*3 26.1 C 0 km/h
1424 03-09-2004 14:07:59 26.5 C 12.02 g/m*3 26.5 C 0 km/h
1425 03-09-2004 14:19:59 26.9 C 11.26 g/m*3 26.9 C 0 km/h
Sensor: Nr:Datum:Temp:Abs-Feuchte:Windchill:Wind:
Aussen-T/F 1426 03-09-2004 14:31:59 27.6 C 10.64 g/m*3 27.6 C 0 km/h
1427 03-09-2004 14:43:59 28.3 C 11.06 g/m*3 28.3 C 0 km/h
1428 03-09-2004 14:55:59 28.6 C 11.24 g/m*3 28.6 C 0 km/h
1429 03-09-2004 15:07:59 29.1 C 10.97 g/m*3 29.1 C 0 km/h
1430 03-09-2004 15:19:59 29.6 C 11.28 g/m*3 29.6 C 0 km/h
1431 03-09-2004 15:31:59 30 C 12.13 g/m*3 30 C 0 km/h
1432 03-09-2004 15:43:59 30.2 C 11.96 g/m*3 30.2 C 0 km/h
1433 03-09-2004 15:55:59 30.6 C 10.02 g/m*3 30.6 C 0 km/h
1434 03-09-2004 16:07:58 30.6 C 10.65 g/m*3 30.6 C 0 km/h
1435 03-09-2004 16:19:59 30.7 C 11.97 g/m*3 30.7 C 0 km/h
1436 03-09-2004 16:31:59 30.4 C 12.39 g/m*3 30.4 C 0 km/h
1437 03-09-2004 16:43:59 30.4 C 12.08 g/m*3 30.4 C 0 km/h
1438 03-09-2004 16:55:59 28.9 C 12.86 g/m*3 28.9 C 0 km/h
1439 03-09-2004 17:07:59 27.6 C 13.04 g/m*3 27.6 C 0 km/h
1440 03-09-2004 17:19:59 27.5 C 12.7 g/m*3 27.5 C 0 km/h
1441 03-09-2004 17:31:59 28.6 C 12.93 g/m*3 28.6 C 0 km/h
1442 03-09-2004 17:43:59 29.3 C 12.85 g/m*3 29.3 C 0 km/h
1443 03-09-2004 17:55:59 29.5 C 12.69 g/m*3 29.5 C 0 km/h
1444 03-09-2004 18:07:59 29.4 C 12.62 g/m*3 29.4 C 0 km/h
1445 03-09-2004 18:19:58 28.9 C 13.14 g/m*3 28.9 C 0 km/h
1446 03-09-2004 18:31:58 28.6 C 12.65 g/m*3 28.6 C 0 km/h
1447 03-09-2004 18:43:58 28.5 C 12.02 g/m*3 28.5 C 0 km/h
1448 03-09-2004 18:55:58 28.6 C 12.65 g/m*3 28.6 C 0 km/h
1449 03-09-2004 19:07:58 28.3 C 11.89 g/m*3 28.3 C 0 km/h
1450 03-09-2004 19:19:58 27.5 C 12.7 g/m*3 27.5 C 0 km/h
Sensor: Nr:Datum:Temp:Abs-Feuchte:Windchill:Wind:
Aussen-T/F 1451 03-09-2004 19:31:58 26.6 C 12.59 g/m*3 26.6 C 0 km/h
1452 03-09-2004 19:43:58 25.6 C 13.09 g/m*3 25.6 C 0 km/h
1453 03-09-2004 19:55:59 24 C 12.84 g/m*3 24 C 0 km/h
1454 03-09-2004 20:07:59 23.5 C 13.11 g/m*3 23.5 C 0 km/h
1455 03-09-2004 20:19:59 23.1 C 12.61 g/m*3 23.1 C 0 km/h
1456 03-09-2004 20:31:59 22.7 C 12.73 g/m*3 22.7 C 0 km/h
1457 03-09-2004 20:43:59 22.1 C 12.49 g/m*3 22.1 C 0 km/h
1458 03-09-2004 20:55:59 21.9 C 12.93 g/m*3 21.9 C 0 km/h
1459 03-09-2004 21:07:58 21.5 C 12.82 g/m*3 21.5 C 0 km/h
1460 03-09-2004 21:19:58 21.3 C 12.68 g/m*3 21.3 C 0 km/h
1461 03-09-2004 21:31:58 21.1 C 12.71 g/m*3 21.1 C 0 km/h
1462 03-09-2004 21:43:58 21.1 C 12.53 g/m*3 21.1 C 0 km/h
1463 03-09-2004 21:55:58 20.8 C 12.49 g/m*3 20.8 C 0 km/h
1464 03-09-2004 22:07:58 20.7 C 12.78 g/m*3 20.7 C 0 km/h
1465 03-09-2004 22:19:58 20.3 C 12.49 g/m*3 20.3 C 0 km/h
1466 03-09-2004 22:31:58 20 C 12.44 g/m*3 20 C 0 km/h
1467 03-09-2004 22:43:58 20 C 12.62 g/m*3 20 C 0 km/h
1468 03-09-2004 22:55:58 19.7 C 12.57 g/m*3 19.7 C 0 km/h
1469 03-09-2004 23:07:58 19.6 C 12.66 g/m*3 19.6 C 0 km/h
1470 03-09-2004 23:19:58 19.4 C 12.51 g/m*3 19.4 C 0 km/h
1471 03-09-2004 23:31:58 19.1 C 12.46 g/m*3 19.1 C 0 km/h
1472 03-09-2004 23:43:58 18.9 C 12.64 g/m*3 18.9 C 0 km/h
1473 03-09-2004 23:55:57 18.8 C 12.56 g/m*3 18.8 C 0 km/h
1474 04-09-2004 00:07:58 18.6 C 12.57 g/m*3 18.6 C 0 km/h
1475 04-09-2004 00:19:58 18.3 C 12.35 g/m*3 18.3 C 0 km/h
Sensor: Nr:Datum:Temp:Abs-Feuchte:Windchill:Wind:
Aussen-T/F 1476 04-09-2004 00:31:57 18.2 C 12.43 g/m*3 18.2 C 0 km/h
1477 04-09-2004 00:43:57 18.1 C 12.36 g/m*3 18.1 C 0 km/h
1478 04-09-2004 00:55:58 18 C 12.44 g/m*3 18 C 0 km/h
1479 04-09-2004 01:07:58 17.8 C 12.6 g/m*3 17.8 C 0 km/h
1480 04-09-2004 01:19:58 17.7 C 12.52 g/m*3 17.7 C 0 km/h
1481 04-09-2004 01:31:58 17.5 C 12.37 g/m*3 17.5 C 0 km/h
1482 04-09-2004 01:43:58 17.5 C 12.37 g/m*3 17.5 C 0 km/h
1483 04-09-2004 01:55:58 17.2 C 12.3 g/m*3 17.2 C 0 km/h
1484 04-09-2004 02:07:58 17.1 C 12.23 g/m*3 17.1 C 0 km/h
1485 04-09-2004 02:19:58 16.9 C 12.23 g/m*3 16.9 C 0 km/h
1486 04-09-2004 02:31:58 16.8 C 12.15 g/m*3 16.8 C 0 km/h
1487 04-09-2004 02:43:58 16.5 C 12.08 g/m*3 16.5 C 0 km/h
1488 04-09-2004 02:56:00 16.5 C 12.08 g/m*3 16.5 C 0 km/h
1489 04-09-2004 03:08:00 16.4 C 12 g/m*3 16.4 C 0 km/h
1490 04-09-2004 03:20:59 16.3 C 11.93 g/m*3 16.3 C 0 km/h
1491 04-09-2004 03:32:59 16.2 C 11.86 g/m*3 16.2 C 0 km/h
1492 04-09-2004 03:44:59 16 C 11.72 g/m*3 16 C 0 km/h
1493 04-09-2004 03:56:59 16 C 11.72 g/m*3 16 C 0 km/h
1494 04-09-2004 04:08:59 15.9 C 11.78 g/m*3 15.9 C 0 km/h
1495 04-09-2004 04:20:59 15.8 C 11.71 g/m*3 15.8 C 0 km/h
1496 04-09-2004 04:32:59 15.6 C 11.44 g/m*3 15.6 C 0 km/h
1497 04-09-2004 04:44:59 15.6 C 11.57 g/m*3 15.6 C 0 km/h
1498 04-09-2004 04:57:00 15.4 C 11.43 g/m*3 15.4 C 0 km/h
1499 04-09-2004 05:08:59 15.2 C 11.29 g/m*3 15.2 C 0 km/h
1500 04-09-2004 05:20:59 15.2 C 11.29 g/m*3 15.2 C 0 km/h
Sensor: Nr:Datum:Temp:Abs-Feuchte:Windchill:Wind:
Aussen-T/F 1501 04-09-2004 05:32:59 15.2 C 11.29 g/m*3 15.2 C 0 km/h
1502 04-09-2004 05:44:58 15 C 11.28 g/m*3 15 C 0 km/h
1503 04-09-2004 05:56:58 14.9 C 11.22 g/m*3 14.9 C 0 km/h
1504 04-09-2004 06:08:58 14.7 C 11.21 g/m*3 14.7 C 0 km/h
1505 04-09-2004 06:20:58 14.6 C 11.14 g/m*3 14.6 C 0 km/h
1506 04-09-2004 06:32:59 14.7 C 11.21 g/m*3 14.7 C 0 km/h
1507 04-09-2004 06:44:59 14.5 C 11.07 g/m*3 14.5 C 0 km/h
1508 04-09-2004 06:56:59 14.2 C 10.99 g/m*3 14.2 C 0 km/h
1509 04-09-2004 07:08:59 14.3 C 11.06 g/m*3 14.3 C 0 km/h
1510 04-09-2004 07:20:59 14.3 C 11.06 g/m*3 14.3 C 0 km/h
1511 04-09-2004 07:32:59 14.2 C 11.11 g/m*3 14.2 C 0 km/h
1512 04-09-2004 07:44:59 14.5 C 11.32 g/m*3 14.5 C 0 km/h
1513 04-09-2004 07:56:59 14.6 C 11.26 g/m*3 14.6 C 0 km/h
1514 04-09-2004 08:08:59 15 C 11.41 g/m*3 15 C 0 km/h
1515 04-09-2004 08:20:59 14.9 C 11.22 g/m*3 14.9 C 0 km/h
1516 04-09-2004 08:32:58 15.4 C 11.43 g/m*3 15.4 C 0 km/h
1517 04-09-2004 08:43:59 15.5 C 11.24 g/m*3 15.5 C 0 km/h
1518 04-09-2004 08:55:59 15.4 C 11.04 g/m*3 15.4 C 0 km/h
1519 04-09-2004 09:08:58 15.6 C 11.17 g/m*3 15.6 C 0 km/h
1520 04-09-2004 09:20:58 16 C 11.31 g/m*3 16 C 0 km/h
1521 04-09-2004 09:32:58 16.4 C 11.45 g/m*3 16.4 C 0 km/h
1522 04-09-2004 09:44:58 16.7 C 11.37 g/m*3 16.7 C 0 km/h
1523 04-09-2004 09:56:58 17.2 C 11.57 g/m*3 17.2 C 0 km/h
1524 04-09-2004 10:08:58 17 C 11.43 g/m*3 17 C 0 km/h
1525 04-09-2004 10:20:59 17.3 C 11.79 g/m*3 17.3 C 0 km/h
Sensor: Nr:Datum:Temp:Abs-Feuchte:Windchill:Wind:
Aussen-T/F 1526 04-09-2004 10:32:59 17.8 C 11.99 g/m*3 17.8 C 0 km/h
1527 04-09-2004 10:44:59 18.2 C 12.12 g/m*3 18.2 C 0 km/h
1528 04-09-2004 10:56:59 18.7 C 12.33 g/m*3 18.7 C 0 km/h
1529 04-09-2004 11:08:59 19.2 C 12.37 g/m*3 19.2 C 0 km/h
1530 04-09-2004 11:20:59 19.8 C 12.47 g/m*3 19.8 C 0 km/h
1531 04-09-2004 11:32:00 20.5 C 12.63 g/m*3 20.5 C 0 km/h
1532 04-09-2004 11:44:00 21.3 C 12.12 g/m*3 21.3 C 0 km/h
1533 04-09-2004 11:56:58 21.9 C 13.12 g/m*3 21.9 C 0 km/h
1534 04-09-2004 12:08:58 22.6 C 12.86 g/m*3 22.6 C 0 km/h
1535 04-09-2004 12:20:58 23.2 C 13.1 g/m*3 23.2 C 0 km/h
1536 04-09-2004 12:32:58 23.6 C 13.4 g/m*3 23.6 C 0 km/h
1537 04-09-2004 12:44:58 24 C 13.05 g/m*3 24 C 0 km/h
1538 04-09-2004 12:56:58 24.6 C 13.95 g/m*3 24.6 C 0 km/h
1539 04-09-2004 13:08:58 24.8 C 12.97 g/m*3 24.8 C 0 km/h
1540 04-09-2004 13:20:58 25.4 C 13.18 g/m*3 25.4 C 0 km/h
1541 04-09-2004 13:32:58 25.8 C 12.52 g/m*3 25.8 C 0 km/h
1542 04-09-2004 13:44:58 26 C 12.17 g/m*3 26 C 0 km/h
1543 04-09-2004 13:56:58 26.6 C 12.84 g/m*3 26.6 C 0 km/h
1544 04-09-2004 14:08:58 27.2 C 12.49 g/m*3 27.2 C 0 km/h
1545 04-09-2004 14:20:58 27.8 C 13.72 g/m*3 27.8 C 0 km/h
1546 04-09-2004 14:32:58 28.2 C 12.65 g/m*3 28.2 C 0 km/h
1547 04-09-2004 14:44:58 28.6 C 12.65 g/m*3 28.6 C 0 km/h
1548 04-09-2004 14:56:58 29.4 C 13.21 g/m*3 29.4 C 0 km/h
1549 04-09-2004 15:08:58 29.4 C 12.33 g/m*3 29.4 C 0 km/h
1550 04-09-2004 15:20:58 30 C 12.13 g/m*3 30 C 0 km/h
Sensor: Nr:Datum:Temp:Abs-Feuchte:Windchill:Wind:
Aussen-T/F 1551 04-09-2004 15:32:58 30.1 C 11.89 g/m*3 30.1 C 0 km/h
1552 04-09-2004 15:44:58 30.2 C 11.96 g/m*3 30.2 C 0 km/h
1553 04-09-2004 15:56:58 30.6 C 10.96 g/m*3 30.6 C 0 km/h
1554 04-09-2004 16:08:57 30.6 C 10.65 g/m*3 30.6 C 0 km/h
1555 04-09-2004 16:20:57 30.6 C 10.65 g/m*3 30.6 C 0 km/h
1556 04-09-2004 16:32:57 30.7 C 11.34 g/m*3 30.7 C 0 km/h
1557 04-09-2004 16:44:57 30.7 C 10.39 g/m*3 30.7 C 0 km/h
1558 04-09-2004 16:56:57 30.8 C 10.13 g/m*3 30.8 C 0 km/h
1559 04-09-2004 17:08:58 31 C 11.52 g/m*3 31 C 0 km/h
1560 04-09-2004 17:20:58 31.2 C 11.32 g/m*3 31.2 C 0 km/h
1561 04-09-2004 17:32:58 30.9 C 10.19 g/m*3 30.9 C 0 km/h
1562 04-09-2004 17:44:58 30.9 C 10.82 g/m*3 30.9 C 0 km/h
1563 04-09-2004 17:56:58 30 C 9.7 g/m*3 30 C 0 km/h
1564 04-09-2004 18:08:58 30.1 C 10.67 g/m*3 30.1 C 0 km/h
1565 04-09-2004 18:20:58 30.2 C 10.73 g/m*3 30.2 C 0 km/h
1566 04-09-2004 18:32:58 30 C 11.22 g/m*3 30 C 0 km/h
1567 04-09-2004 18:44:57 29.8 C 11.7 g/m*3 29.8 C 0 km/h
1568 04-09-2004 18:56:57 29 C 11.49 g/m*3 29 C 0 km/h
1569 04-09-2004 19:08:57 27.6 C 11.97 g/m*3 27.6 C 0 km/h
1570 04-09-2004 19:20:57 26.9 C 12.29 g/m*3 26.9 C 0 km/h
1571 04-09-2004 19:32:57 25.7 C 12.45 g/m*3 25.7 C 0 km/h
1572 04-09-2004 19:44:57 24.8 C 12.52 g/m*3 24.8 C 0 km/h
1573 04-09-2004 19:56:57 24.1 C 12.25 g/m*3 24.1 C 0 km/h
1574 04-09-2004 20:08:57 23.3 C 11.92 g/m*3 23.3 C 0 km/h
1575 04-09-2004 20:20:57 23.1 C 12.2 g/m*3 23.1 C 0 km/h
Sensor: Nr:Datum:Temp:Abs-Feuchte:Windchill:Wind:
Aussen-T/F 1576 04-09-2004 20:32:57 22.6 C 12.25 g/m*3 22.6 C 0 km/h
1577 04-09-2004 20:44:58 22.2 C 12.17 g/m*3 22.2 C 0 km/h
1578 04-09-2004 20:56:58 22 C 12.42 g/m*3 22 C 0 km/h
1579 04-09-2004 21:08:58 22.1 C 12.49 g/m*3 22.1 C 0 km/h
1580 04-09-2004 21:20:58 21.7 C 12.78 g/m*3 21.7 C 0 km/h
1581 04-09-2004 21:32:57 21.7 C 12.97 g/m*3 21.7 C 0 km/h
1582 04-09-2004 21:44:57 21.4 C 12.94 g/m*3 21.4 C 0 km/h
1583 04-09-2004 21:56:57 21.3 C 13.05 g/m*3 21.3 C 0 km/h
1584 04-09-2004 22:08:57 20.9 C 12.93 g/m*3 20.9 C 0 km/h
1585 04-09-2004 22:20:57 20.8 C 13.04 g/m*3 20.8 C 0 km/h
1586 04-09-2004 22:32:57 20.6 C 13.07 g/m*3 20.6 C 0 km/h
1587 04-09-2004 22:44:57 20.4 C 12.91 g/m*3 20.4 C 0 km/h
1588 04-09-2004 22:56:57 20.3 C 13.01 g/m*3 20.3 C 0 km/h
1589 04-09-2004 23:08:57 20 C 12.96 g/m*3 20 C 0 km/h
1590 04-09-2004 23:20:57 19.8 C 13.15 g/m*3 19.8 C 0 km/h
1591 04-09-2004 23:32:57 19.7 C 13.08 g/m*3 19.7 C 0 km/h
1592 04-09-2004 23:44:57 19.4 C 12.85 g/m*3 19.4 C 0 km/h
1593 04-09-2004 23:56:57 19.3 C 12.94 g/m*3 19.3 C 0 km/h
1594 05-09-2004 00:08:57 19.1 C 12.95 g/m*3 19.1 C 0 km/h
1595 05-09-2004 00:20:58 18.9 C 12.96 g/m*3 18.9 C 0 km/h
1596 05-09-2004 00:32:57 18.8 C 13.05 g/m*3 18.8 C 0 km/h
1597 05-09-2004 00:44:57 18.6 C 12.89 g/m*3 18.6 C 0 km/h
1598 05-09-2004 00:56:57 18.5 C 12.82 g/m*3 18.5 C 0 km/h
1599 05-09-2004 01:08:57 18.3 C 12.66 g/m*3 18.3 C 0 km/h
1600 05-09-2004 01:20:56 18.2 C 12.59 g/m*3 18.2 C 0 km/h
Sensor: Nr:Datum:Temp:Abs-Feuchte:Windchill:Wind:
Aussen-T/F 1601 05-09-2004 01:32:56 18.1 C 12.52 g/m*3 18.1 C 0 km/h
1602 05-09-2004 01:44:56 17.9 C 12.67 g/m*3 17.9 C 0 km/h
1603 05-09-2004 01:56:56 17.7 C 12.52 g/m*3 17.7 C 0 km/h
1604 05-09-2004 02:08:56 17.6 C 12.45 g/m*3 17.6 C 0 km/h
1605 05-09-2004 02:20:57 17.5 C 12.37 g/m*3 17.5 C 0 km/h
1606 05-09-2004 02:32:57 17.3 C 12.23 g/m*3 17.3 C 0 km/h
1607 05-09-2004 02:45:58 17.2 C 12.3 g/m*3 17.2 C 0 km/h
1608 05-09-2004 02:57:58 17.1 C 12.08 g/m*3 17.1 C 0 km/h
1609 05-09-2004 03:09:58 17 C 12.15 g/m*3 17 C 0 km/h
1610 05-09-2004 03:21:58 16.7 C 12.22 g/m*3 16.7 C 0 km/h
1611 05-09-2004 03:33:58 16.6 C 12.15 g/m*3 16.6 C 0 km/h
1612 05-09-2004 03:45:58 16.6 C 12.01 g/m*3 16.6 C 0 km/h
1613 05-09-2004 03:57:58 16.5 C 12.08 g/m*3 16.5 C 0 km/h
1614 05-09-2004 04:09:58 16.4 C 12 g/m*3 16.4 C 0 km/h
1615 05-09-2004 04:21:58 16.4 C 12 g/m*3 16.4 C 0 km/h
1616 05-09-2004 04:33:58 16.2 C 11.86 g/m*3 16.2 C 0 km/h
1617 05-09-2004 04:45:58 16 C 11.72 g/m*3 16 C 0 km/h
1618 05-09-2004 04:57:58 15.9 C 11.78 g/m*3 15.9 C 0 km/h
1619 05-09-2004 05:09:58 15.8 C 11.85 g/m*3 15.8 C 0 km/h
1620 05-09-2004 05:21:58 15.8 C 11.85 g/m*3 15.8 C 0 km/h
1621 05-09-2004 05:33:58 15.6 C 11.7 g/m*3 15.6 C 0 km/h
1622 05-09-2004 05:45:58 15.5 C 11.63 g/m*3 15.5 C 0 km/h
1623 05-09-2004 05:57:58 15.5 C 11.63 g/m*3 15.5 C 0 km/h
1624 05-09-2004 06:09:58 15.3 C 11.36 g/m*3 15.3 C 0 km/h
1625 05-09-2004 06:21:58 15.2 C 11.29 g/m*3 15.2 C 0 km/h
Sensor: Nr:Datum:Temp:Abs-Feuchte:Windchill:Wind:
Aussen-T/F 1626 05-09-2004 06:33:58 15.1 C 11.35 g/m*3 15.1 C 0 km/h
1627 05-09-2004 06:45:57 15.1 C 11.48 g/m*3 15.1 C 0 km/h
1628 05-09-2004 06:57:57 15.2 C 11.55 g/m*3 15.2 C 0 km/h
1629 05-09-2004 07:09:57 15.4 C 11.69 g/m*3 15.4 C 0 km/h
1630 05-09-2004 07:21:58 15.6 C 11.7 g/m*3 15.6 C 0 km/h
1631 05-09-2004 07:33:58 15.8 C 11.85 g/m*3 15.8 C 0 km/h
1632 05-09-2004 07:45:58 15.9 C 12.05 g/m*3 15.9 C 0 km/h
1633 05-09-2004 07:57:59 15.8 C 11.98 g/m*3 15.8 C 0 km/h
1634 05-09-2004 08:09:58 16.1 C 12.2 g/m*3 16.1 C 0 km/h
1635 05-09-2004 08:21:58 16.5 C 12.5 g/m*3 16.5 C 0 km/h
1636 05-09-2004 08:33:58 16.8 C 12.44 g/m*3 16.8 C 0 km/h
1637 05-09-2004 08:45:58 16.9 C 12.37 g/m*3 16.9 C 0 km/h
1638 05-09-2004 08:57:58 17.1 C 12.37 g/m*3 17.1 C 0 km/h
1639 05-09-2004 09:09:58 17.2 C 12.3 g/m*3 17.2 C 0 km/h
1640 05-09-2004 09:21:57 17.4 C 12.45 g/m*3 17.4 C 0 km/h
1641 05-09-2004 09:33:57 17.6 C 12.6 g/m*3 17.6 C 0 km/h
1642 05-09-2004 09:45:57 17.7 C 12.52 g/m*3 17.7 C 0 km/h
1643 05-09-2004 09:57:57 18.1 C 12.67 g/m*3 18.1 C 0 km/h
1644 05-09-2004 10:09:57 18.3 C 12.66 g/m*3 18.3 C 0 km/h
1645 05-09-2004 10:21:57 18.2 C 12.43 g/m*3 18.2 C 0 km/h
1646 05-09-2004 10:33:57 18.1 C 12.98 g/m*3 18.1 C 0 km/h
1647 05-09-2004 10:45:57 18.7 C 13.29 g/m*3 18.7 C 0 km/h
1648 05-09-2004 10:57:57 19.6 C 13.51 g/m*3 19.6 C 0 km/h
1649 05-09-2004 11:09:57 20.3 C 13.37 g/m*3 20.3 C 0 km/h
1650 05-09-2004 11:21:58 21.2 C 13.53 g/m*3 21.2 C 0 km/h
Sensor: Nr:Datum:Temp:Abs-Feuchte:Windchill:Wind:
Aussen-T/F 1651 05-09-2004 11:33:58 21.8 C 13.43 g/m*3 21.8 C 0 km/h
1652 05-09-2004 11:45:57 22.3 C 13.62 g/m*3 22.3 C 0 km/h
1653 05-09-2004 11:57:57 22.9 C 14.1 g/m*3 22.9 C 0 km/h
1654 05-09-2004 12:09:57 23.5 C 14.38 g/m*3 23.5 C 0 km/h
1655 05-09-2004 12:21:57 24.2 C 13.86 g/m*3 24.2 C 0 km/h
1656 05-09-2004 12:33:57 24.6 C 14.18 g/m*3 24.6 C 0 km/h
1657 05-09-2004 12:45:57 24.9 C 14.42 g/m*3 24.9 C 0 km/h
1658 05-09-2004 12:57:57 25.1 C 14.12 g/m*3 25.1 C 0 km/h
1659 05-09-2004 13:09:57 25.8 C 13.96 g/m*3 25.8 C 0 km/h
1660 05-09-2004 13:21:57 26.6 C 13.84 g/m*3 26.6 C 0 km/h
1661 05-09-2004 13:33:57 26.8 C 13.74 g/m*3 26.8 C 0 km/h
1662 05-09-2004 13:45:57 27.5 C 12.17 g/m*3 27.5 C 0 km/h
1663 05-09-2004 13:57:57 27.9 C 11.63 g/m*3 27.9 C 0 km/h
1664 05-09-2004 14:09:57 28.2 C 11.27 g/m*3 28.2 C 0 km/h
1665 05-09-2004 14:21:57 28.8 C 10.51 g/m*3 28.8 C 0 km/h
1666 05-09-2004 14:33:56 29.4 C 10.57 g/m*3 29.4 C 0 km/h
1667 05-09-2004 14:45:56 29.4 C 10.57 g/m*3 29.4 C 0 km/h
1668 05-09-2004 14:57:56 29.9 C 11.46 g/m*3 29.9 C 0 km/h
1669 05-09-2004 15:09:56 30.1 C 10.98 g/m*3 30.1 C 0 km/h
1670 05-09-2004 15:21:57 30.3 C 10.17 g/m*3 30.3 C 0 km/h
1671 05-09-2004 15:33:57 30.4 C 10.54 g/m*3 30.4 C 0 km/h
1672 05-09-2004 15:45:57 30.3 C 10.48 g/m*3 30.3 C 0 km/h
1673 05-09-2004 15:57:57 30 C 11.83 g/m*3 30 C 0 km/h
1674 05-09-2004 16:09:57 30.4 C 9.92 g/m*3 30.4 C 0 km/h
1675 05-09-2004 16:21:57 31 C 9.6 g/m*3 31 C 0 km/h
Sensor: Nr:Datum:Temp:Abs-Feuchte:Windchill:Wind:
Aussen-T/F 1676 05-09-2004 16:33:57 31.3 C 9.76 g/m*3 31.3 C 0 km/h
1677 05-09-2004 16:45:57 31.2 C 9.06 g/m*3 31.2 C 0 km/h
1678 05-09-2004 16:57:57 31 C 9.92 g/m*3 31 C 0 km/h
1679 05-09-2004 17:09:57 31 C 9.92 g/m*3 31 C 0 km/h
1680 05-09-2004 17:21:56 31 C 9.92 g/m*3 31 C 0 km/h
1681 05-09-2004 17:33:56 30.7 C 9.76 g/m*3 30.7 C 0 km/h
1682 05-09-2004 17:45:56 30.8 C 9.81 g/m*3 30.8 C 0 km/h
1683 05-09-2004 17:57:56 30.8 C 10.13 g/m*3 30.8 C 0 km/h
1684 05-09-2004 18:09:56 30.7 C 10.39 g/m*3 30.7 C 0 km/h
1685 05-09-2004 18:21:56 30.4 C 11.47 g/m*3 30.4 C 0 km/h
1686 05-09-2004 18:33:56 30.1 C 11.59 g/m*3 30.1 C 0 km/h
1687 05-09-2004 18:45:56 29.7 C 11.93 g/m*3 29.7 C 0 km/h
1688 05-09-2004 18:57:57 29.3 C 11.68 g/m*3 29.3 C 0 km/h
1689 05-09-2004 19:09:57 28.6 C 11.52 g/m*3 28.6 C 0 km/h
1690 05-09-2004 19:21:57 27.6 C 11.17 g/m*3 27.6 C 0 km/h
1691 05-09-2004 19:33:57 26.6 C 11.33 g/m*3 26.6 C 0 km/h
1692 05-09-2004 19:45:56 25.6 C 10.95 g/m*3 25.6 C 0 km/h
1693 05-09-2004 19:57:56 24.8 C 10.93 g/m*3 24.8 C 0 km/h
1694 05-09-2004 20:09:56 24.2 C 10.78 g/m*3 24.2 C 0 km/h
1695 05-09-2004 20:21:56 23.5 C 11 g/m*3 23.5 C 0 km/h
1696 05-09-2004 20:33:56 22.9 C 11.04 g/m*3 22.9 C 0 km/h
1697 05-09-2004 20:45:56 22.1 C 10.74 g/m*3 22.1 C 0 km/h
1698 05-09-2004 20:57:56 22 C 10.87 g/m*3 22 C 0 km/h
1699 05-09-2004 21:09:56 21.5 C 11.13 g/m*3 21.5 C 0 km/h
1700 05-09-2004 21:21:56 21.3 C 11 g/m*3 21.3 C 0 km/h
Sensor: Nr:Datum:Temp:Abs-Feuchte:Windchill:Wind:
Aussen-T/F 1701 05-09-2004 21:33:56 21 C 10.81 g/m*3 21 C 0 km/h
1702 05-09-2004 21:45:56 20.9 C 11.29 g/m*3 20.9 C 0 km/h
1703 05-09-2004 21:57:56 20.4 C 10.97 g/m*3 20.4 C 0 km/h
1704 05-09-2004 22:09:56 20 C 11.41 g/m*3 20 C 0 km/h
1705 05-09-2004 22:21:56 19.7 C 11.55 g/m*3 19.7 C 0 km/h
1706 05-09-2004 22:33:55 19.5 C 11.41 g/m*3 19.5 C 0 km/h
1707 05-09-2004 22:45:56 19.3 C 11.61 g/m*3 19.3 C 0 km/h
1708 05-09-2004 22:57:56 19.1 C 11.64 g/m*3 19.1 C 0 km/h
1709 05-09-2004 23:09:56 18.9 C 11.66 g/m*3 18.9 C 0 km/h
1710 05-09-2004 23:21:56 18.6 C 11.46 g/m*3 18.6 C 0 km/h
1711 05-09-2004 23:33:56 18.5 C 11.39 g/m*3 18.5 C 0 km/h
1712 05-09-2004 23:45:56 18.3 C 11.41 g/m*3 18.3 C 0 km/h
1713 05-09-2004 23:57:56 18.1 C 11.43 g/m*3 18.1 C 0 km/h
1714 06-09-2004 00:09:56 18.2 C 11.35 g/m*3 18.2 C 0 km/h
1715 06-09-2004 00:21:56 17.8 C 10.93 g/m*3 17.8 C 0 km/h
1716 06-09-2004 00:33:55 17.5 C 11.03 g/m*3 17.5 C 0 km/h
1717 06-09-2004 00:45:56 17.2 C 10.98 g/m*3 17.2 C 0 km/h
1718 06-09-2004 00:57:56 17 C 10.71 g/m*3 17 C 0 km/h
1719 06-09-2004 01:09:56 16.8 C 10.87 g/m*3 16.8 C 0 km/h
1720 06-09-2004 01:21:56 16.5 C 10.81 g/m*3 16.5 C 0 km/h
1721 06-09-2004 01:33:56 16.3 C 10.82 g/m*3 16.3 C 0 km/h
1722 06-09-2004 01:45:56 16.1 C 10.69 g/m*3 16.1 C 0 km/h
1723 06-09-2004 01:57:56 16 C 10.63 g/m*3 16 C 0 km/h
1724 06-09-2004 02:09:56 15.9 C 10.7 g/m*3 15.9 C 0 km/h
1725 06-09-2004 02:21:56 15.8 C 10.5 g/m*3 15.8 C 0 km/h
Sensor: Nr:Datum:Temp:Abs-Feuchte:Windchill:Wind:
Aussen-T/F 1726 06-09-2004 02:33:55 15.7 C 10.57 g/m*3 15.7 C 0 km/h
1727 06-09-2004 02:46:57 15.6 C 10.51 g/m*3 15.6 C 0 km/h
1728 06-09-2004 02:58:57 15.4 C 10.38 g/m*3 15.4 C 0 km/h
1729 06-09-2004 03:10:57 15.1 C 10.06 g/m*3 15.1 C 0 km/h
1730 06-09-2004 03:22:57 14.9 C 10.2 g/m*3 14.9 C 0 km/h
1731 06-09-2004 03:34:57 14.8 C 10.13 g/m*3 14.8 C 0 km/h
1732 06-09-2004 03:46:57 14.6 C 10.01 g/m*3 14.6 C 0 km/h
1733 06-09-2004 03:58:57 14.4 C 9.77 g/m*3 14.4 C 0 km/h
1734 06-09-2004 04:10:57 14.4 C 9.89 g/m*3 14.4 C 0 km/h
1735 06-09-2004 04:22:57 14.3 C 9.83 g/m*3 14.3 C 0 km/h
1736 06-09-2004 04:34:57 14.1 C 9.71 g/m*3 14.1 C 0 km/h
1737 06-09-2004 04:46:57 14.1 C 9.83 g/m*3 14.1 C 0 km/h
1738 06-09-2004 04:58:57 13.8 C 9.65 g/m*3 13.8 C 0 km/h
1739 06-09-2004 05:10:57 13.8 C 9.77 g/m*3 13.8 C 0 km/h
1740 06-09-2004 05:22:56 13.8 C 9.77 g/m*3 13.8 C 0 km/h
1741 06-09-2004 05:34:56 13.6 C 9.65 g/m*3 13.6 C 0 km/h
1742 06-09-2004 05:46:56 13.6 C 9.65 g/m*3 13.6 C 0 km/h
1743 06-09-2004 05:58:56 13.5 C 9.71 g/m*3 13.5 C 0 km/h
1744 06-09-2004 06:10:56 13.4 C 9.65 g/m*3 13.4 C 0 km/h
1745 06-09-2004 06:22:56 13.4 C 9.76 g/m*3 13.4 C 0 km/h
1746 06-09-2004 06:34:57 13.1 C 9.59 g/m*3 13.1 C 0 km/h
1747 06-09-2004 06:46:57 13.2 C 9.64 g/m*3 13.2 C 0 km/h
1748 06-09-2004 06:58:57 13 C 9.64 g/m*3 13 C 0 km/h
1749 06-09-2004 07:10:57 13 C 9.64 g/m*3 13 C 0 km/h
1750 06-09-2004 07:22:57 12.9 C 9.81 g/m*3 12.9 C 0 km/h
Sensor: Nr:Datum:Temp:Abs-Feuchte:Windchill:Wind:
Aussen-T/F 1751 06-09-2004 07:34:57 12.9 C 9.81 g/m*3 12.9 C 0 km/h
1752 06-09-2004 07:46:57 12.9 C 9.81 g/m*3 12.9 C 0 km/h
1753 06-09-2004 07:58:57 12.9 C 9.92 g/m*3 12.9 C 0 km/h
1754 06-09-2004 08:10:56 13 C 9.87 g/m*3 13 C 0 km/h
1755 06-09-2004 08:22:56 13.3 C 10.05 g/m*3 13.3 C 0 km/h
1756 06-09-2004 08:34:56 13.3 C 10.05 g/m*3 13.3 C 0 km/h
1757 06-09-2004 08:46:56 13.3 C 10.05 g/m*3 13.3 C 0 km/h
1758 06-09-2004 08:58:56 13.7 C 10.3 g/m*3 13.7 C 0 km/h
1759 06-09-2004 09:10:56 13.9 C 10.43 g/m*3 13.9 C 0 km/h
1760 06-09-2004 09:22:56 14.2 C 10.5 g/m*3 14.2 C 0 km/h
1761 06-09-2004 09:34:56 14.6 C 10.76 g/m*3 14.6 C 0 km/h
1762 06-09-2004 09:46:56 15.2 C 10.9 g/m*3 15.2 C 0 km/h
1763 06-09-2004 09:58:56 15.9 C 10.97 g/m*3 15.9 C 0 km/h
1764 06-09-2004 10:10:56 16.5 C 11.09 g/m*3 16.5 C 0 km/h
1765 06-09-2004 10:22:57 17 C 11.29 g/m*3 17 C 0 km/h
1766 06-09-2004 10:34:57 17.5 C 11.48 g/m*3 17.5 C 0 km/h
1767 06-09-2004 10:46:56 18.3 C 11.57 g/m*3 18.3 C 0 km/h
1768 06-09-2004 10:58:56 18.8 C 11.76 g/m*3 18.8 C 0 km/h
1769 06-09-2004 11:10:56 19.3 C 11.61 g/m*3 19.3 C 0 km/h
1770 06-09-2004 11:22:56 19.8 C 11.79 g/m*3 19.8 C 0 km/h
1771 06-09-2004 11:34:56 20.4 C 11.68 g/m*3 20.4 C 0 km/h
1772 06-09-2004 11:46:56 21.4 C 11.62 g/m*3 21.4 C 0 km/h
1773 06-09-2004 11:58:56 22.1 C 11.52 g/m*3 22.1 C 0 km/h
1774 06-09-2004 12:10:56 22.7 C 11.52 g/m*3 22.7 C 0 km/h
1775 06-09-2004 12:22:56 23 C 12.33 g/m*3 23 C 0 km/h
Sensor: Nr:Datum:Temp:Abs-Feuchte:Windchill:Wind:
Aussen-T/F 1776 06-09-2004 12:34:56 23.2 C 11.23 g/m*3 23.2 C 0 km/h
1777 06-09-2004 12:46:56 23.8 C 10.97 g/m*3 23.8 C 0 km/h
1778 06-09-2004 12:58:56 24 C 10.01 g/m*3 24 C 0 km/h
1779 06-09-2004 13:10:56 24.5 C 9.4 g/m*3 24.5 C 0 km/h
1780 06-09-2004 13:22:56 24.8 C 9.33 g/m*3 24.8 C 0 km/h
1781 06-09-2004 13:34:55 25.2 C 9.08 g/m*3 25.2 C 0 km/h
1782 06-09-2004 13:46:55 25.8 C 9.63 g/m*3 25.8 C 0 km/h
1783 06-09-2004 13:58:55 26.4 C 9.21 g/m*3 26.4 C 0 km/h
1784 06-09-2004 14:10:55 26.5 C 9.01 g/m*3 26.5 C 0 km/h
1785 06-09-2004 14:22:56 27.2 C 9.37 g/m*3 27.2 C 0 km/h
1786 06-09-2004 14:34:56 27.4 C 8.42 g/m*3 27.4 C 0 km/h
1787 06-09-2004 14:46:56 27.8 C 8.34 g/m*3 27.8 C 0 km/h
1788 06-09-2004 14:58:56 28.4 C 8.9 g/m*3 28.4 C 0 km/h
1789 06-09-2004 15:10:56 28.9 C 8.57 g/m*3 28.9 C 0 km/h
1790 06-09-2004 15:22:56 29.4 C 8.51 g/m*3 29.4 C 0 km/h
1791 06-09-2004 15:34:56 29.4 C 8.81 g/m*3 29.4 C 0 km/h
1792 06-09-2004 15:46:56 29.5 C 8.56 g/m*3 29.5 C 0 km/h
1793 06-09-2004 15:58:56 30 C 8.79 g/m*3 30 C 0 km/h
1794 06-09-2004 16:10:56 30.3 C 8.63 g/m*3 30.3 C 0 km/h
1795 06-09-2004 16:22:55 30.6 C 8.14 g/m*3 30.6 C 0 km/h
1796 06-09-2004 16:34:55 30.3 C 8.63 g/m*3 30.3 C 0 km/h
1797 06-09-2004 16:46:55 30.4 C 8.37 g/m*3 30.4 C 0 km/h
1798 06-09-2004 16:58:55 30.6 C 8.46 g/m*3 30.6 C 0 km/h
1799 06-09-2004 17:10:56 30.9 C 8.59 g/m*3 30.9 C 0 km/h
1800 06-09-2004 17:22:55 30.7 C 8.19 g/m*3 30.7 C 0 km/h
Sensor: Nr:Datum:Temp:Abs-Feuchte:Windchill:Wind:
Aussen-T/F 1801 06-09-2004 17:34:55 30.9 C 8.59 g/m*3 30.9 C 0 km/h
1802 06-09-2004 17:46:55 30.6 C 8.46 g/m*3 30.6 C 0 km/h
1803 06-09-2004 17:58:55 30.7 C 8.5 g/m*3 30.7 C 0 km/h
1804 06-09-2004 18:10:56 30.7 C 9.45 g/m*3 30.7 C 0 km/h
1805 06-09-2004 18:22:56 30.3 C 8.94 g/m*3 30.3 C 0 km/h
1806 06-09-2004 18:34:56 30.1 C 9.45 g/m*3 30.1 C 0 km/h
1807 06-09-2004 18:46:56 29.6 C 8.9 g/m*3 29.6 C 0 km/h
1808 06-09-2004 18:58:56 29.1 C 10.11 g/m*3 29.1 C 0 km/h
1809 06-09-2004 19:10:55 28.2 C 10.17 g/m*3 28.2 C 0 km/h
1810 06-09-2004 19:22:55 27.3 C 10.2 g/m*3 27.3 C 0 km/h
1811 06-09-2004 19:34:56 26.4 C 10.21 g/m*3 26.4 C 0 km/h
1812 06-09-2004 19:46:55 25.2 C 10.24 g/m*3 25.2 C 0 km/h
1813 06-09-2004 19:58:55 24.3 C 10.4 g/m*3 24.3 C 0 km/h
1814 06-09-2004 20:10:55 23.7 C 10.91 g/m*3 23.7 C 0 km/h
1815 06-09-2004 20:22:55 22.6 C 10.65 g/m*3 22.6 C 0 km/h
1816 06-09-2004 20:34:55 22.1 C 10.54 g/m*3 22.1 C 0 km/h
1817 06-09-2004 20:46:55 21.5 C 10.94 g/m*3 21.5 C 0 km/h
1818 06-09-2004 20:58:55 21.3 C 10.81 g/m*3 21.3 C 0 km/h
1819 06-09-2004 21:10:55 21.2 C 10.93 g/m*3 21.2 C 0 km/h
1820 06-09-2004 21:22:55 20.9 C 11.11 g/m*3 20.9 C 0 km/h
1821 06-09-2004 21:34:55 20.7 C 10.98 g/m*3 20.7 C 0 km/h
1822 06-09-2004 21:46:55 20.4 C 10.61 g/m*3 20.4 C 0 km/h
1823 06-09-2004 21:58:55 20 C 10.37 g/m*3 20 C 0 km/h
1824 06-09-2004 22:10:55 20 C 10.71 g/m*3 20 C 0 km/h
1825 06-09-2004 22:22:55 19.7 C 10.7 g/m*3 19.7 C 0 km/h
Sensor: Nr:Datum:Temp:Abs-Feuchte:Windchill:Wind:
Aussen-T/F 1826 06-09-2004 22:34:55 19.5 C 10.74 g/m*3 19.5 C 0 km/h
1827 06-09-2004 22:46:55 19.2 C 10.72 g/m*3 19.2 C 0 km/h
1828 06-09-2004 22:58:55 19.1 C 10.66 g/m*3 19.1 C 0 km/h
1829 06-09-2004 23:10:55 18.9 C 10.85 g/m*3 18.9 C 0 km/h
1830 06-09-2004 23:22:55 18.6 C 10.82 g/m*3 18.6 C 0 km/h
1831 06-09-2004 23:34:55 18.4 C 10.54 g/m*3 18.4 C 0 km/h
1832 06-09-2004 23:46:55 18.1 C 10.97 g/m*3 18.1 C 0 km/h
1833 06-09-2004 23:58:55 18.2 C 10.72 g/m*3 18.2 C 0 km/h
1834 07-09-2004 00:10:55 18.3 C 11.1 g/m*3 18.3 C 0 km/h
1835 07-09-2004 00:22:55 17.9 C 10.84 g/m*3 17.9 C 0 km/h
1836 07-09-2004 00:34:55 17.6 C 10.65 g/m*3 17.6 C 0 km/h
1837 07-09-2004 00:46:55 17.6 C 10.8 g/m*3 17.6 C 0 km/h
1838 07-09-2004 00:58:56 17.5 C 10.73 g/m*3 17.5 C 0 km/h
1839 07-09-2004 01:10:55 17.4 C 10.97 g/m*3 17.4 C 0 km/h
1840 07-09-2004 01:22:55 17.3 C 10.9 g/m*3 17.3 C 0 km/h
1841 07-09-2004 01:34:55 17.3 C 10.75 g/m*3 17.3 C 0 km/h
1842 07-09-2004 01:46:55 17 C 10.56 g/m*3 17 C 0 km/h
1843 07-09-2004 01:58:55 16.8 C 10.72 g/m*3 16.8 C 0 km/h
1844 07-09-2004 02:10:55 16.5 C 10.53 g/m*3 16.5 C 0 km/h
1845 07-09-2004 02:22:54 16.4 C 10.61 g/m*3 16.4 C 0 km/h
1846 07-09-2004 02:34:54 16.1 C 10.42 g/m*3 16.1 C 0 km/h
1847 07-09-2004 02:47:56 15.9 C 10.56 g/m*3 15.9 C 0 km/h
1848 07-09-2004 02:59:56 15.8 C 10.5 g/m*3 15.8 C 0 km/h
1849 07-09-2004 03:11:56 15.8 C 10.63 g/m*3 15.8 C 0 km/h
1850 07-09-2004 03:23:56 15.6 C 10.64 g/m*3 15.6 C 0 km/h
Sensor: Nr:Datum:Temp:Abs-Feuchte:Windchill:Wind:
Aussen-T/F 1851 07-09-2004 03:35:56 15.3 C 10.45 g/m*3 15.3 C 0 km/h
1852 07-09-2004 03:47:56 15.2 C 10.64 g/m*3 15.2 C 0 km/h
1853 07-09-2004 03:59:57 15.1 C 10.45 g/m*3 15.1 C 0 km/h
1854 07-09-2004 04:11:56 14.9 C 10.45 g/m*3 14.9 C 0 km/h
1855 07-09-2004 04:23:56 14.8 C 10.51 g/m*3 14.8 C 0 km/h
1856 07-09-2004 04:35:56 14.7 C 10.45 g/m*3 14.7 C 0 km/h
1857 07-09-2004 04:47:56 14.6 C 10.39 g/m*3 14.6 C 0 km/h
1858 07-09-2004 04:59:56 14.5 C 10.45 g/m*3 14.5 C 0 km/h
1859 07-09-2004 05:11:55 14.4 C 10.38 g/m*3 14.4 C 0 km/h
1860 07-09-2004 05:23:55 14.3 C 10.32 g/m*3 14.3 C 0 km/h
1861 07-09-2004 05:35:55 14.2 C 10.26 g/m*3 14.2 C 0 km/h
1862 07-09-2004 05:47:55 14.2 C 10.26 g/m*3 14.2 C 0 km/h
1863 07-09-2004 05:59:55 14.1 C 10.32 g/m*3 14.1 C 0 km/h
1864 07-09-2004 06:11:55 14 C 10.25 g/m*3 14 C 0 km/h
1865 07-09-2004 06:23:56 14 C 10.13 g/m*3 14 C 0 km/h
1866 07-09-2004 06:35:56 14 C 10.25 g/m*3 14 C 0 km/h
1867 07-09-2004 06:47:57 13.8 C 10.25 g/m*3 13.8 C 0 km/h
1868 07-09-2004 06:59:58 13.8 C 10.25 g/m*3 13.8 C 0 km/h
1869 07-09-2004 07:11:56 13.8 C 10.25 g/m*3 13.8 C 0 km/h
1870 07-09-2004 07:23:55 13.7 C 10.18 g/m*3 13.7 C 0 km/h
1871 07-09-2004 07:35:55 13.7 C 10.3 g/m*3 13.7 C 0 km/h
1872 07-09-2004 07:47:55 14 C 10.37 g/m*3 14 C 0 km/h
1873 07-09-2004 07:59:55 14 C 10.37 g/m*3 14 C 0 km/h
1874 07-09-2004 08:11:55 14.1 C 10.32 g/m*3 14.1 C 0 km/h
1875 07-09-2004 08:23:55 14.2 C 10.5 g/m*3 14.2 C 0 km/h
Sensor: Nr:Datum:Temp:Abs-Feuchte:Windchill:Wind:
Aussen-T/F 1876 07-09-2004 08:35:55 14.3 C 10.57 g/m*3 14.3 C 0 km/h
1877 07-09-2004 08:47:55 14.7 C 10.83 g/m*3 14.7 C 0 km/h
1878 07-09-2004 08:59:55 15 C 10.77 g/m*3 15 C 0 km/h
1879 07-09-2004 09:11:55 15.3 C 10.84 g/m*3 15.3 C 0 km/h
1880 07-09-2004 09:23:55 15.6 C 11.04 g/m*3 15.6 C 0 km/h
1881 07-09-2004 09:35:55 15.9 C 10.97 g/m*3 15.9 C 0 km/h
1882 07-09-2004 09:47:56 16.3 C 10.82 g/m*3 16.3 C 0 km/h
1883 07-09-2004 09:59:56 17.1 C 11.21 g/m*3 17.1 C 0 km/h
1884 07-09-2004 10:11:56 17.8 C 11.38 g/m*3 17.8 C 0 km/h
1885 07-09-2004 10:23:55 18.9 C 11.66 g/m*3 18.9 C 0 km/h
1886 07-09-2004 10:35:55 20 C 11.23 g/m*3 20 C 0 km/h
1887 07-09-2004 10:47:55 20.6 C 11.28 g/m*3 20.6 C 0 km/h
1888 07-09-2004 10:59:55 21 C 11.91 g/m*3 21 C 0 km/h
1889 07-09-2004 11:11:55 21.3 C 12.12 g/m*3 21.3 C 0 km/h
1890 07-09-2004 11:23:55 21.4 C 12.19 g/m*3 21.4 C 0 km/h
1891 07-09-2004 11:35:55 21.8 C 11.13 g/m*3 21.8 C 0 km/h
1892 07-09-2004 11:47:55 22.1 C 10.93 g/m*3 22.1 C 0 km/h
1893 07-09-2004 11:59:56 22.7 C 11.11 g/m*3 22.7 C 0 km/h
1894 07-09-2004 12:11:55 23.3 C 11.08 g/m*3 23.3 C 0 km/h
1895 07-09-2004 12:23:55 23.8 C 10.76 g/m*3 23.8 C 0 km/h
1896 07-09-2004 12:35:55 24.2 C 10.34 g/m*3 24.2 C 0 km/h
1897 07-09-2004 12:47:55 24.7 C 10.64 g/m*3 24.7 C 0 km/h
1898 07-09-2004 12:59:55 25 C 10.59 g/m*3 25 C 0 km/h
1899 07-09-2004 13:11:54 25.3 C 10.3 g/m*3 25.3 C 0 km/h
1900 07-09-2004 13:23:54 25.6 C 9.28 g/m*3 25.6 C 0 km/h
Sensor: Nr:Datum:Temp:Abs-Feuchte:Windchill:Wind:
Aussen-T/F 1901 07-09-2004 13:35:55 26.1 C 9.55 g/m*3 26.1 C 0 km/h
1902 07-09-2004 13:47:55 26.6 C 9.82 g/m*3 26.6 C 0 km/h
1903 07-09-2004 13:59:55 26.9 C 9.21 g/m*3 26.9 C 0 km/h
1904 07-09-2004 14:11:55 27.3 C 9.16 g/m*3 27.3 C 0 km/h
1905 07-09-2004 14:23:55 27.7 C 9.36 g/m*3 27.7 C 0 km/h
1906 07-09-2004 14:35:55 28.2 C 8.52 g/m*3 28.2 C 0 km/h
1907 07-09-2004 14:47:55 28.7 C 9.32 g/m*3 28.7 C 0 km/h
1908 07-09-2004 14:59:55 28.9 C 9.14 g/m*3 28.9 C 0 km/h
1909 07-09-2004 15:11:55 29.3 C 9.05 g/m*3 29.3 C 0 km/h
1910 07-09-2004 15:23:55 29.6 C 8.9 g/m*3 29.6 C 0 km/h
1911 07-09-2004 15:35:55 29.9 C 8.75 g/m*3 29.9 C 0 km/h
1912 07-09-2004 15:47:54 30.3 C 8.63 g/m*3 30.3 C 0 km/h
1913 07-09-2004 15:59:54 30.4 C 8.68 g/m*3 30.4 C 0 km/h
1914 07-09-2004 16:11:54 30.4 C 8.37 g/m*3 30.4 C 0 km/h
1915 07-09-2004 16:23:54 30.3 C 8.01 g/m*3 30.3 C 0 km/h
1916 07-09-2004 16:35:54 30.2 C 8.28 g/m*3 30.2 C 0 km/h
1917 07-09-2004 16:47:54 30.4 C 8.37 g/m*3 30.4 C 0 km/h
1918 07-09-2004 16:59:54 30.6 C 8.46 g/m*3 30.6 C 0 km/h
1919 07-09-2004 17:11:54 30.7 C 8.19 g/m*3 30.7 C 0 km/h
1920 07-09-2004 17:23:54 30.7 C 7.87 g/m*3 30.7 C 0 km/h
1921 07-09-2004 17:35:55 30.6 C 7.83 g/m*3 30.6 C 0 km/h
1922 07-09-2004 17:47:55 30.3 C 8.01 g/m*3 30.3 C 0 km/h
1923 07-09-2004 17:59:55 30.4 C 8.37 g/m*3 30.4 C 0 km/h
1924 07-09-2004 18:11:55 30.4 C 8.68 g/m*3 30.4 C 0 km/h
1925 07-09-2004 18:23:55 30.3 C 8.32 g/m*3 30.3 C 0 km/h
Sensor: Nr:Datum:Temp:Abs-Feuchte:Windchill:Wind:
Aussen-T/F 1926 07-09-2004 18:35:54 30.2 C 9.2 g/m*3 30.2 C 0 km/h
1927 07-09-2004 18:47:54 29.8 C 9.6 g/m*3 29.8 C 0 km/h
1928 07-09-2004 18:59:54 29.6 C 9.79 g/m*3 29.6 C 0 km/h
1929 07-09-2004 19:11:54 28.8 C 9.94 g/m*3 28.8 C 0 km/h
1930 07-09-2004 19:23:54 28.1 C 9.57 g/m*3 28.1 C 0 km/h
1931 07-09-2004 19:35:54 26.7 C 9.87 g/m*3 26.7 C 0 km/h
1932 07-09-2004 19:47:54 25.7 C 10.06 g/m*3 25.7 C 0 km/h
1933 07-09-2004 19:59:54 24.7 C 9.96 g/m*3 24.7 C 0 km/h
1934 07-09-2004 20:11:54 24 C 10.44 g/m*3 24 C 0 km/h
1935 07-09-2004 20:23:54 23.4 C 10.72 g/m*3 23.4 C 0 km/h
1936 07-09-2004 20:35:54 22.9 C 11.04 g/m*3 22.9 C 0 km/h
1937 07-09-2004 20:47:54 22.5 C 10.79 g/m*3 22.5 C 0 km/h
1938 07-09-2004 20:59:54 22.1 C 10.93 g/m*3 22.1 C 0 km/h
1939 07-09-2004 21:11:54 21.8 C 11.13 g/m*3 21.8 C 0 km/h
1940 07-09-2004 21:23:53 21.4 C 10.69 g/m*3 21.4 C 0 km/h
1941 07-09-2004 21:35:54 21.1 C 10.87 g/m*3 21.1 C 0 km/h
1942 07-09-2004 21:47:54 20.8 C 10.68 g/m*3 20.8 C 0 km/h
1943 07-09-2004 21:59:54 20.5 C 10.68 g/m*3 20.5 C 0 km/h
1944 07-09-2004 22:11:54 20.3 C 10.73 g/m*3 20.3 C 0 km/h
1945 07-09-2004 22:23:54 20 C 10.71 g/m*3 20 C 0 km/h
1946 07-09-2004 22:35:54 19.6 C 10.8 g/m*3 19.6 C 0 km/h
1947 07-09-2004 22:47:54 19.4 C 11.01 g/m*3 19.4 C 0 km/h
1948 07-09-2004 22:59:54 19.3 C 10.95 g/m*3 19.3 C 0 km/h
1949 07-09-2004 23:11:54 19.3 C 11.11 g/m*3 19.3 C 0 km/h
1950 07-09-2004 23:23:54 18.9 C 10.85 g/m*3 18.9 C 0 km/h
Sensor: Nr:Datum:Temp:Abs-Feuchte:Windchill:Wind:
Aussen-T/F 1951 07-09-2004 23:35:54 18.8 C 11.11 g/m*3 18.8 C 0 km/h
1952 07-09-2004 23:47:54 18.8 C 11.11 g/m*3 18.8 C 0 km/h
1953 07-09-2004 23:59:54 18.6 C 11.14 g/m*3 18.6 C 0 km/h
1954 08-09-2004 00:11:53 18.5 C 11.08 g/m*3 18.5 C 0 km/h
1955 08-09-2004 00:23:54 18.4 C 11.17 g/m*3 18.4 C 0 km/h
1956 08-09-2004 00:35:54 18.2 C 11.04 g/m*3 18.2 C 0 km/h
1957 08-09-2004 00:47:54 18.1 C 10.97 g/m*3 18.1 C 0 km/h
1958 08-09-2004 00:59:54 17.8 C 11.23 g/m*3 17.8 C 0 km/h
1959 08-09-2004 01:11:54 17.7 C 11.16 g/m*3 17.7 C 0 km/h
1960 08-09-2004 01:23:53 17.5 C 11.03 g/m*3 17.5 C 0 km/h
1961 08-09-2004 01:35:53 17.4 C 11.12 g/m*3 17.4 C 0 km/h
1962 08-09-2004 01:47:53 17.2 C 10.98 g/m*3 17.2 C 0 km/h
1963 08-09-2004 01:59:53 17.1 C 11.06 g/m*3 17.1 C 0 km/h
1964 08-09-2004 02:11:53 16.9 C 11.08 g/m*3 16.9 C 0 km/h
1965 08-09-2004 02:23:53 16.9 C 11.22 g/m*3 16.9 C 0 km/h
1966 08-09-2004 02:35:53 16.8 C 11.15 g/m*3 16.8 C 0 km/h
1967 08-09-2004 02:48:55 16.5 C 11.09 g/m*3 16.5 C 0 km/h
1968 08-09-2004 03:00:56 16.4 C 11.03 g/m*3 16.4 C 0 km/h
1969 08-09-2004 03:12:56 16.2 C 11.03 g/m*3 16.2 C 0 km/h
1970 08-09-2004 03:24:56 16 C 11.04 g/m*3 16 C 0 km/h
1971 08-09-2004 03:36:56 15.8 C 11.04 g/m*3 15.8 C 0 km/h
1972 08-09-2004 03:48:56 15.9 C 11.1 g/m*3 15.9 C 0 km/h
1973 08-09-2004 04:00:55 15.5 C 10.97 g/m*3 15.5 C 0 km/h
1974 08-09-2004 04:12:55 15.7 C 10.97 g/m*3 15.7 C 0 km/h
1975 08-09-2004 04:24:55 15.3 C 10.71 g/m*3 15.3 C 0 km/h
Sensor: Nr:Datum:Temp:Abs-Feuchte:Windchill:Wind:
Aussen-T/F 1976 08-09-2004 04:36:55 15.3 C 10.84 g/m*3 15.3 C 0 km/h
1977 08-09-2004 04:48:55 15.2 C 10.77 g/m*3 15.2 C 0 km/h
1978 08-09-2004 05:00:55 15.1 C 10.71 g/m*3 15.1 C 0 km/h
1979 08-09-2004 05:12:55 15.1 C 10.71 g/m*3 15.1 C 0 km/h
1980 08-09-2004 05:24:55 14.9 C 10.71 g/m*3 14.9 C 0 km/h
1981 08-09-2004 05:36:55 14.8 C 10.64 g/m*3 14.8 C 0 km/h
1982 08-09-2004 05:48:55 14.7 C 10.58 g/m*3 14.7 C 0 km/h
1983 08-09-2004 06:00:55 14.7 C 10.7 g/m*3 14.7 C 0 km/h
1984 08-09-2004 06:12:55 14.6 C 10.76 g/m*3 14.6 C 0 km/h
1985 08-09-2004 06:24:55 14.4 C 10.63 g/m*3 14.4 C 0 km/h
1986 08-09-2004 06:36:55 14.3 C 10.57 g/m*3 14.3 C 0 km/h
1987 08-09-2004 06:48:54 14.2 C 10.5 g/m*3 14.2 C 0 km/h
1988 08-09-2004 07:00:55 14.2 C 10.5 g/m*3 14.2 C 0 km/h
1989 08-09-2004 07:12:55 14.1 C 10.44 g/m*3 14.1 C 0 km/h
1990 08-09-2004 07:24:55 14.2 C 10.5 g/m*3 14.2 C 0 km/h
1991 08-09-2004 07:36:55 14 C 10.49 g/m*3 14 C 0 km/h
1992 08-09-2004 07:48:55 14.3 C 10.69 g/m*3 14.3 C 0 km/h
1993 08-09-2004 08:00:55 14.5 C 10.7 g/m*3 14.5 C 0 km/h
1994 08-09-2004 08:12:55 14.7 C 10.83 g/m*3 14.7 C 0 km/h
1995 08-09-2004 08:24:55 14.9 C 10.96 g/m*3 14.9 C 0 km/h
1996 08-09-2004 08:36:55 15 C 10.77 g/m*3 15 C 0 km/h
1997 08-09-2004 08:48:55 15.2 C 10.77 g/m*3 15.2 C 0 km/h
1998 08-09-2004 09:00:55 15.4 C 10.9 g/m*3 15.4 C 0 km/h
1999 08-09-2004 09:12:55 15.8 C 11.17 g/m*3 15.8 C 0 km/h
2000 08-09-2004 09:24:54 16.3 C 11.38 g/m*3 16.3 C 0 km/h
Sensor: Nr:Datum:Temp:Abs-Feuchte:Windchill:Wind:
Aussen-T/F 2001 08-09-2004 09:36:54 16.8 C 11.58 g/m*3 16.8 C 0 km/h
2002 08-09-2004 09:48:54 17.1 C 11.5 g/m*3 17.1 C 0 km/h
2003 08-09-2004 10:00:55 17.6 C 11.7 g/m*3 17.6 C 0 km/h
2004 08-09-2004 10:12:55 18 C 11.52 g/m*3 18 C 0 km/h
2005 08-09-2004 10:24:54 18.3 C 11.73 g/m*3 18.3 C 0 km/h
2006 08-09-2004 10:36:54 18.7 C 11.85 g/m*3 18.7 C 0 km/h
2007 08-09-2004 10:48:54 19.2 C 11.71 g/m*3 19.2 C 0 km/h
2008 08-09-2004 11:00:54 19.5 C 11.41 g/m*3 19.5 C 0 km/h
2009 08-09-2004 11:12:54 20 C 11.41 g/m*3 20 C 0 km/h
2010 08-09-2004 11:24:55 20.5 C 11.39 g/m*3 20.5 C 0 km/h
2011 08-09-2004 11:36:55 20.8 C 11.41 g/m*3 20.8 C 0 km/h
2012 08-09-2004 11:48:55 21.1 C 10.87 g/m*3 21.1 C 0 km/h
2013 08-09-2004 12:00:55 21.5 C 11.13 g/m*3 21.5 C 0 km/h
2014 08-09-2004 12:12:55 21.8 C 11.32 g/m*3 21.8 C 0 km/h
2015 08-09-2004 12:24:55 21.9 C 11.19 g/m*3 21.9 C 0 km/h
2016 08-09-2004 12:36:54 22 C 11.65 g/m*3 22 C 0 km/h
2017 08-09-2004 12:48:54 22.2 C 11.19 g/m*3 22.2 C 0 km/h
2018 08-09-2004 13:00:54 22.5 C 10.99 g/m*3 22.5 C 0 km/h
2019 08-09-2004 13:12:54 22.9 C 11.24 g/m*3 22.9 C 0 km/h
2020 08-09-2004 13:24:54 23.3 C 11.29 g/m*3 23.3 C 0 km/h
2021 08-09-2004 13:36:54 23.7 C 10.27 g/m*3 23.7 C 0 km/h
2022 08-09-2004 13:48:54 24.3 C 10.84 g/m*3 24.3 C 0 km/h
2023 08-09-2004 14:00:54 24.8 C 10.47 g/m*3 24.8 C 0 km/h
2024 08-09-2004 14:12:54 25.2 C 9.08 g/m*3 25.2 C 0 km/h
2025 08-09-2004 14:24:54 25.2 C 8.85 g/m*3 25.2 C 0 km/h
Sensor: Nr:Datum:Temp:Abs-Feuchte:Windchill:Wind:
Aussen-T/F 2026 08-09-2004 14:36:54 25.5 C 8.52 g/m*3 25.5 C 0 km/h
2027 08-09-2004 14:48:54 26.1 C 8.08 g/m*3 26.1 C 0 km/h
2028 08-09-2004 15:00:54 26.5 C 7.76 g/m*3 26.5 C 0 km/h
2029 08-09-2004 15:12:54 27.9 C 8.11 g/m*3 27.9 C 0 km/h
2030 08-09-2004 15:24:54 28.4 C 6.95 g/m*3 28.4 C 0 km/h
2031 08-09-2004 15:36:54 28.6 C 7.59 g/m*3 28.6 C 0 km/h
2032 08-09-2004 15:48:54 28.8 C 6.82 g/m*3 28.8 C 0 km/h
2033 08-09-2004 16:00:54 28.8 C 7.39 g/m*3 28.8 C 0 km/h
2034 08-09-2004 16:12:54 29.2 C 7.84 g/m*3 29.2 C 0 km/h
2035 08-09-2004 16:24:54 29.3 C 7.59 g/m*3 29.3 C 0 km/h
2036 08-09-2004 16:36:54 29 C 7.18 g/m*3 29 C 0 km/h
2037 08-09-2004 16:48:54 28.9 C 7.43 g/m*3 28.9 C 0 km/h
2038 08-09-2004 17:00:54 29.3 C 7.01 g/m*3 29.3 C 0 km/h
2039 08-09-2004 17:12:54 29.4 C 6.75 g/m*3 29.4 C 0 km/h
2040 08-09-2004 17:24:54 29.6 C 6.53 g/m*3 29.6 C 0 km/h
2041 08-09-2004 17:36:54 29.7 C 6.86 g/m*3 29.7 C 0 km/h
2042 08-09-2004 17:48:54 29.8 C 6.9 g/m*3 29.8 C 0 km/h
2043 08-09-2004 18:00:53 29.6 C 7.12 g/m*3 29.6 C 0 km/h
2044 08-09-2004 18:12:53 29 C 7.18 g/m*3 29 C 0 km/h
2045 08-09-2004 18:24:53 28.1 C 6.56 g/m*3 28.1 C 0 km/h
2046 08-09-2004 18:36:53 28.2 C 7.15 g/m*3 28.2 C 0 km/h
2047 08-09-2004 18:48:53 27.8 C 6.99 g/m*3 27.8 C 0 km/h
2048 08-09-2004 19:00:53 27.4 C 7.37 g/m*3 27.4 C 0 km/h
2049 08-09-2004 19:12:53 27 C 7.21 g/m*3 27 C 0 km/h
2050 08-09-2004 19:24:54 25.6 C 6.9 g/m*3 25.6 C 0 km/h
Sensor: Nr:Datum:Temp:Abs-Feuchte:Windchill:Wind:
Aussen-T/F 2051 08-09-2004 19:36:54 24.5 C 7.83 g/m*3 24.5 C 0 km/h
2052 08-09-2004 19:48:54 23.8 C 7.53 g/m*3 23.8 C 0 km/h
2053 08-09-2004 20:00:54 22.8 C 7.92 g/m*3 22.8 C 0 km/h
2054 08-09-2004 20:12:54 22 C 7.76 g/m*3 22 C 0 km/h
2055 08-09-2004 20:24:54 21.2 C 7.97 g/m*3 21.2 C 0 km/h
2056 08-09-2004 20:36:54 20.7 C 8.28 g/m*3 20.7 C 0 km/h
2057 08-09-2004 20:48:53 19.7 C 8.32 g/m*3 19.7 C 0 km/h
2058 08-09-2004 21:00:53 19.5 C 8.22 g/m*3 19.5 C 0 km/h
2059 08-09-2004 21:12:53 19.3 C 8.29 g/m*3 19.3 C 0 km/h
2060 08-09-2004 21:24:53 18.9 C 8.26 g/m*3 18.9 C 0 km/h
2061 08-09-2004 21:36:53 18.5 C 8.23 g/m*3 18.5 C 0 km/h
2062 08-09-2004 21:48:53 18.2 C 8.24 g/m*3 18.2 C 0 km/h
2063 08-09-2004 22:00:53 17.9 C 8.55 g/m*3 17.9 C 0 km/h
2064 08-09-2004 22:12:53 17.8 C 8.65 g/m*3 17.8 C 0 km/h
2065 08-09-2004 22:24:53 17.6 C 8.55 g/m*3 17.6 C 0 km/h
2066 08-09-2004 22:36:53 17.6 C 8.7 g/m*3 17.6 C 0 km/h
2067 08-09-2004 22:48:53 17.3 C 8.25 g/m*3 17.3 C 0 km/h
2068 08-09-2004 23:00:54 17.2 C 8.49 g/m*3 17.2 C 0 km/h
2069 08-09-2004 23:12:54 16.9 C 8.77 g/m*3 16.9 C 0 km/h
2070 08-09-2004 23:24:54 16.5 C 8.71 g/m*3 16.5 C 0 km/h
2071 08-09-2004 23:36:53 16.3 C 8.6 g/m*3 16.3 C 0 km/h
2072 08-09-2004 23:48:53 15.9 C 8.67 g/m*3 15.9 C 0 km/h
2073 09-09-2004 00:00:53 15.7 C 8.7 g/m*3 15.7 C 0 km/h
2074 09-09-2004 00:12:53 15.8 C 8.48 g/m*3 15.8 C 0 km/h
2075 09-09-2004 00:24:53 15.7 C 8.3 g/m*3 15.7 C 0 km/h
Sensor: Nr:Datum:Temp:Abs-Feuchte:Windchill:Wind:
Aussen-T/F 2076 09-09-2004 00:36:53 16.1 C 8.22 g/m*3 16.1 C 0 km/h
2077 09-09-2004 00:48:53 16 C 7.77 g/m*3 16 C 0 km/h
2078 09-09-2004 01:00:53 16 C 7.49 g/m*3 16 C 0 km/h
2079 09-09-2004 01:12:53 15.9 C 7.72 g/m*3 15.9 C 0 km/h
2080 09-09-2004 01:24:53 15.8 C 7.67 g/m*3 15.8 C 0 km/h
2081 09-09-2004 01:36:53 15.7 C 7.89 g/m*3 15.7 C 0 km/h
2082 09-09-2004 01:48:53 15.4 C 7.88 g/m*3 15.4 C 0 km/h
2083 09-09-2004 02:00:53 15.1 C 7.87 g/m*3 15.1 C 0 km/h
2084 09-09-2004 02:12:53 14.8 C 7.98 g/m*3 14.8 C 0 km/h
2085 09-09-2004 02:24:53 14.4 C 7.91 g/m*3 14.4 C 0 km/h
2086 09-09-2004 02:36:53 14.3 C 7.86 g/m*3 14.3 C 0 km/h
2087 09-09-2004 02:49:54 14 C 7.84 g/m*3 14 C 0 km/h
2088 09-09-2004 03:01:54 13.7 C 7.82 g/m*3 13.7 C 0 km/h
2089 09-09-2004 03:13:54 13.6 C 7.89 g/m*3 13.6 C 0 km/h
2090 09-09-2004 03:25:54 13.5 C 7.95 g/m*3 13.5 C 0 km/h
2091 09-09-2004 03:37:54 13.5 C 7.95 g/m*3 13.5 C 0 km/h
2092 09-09-2004 03:49:54 13.4 C 7.9 g/m*3 13.4 C 0 km/h
2093 09-09-2004 04:01:54 13.4 C 7.9 g/m*3 13.4 C 0 km/h
2094 09-09-2004 04:13:54 13.3 C 7.86 g/m*3 13.3 C 0 km/h
2095 09-09-2004 04:25:54 13.1 C 7.87 g/m*3 13.1 C 0 km/h
2096 09-09-2004 04:37:54 13 C 7.83 g/m*3 13 C 0 km/h
2097 09-09-2004 04:49:54 12.7 C 7.9 g/m*3 12.7 C 0 km/h
2098 09-09-2004 05:01:54 12.6 C 7.97 g/m*3 12.6 C 0 km/h
2099 09-09-2004 05:13:54 12.4 C 7.87 g/m*3 12.4 C 0 km/h
2100 09-09-2004 05:25:54 12.1 C 7.72 g/m*3 12.1 C 0 km/h
Sensor: Nr:Datum:Temp:Abs-Feuchte:Windchill:Wind:
Aussen-T/F 2101 09-09-2004 05:37:54 12 C 7.78 g/m*3 12 C 0 km/h
2102 09-09-2004 05:49:54 11.8 C 7.79 g/m*3 11.8 C 0 km/h
2103 09-09-2004 06:01:54 11.8 C 7.89 g/m*3 11.8 C 0 km/h
2104 09-09-2004 06:13:54 11.5 C 7.85 g/m*3 11.5 C 0 km/h
2105 09-09-2004 06:25:54 11.4 C 8.01 g/m*3 11.4 C 0 km/h
2106 09-09-2004 06:37:54 11.2 C 8.01 g/m*3 11.2 C 0 km/h
2107 09-09-2004 06:49:54 11 C 8.01 g/m*3 11 C 0 km/h
2108 09-09-2004 07:01:54 11 C 8.01 g/m*3 11 C 0 km/h
2109 09-09-2004 07:13:55 11 C 8.01 g/m*3 11 C 0 km/h
2110 09-09-2004 07:25:54 11 C 8.11 g/m*3 11 C 0 km/h
2111 09-09-2004 07:37:54 11 C 8.01 g/m*3 11 C 0 km/h
2112 09-09-2004 07:49:54 11 C 8.01 g/m*3 11 C 0 km/h
2113 09-09-2004 08:01:54 11 C 8.01 g/m*3 11 C 0 km/h
2114 09-09-2004 08:13:54 11.1 C 8.06 g/m*3 11.1 C 0 km/h
2115 09-09-2004 08:25:53 11.2 C 8.11 g/m*3 11.2 C 0 km/h
2116 09-09-2004 08:37:53 11.2 C 8.11 g/m*3 11.2 C 0 km/h
2117 09-09-2004 08:49:53 11.4 C 8.21 g/m*3 11.4 C 0 km/h
2118 09-09-2004 09:01:53 11.6 C 8.21 g/m*3 11.6 C 0 km/h
2119 09-09-2004 09:13:53 11.8 C 8.31 g/m*3 11.8 C 0 km/h
2120 09-09-2004 09:25:53 12.1 C 8.26 g/m*3 12.1 C 0 km/h
2121 09-09-2004 09:37:54 12.5 C 8.47 g/m*3 12.5 C 0 km/h
2122 09-09-2004 09:49:54 13.2 C 8.61 g/m*3 13.2 C 0 km/h
2123 09-09-2004 10:01:54 13.8 C 8.7 g/m*3 13.8 C 0 km/h
2124 09-09-2004 10:13:54 14.7 C 8.56 g/m*3 14.7 C 0 km/h
2125 09-09-2004 10:25:54 15.4 C 8.54 g/m*3 15.4 C 0 km/h
Sensor: Nr:Datum:Temp:Abs-Feuchte:Windchill:Wind:
Aussen-T/F 2126 09-09-2004 10:37:54 16.1 C 8.36 g/m*3 16.1 C 0 km/h
2127 09-09-2004 10:49:54 16.8 C 8.29 g/m*3 16.8 C 0 km/h
2128 09-09-2004 11:01:53 17.5 C 8.2 g/m*3 17.5 C 0 km/h
2129 09-09-2004 11:13:53 18 C 8.6 g/m*3 18 C 0 km/h
2130 09-09-2004 11:25:53 18.7 C 8.81 g/m*3 18.7 C 0 km/h
2131 09-09-2004 11:37:53 19.1 C 8.03 g/m*3 19.1 C 0 km/h
2132 09-09-2004 11:49:53 19.7 C 8.15 g/m*3 19.7 C 0 km/h
2133 09-09-2004 12:01:53 20.2 C 7.69 g/m*3 20.2 C 0 km/h
2134 09-09-2004 12:13:53 20.7 C 7.38 g/m*3 20.7 C 0 km/h
2135 09-09-2004 12:25:53 21.2 C 6.67 g/m*3 21.2 C 0 km/h
2136 09-09-2004 12:37:53 21.4 C 6.94 g/m*3 21.4 C 0 km/h
2137 09-09-2004 12:49:53 21.6 C 6.45 g/m*3 21.6 C 0 km/h
2138 09-09-2004 13:01:53 21.9 C 6.37 g/m*3 21.9 C 0 km/h
2139 09-09-2004 13:13:53 22.4 C 6.55 g/m*3 22.4 C 0 km/h
2140 09-09-2004 13:25:53 22.7 C 6.26 g/m*3 22.7 C 0 km/h
2141 09-09-2004 13:37:54 23.1 C 6.41 g/m*3 23.1 C 0 km/h
2142 09-09-2004 13:49:53 23.6 C 6.38 g/m*3 23.6 C 0 km/h
2143 09-09-2004 14:01:53 24 C 5.87 g/m*3 24 C 0 km/h
2144 09-09-2004 14:13:53 24.3 C 6.42 g/m*3 24.3 C 0 km/h
2145 09-09-2004 14:25:53 25 C 5.99 g/m*3 25 C 0 km/h
2146 09-09-2004 14:37:53 25.6 C 6.43 g/m*3 25.6 C 0 km/h
2147 09-09-2004 14:49:53 25.9 C 6.29 g/m*3 25.9 C 0 km/h
2148 09-09-2004 15:01:53 26.6 C 6.29 g/m*3 26.6 C 0 km/h
2149 09-09-2004 15:13:53 27.1 C 6.73 g/m*3 27.1 C 0 km/h
2150 09-09-2004 15:25:53 27.7 C 6.42 g/m*3 27.7 C 0 km/h
Sensor: Nr:Datum:Temp:Abs-Feuchte:Windchill:Wind:
Aussen-T/F 2151 09-09-2004 15:37:53 28.4 C 6.67 g/m*3 28.4 C 0 km/h
2152 09-09-2004 15:49:53 28.5 C 6.43 g/m*3 28.5 C 0 km/h
2153 09-09-2004 16:01:53 28.5 C 6.15 g/m*3 28.5 C 0 km/h
2154 09-09-2004 16:13:53 28.8 C 7.1 g/m*3 28.8 C 0 km/h
2155 09-09-2004 16:25:53 29 C 6.03 g/m*3 29 C 0 km/h
2156 09-09-2004 16:37:52 29.2 C 6.1 g/m*3 29.2 C 0 km/h
2157 09-09-2004 16:49:52 29.4 C 6.16 g/m*3 29.4 C 0 km/h
2158 09-09-2004 17:01:52 29.7 C 6.56 g/m*3 29.7 C 0 km/h
2159 09-09-2004 17:13:52 29.4 C 6.16 g/m*3 29.4 C 0 km/h
2160 09-09-2004 17:25:52 30.1 C 6.4 g/m*3 30.1 C 0 km/h
2161 09-09-2004 17:37:53 29.8 C 6 g/m*3 29.8 C 0 km/h
2162 09-09-2004 17:49:53 29.8 C 6 g/m*3 29.8 C 0 km/h
2163 09-09-2004 18:01:53 30 C 6.06 g/m*3 30 C 0 km/h
2164 09-09-2004 18:13:53 29.3 C 5.84 g/m*3 29.3 C 0 km/h
2165 09-09-2004 18:25:53 28.2 C 5.5 g/m*3 28.2 C 0 km/h
2166 09-09-2004 18:37:53 27.9 C 5.95 g/m*3 27.9 C 0 km/h
2167 09-09-2004 18:49:53 27.9 C 7.3 g/m*3 27.9 C 0 km/h
2168 09-09-2004 19:01:53 27 C 7.46 g/m*3 27 C 0 km/h
2169 09-09-2004 19:13:53 26.3 C 6.93 g/m*3 26.3 C 0 km/h
2170 09-09-2004 19:25:52 25.3 C 7.26 g/m*3 25.3 C 0 km/h
2171 09-09-2004 19:37:52 23.9 C 7.57 g/m*3 23.9 C 0 km/h
2172 09-09-2004 19:49:52 22.2 C 7.66 g/m*3 22.2 C 0 km/h
2173 09-09-2004 20:01:52 20.8 C 7.24 g/m*3 20.8 C 0 km/h
2174 09-09-2004 20:13:52 19.8 C 7.17 g/m*3 19.8 C 0 km/h
2175 09-09-2004 20:25:52 19.3 C 7.13 g/m*3 19.3 C 0 km/h
Sensor: Nr:Datum:Temp:Abs-Feuchte:Windchill:Wind:
Aussen-T/F 2176 09-09-2004 20:37:52 19 C 7.17 g/m*3 19 C 0 km/h
2177 09-09-2004 20:49:52 18.8 C 7.25 g/m*3 18.8 C 0 km/h
2178 09-09-2004 21:01:52 18.6 C 7 g/m*3 18.6 C 0 km/h
2179 09-09-2004 21:13:52 18.4 C 6.76 g/m*3 18.4 C 0 km/h
2180 09-09-2004 21:25:53 18.2 C 6.84 g/m*3 18.2 C 0 km/h
2181 09-09-2004 21:37:53 17.9 C 6.72 g/m*3 17.9 C 0 km/h
2182 09-09-2004 21:49:53 17.6 C 6.75 g/m*3 17.6 C 0 km/h
2183 09-09-2004 22:01:52 17.4 C 6.67 g/m*3 17.4 C 0 km/h
2184 09-09-2004 22:13:52 17.2 C 6.74 g/m*3 17.2 C 0 km/h
2185 09-09-2004 22:25:52 16.9 C 6.76 g/m*3 16.9 C 0 km/h
2186 09-09-2004 22:37:52 16.7 C 6.68 g/m*3 16.7 C 0 km/h
2187 09-09-2004 22:49:52 16.2 C 6.62 g/m*3 16.2 C 0 km/h
2188 09-09-2004 23:01:52 15.9 C 6.77 g/m*3 15.9 C 0 km/h
2189 09-09-2004 23:13:52 15.8 C 6.87 g/m*3 15.8 C 0 km/h
2190 09-09-2004 23:25:52 15.6 C 6.65 g/m*3 15.6 C 0 km/h
2191 09-09-2004 23:37:52 15.3 C 6.66 g/m*3 15.3 C 0 km/h
2192 09-09-2004 23:49:52 15.2 C 6.88 g/m*3 15.2 C 0 km/h
2193 10-09-2004 00:01:52 14.9 C 6.75 g/m*3 14.9 C 0 km/h
2194 10-09-2004 00:13:52 14.6 C 6.63 g/m*3 14.6 C 0 km/h
2195 10-09-2004 00:25:53 14.4 C 6.43 g/m*3 14.4 C 0 km/h
2196 10-09-2004 00:37:52 14.4 C 6.43 g/m*3 14.4 C 0 km/h
2197 10-09-2004 00:49:52 14.2 C 6.35 g/m*3 14.2 C 0 km/h
2198 10-09-2004 01:01:52 14.1 C 6.19 g/m*3 14.1 C 0 km/h
2199 10-09-2004 01:13:52 13.8 C 6.55 g/m*3 13.8 C 0 km/h
2200 10-09-2004 01:25:51 13.6 C 6.47 g/m*3 13.6 C 0 km/h
Sensor: Nr:Datum:Temp:Abs-Feuchte:Windchill:Wind:
Aussen-T/F 2201 10-09-2004 01:37:51 13.2 C 6.43 g/m*3 13.2 C 0 km/h
2202 10-09-2004 01:49:52 13.2 C 6.2 g/m*3 13.2 C 0 km/h
2203 10-09-2004 02:01:52 13 C 6.35 g/m*3 13 C 0 km/h
2204 10-09-2004 02:13:52 12.8 C 6.38 g/m*3 12.8 C 0 km/h
2205 10-09-2004 02:25:52 12.5 C 6.38 g/m*3 12.5 C 0 km/h
2206 10-09-2004 02:37:52 12.3 C 6.3 g/m*3 12.3 C 0 km/h
2207 10-09-2004 02:50:53 12.1 C 6.65 g/m*3 12.1 C 0 km/h
2208 10-09-2004 03:02:53 12.1 C 6.54 g/m*3 12.1 C 0 km/h
2209 10-09-2004 03:14:53 11.7 C 6.38 g/m*3 11.7 C 0 km/h
2210 10-09-2004 03:26:53 11.4 C 6.26 g/m*3 11.4 C 0 km/h
2211 10-09-2004 03:38:53 11.2 C 6.28 g/m*3 11.2 C 0 km/h
2212 10-09-2004 03:50:53 11.2 C 6.39 g/m*3 11.2 C 0 km/h
2213 10-09-2004 04:02:53 11.1 C 6.45 g/m*3 11.1 C 0 km/h
2214 10-09-2004 04:14:53 10.9 C 6.56 g/m*3 10.9 C 0 km/h
2215 10-09-2004 04:26:53 10.7 C 6.68 g/m*3 10.7 C 0 km/h
2216 10-09-2004 04:38:53 10.6 C 6.54 g/m*3 10.6 C 0 km/h
2217 10-09-2004 04:50:53 10.3 C 6.7 g/m*3 10.3 C 0 km/h
2218 10-09-2004 05:02:53 10.2 C 6.76 g/m*3 10.2 C 0 km/h
2219 10-09-2004 05:14:53 10 C 6.86 g/m*3 10 C 0 km/h
2220 10-09-2004 05:26:53 9.7 C 6.82 g/m*3 9.7 C 0 km/h
2221 10-09-2004 05:38:53 9.5 C 6.83 g/m*3 9.5 C 0 km/h
2222 10-09-2004 05:50:53 9.4 C 6.96 g/m*3 9.4 C 0 km/h
2223 10-09-2004 06:02:53 9.2 C 6.61 g/m*3 9.2 C 0 km/h
2224 10-09-2004 06:14:53 9.1 C 6.92 g/m*3 9.1 C 0 km/h
2225 10-09-2004 06:26:53 8.9 C 7.1 g/m*3 8.9 C 0 km/h
Sensor: Nr:Datum:Temp:Abs-Feuchte:Windchill:Wind:
Aussen-T/F 2226 10-09-2004 06:38:53 8.9 C 6.83 g/m*3 8.9 C 0 km/h
2227 10-09-2004 06:50:53 8.8 C 6.61 g/m*3 8.8 C 0 km/h
2228 10-09-2004 07:02:52 8.7 C 7.01 g/m*3 8.7 C 0 km/h
2229 10-09-2004 07:14:53 8.6 C 6.79 g/m*3 8.6 C 0 km/h
2230 10-09-2004 07:26:53 8.6 C 6.7 g/m*3 8.6 C 0 km/h
2231 10-09-2004 07:38:53 8.9 C 6.83 g/m*3 8.9 C 0 km/h
2232 10-09-2004 07:50:53 8.7 C 6.66 g/m*3 8.7 C 0 km/h
2233 10-09-2004 08:02:53 8.8 C 6.79 g/m*3 8.8 C 0 km/h
2234 10-09-2004 08:14:53 8.8 C 6.88 g/m*3 8.8 C 0 km/h
2235 10-09-2004 08:26:53 9 C 6.96 g/m*3 9 C 0 km/h
2236 10-09-2004 08:38:53 9.3 C 7.01 g/m*3 9.3 C 0 km/h
2237 10-09-2004 08:50:53 9.5 C 7.1 g/m*3 9.5 C 0 km/h
2238 10-09-2004 09:02:53 9.9 C 7.19 g/m*3 9.9 C 0 km/h
2239 10-09-2004 09:14:52 10.2 C 7.23 g/m*3 10.2 C 0 km/h
2240 10-09-2004 09:26:52 10.6 C 7.32 g/m*3 10.6 C 0 km/h
2241 10-09-2004 09:38:52 11.3 C 7.34 g/m*3 11.3 C 0 km/h
2242 10-09-2004 09:50:52 12 C 7.35 g/m*3 12 C 0 km/h
2243 10-09-2004 10:02:52 12.9 C 7.44 g/m*3 12.9 C 0 km/h
2244 10-09-2004 10:14:52 13.6 C 7.65 g/m*3 13.6 C 0 km/h
2245 10-09-2004 10:26:52 14.1 C 7.52 g/m*3 14.1 C 0 km/h
2246 10-09-2004 10:38:52 15 C 7.69 g/m*3 15 C 0 km/h
2247 10-09-2004 10:50:52 16.2 C 7.03 g/m*3 16.2 C 0 km/h
2248 10-09-2004 11:02:52 17 C 6.51 g/m*3 17 C 0 km/h
2249 10-09-2004 11:14:52 17.8 C 6.68 g/m*3 17.8 C 0 km/h
2250 10-09-2004 11:26:52 18.3 C 6.1 g/m*3 18.3 C 0 km/h
Sensor: Nr:Datum:Temp:Abs-Feuchte:Windchill:Wind:
Aussen-T/F 2251 10-09-2004 11:38:53 19 C 6.52 g/m*3 19 C 0 km/h
2252 10-09-2004 11:50:53 19.5 C 6.55 g/m*3 19.5 C 0 km/h
2253 10-09-2004 12:02:53 20.2 C 6.29 g/m*3 20.2 C 0 km/h
2254 10-09-2004 12:14:52 20.6 C 6.44 g/m*3 20.6 C 0 km/h
2255 10-09-2004 12:26:52 21 C 6.41 g/m*3 21 C 0 km/h
2256 10-09-2004 12:38:52 21.6 C 6.64 g/m*3 21.6 C 0 km/h
2257 10-09-2004 12:50:52 21.8 C 6.72 g/m*3 21.8 C 0 km/h
2258 10-09-2004 13:02:52 22.2 C 6.87 g/m*3 22.2 C 0 km/h
2259 10-09-2004 13:14:52 22.7 C 7.27 g/m*3 22.7 C 0 km/h
2260 10-09-2004 13:26:52 23.2 C 6.65 g/m*3 23.2 C 0 km/h
2261 10-09-2004 13:38:52 23.6 C 6.81 g/m*3 23.6 C 0 km/h
2262 10-09-2004 13:50:52 24.3 C 6.86 g/m*3 24.3 C 0 km/h
2263 10-09-2004 14:02:52 24.5 C 6.71 g/m*3 24.5 C 0 km/h
2264 10-09-2004 14:14:52 25 C 6.91 g/m*3 25 C 0 km/h
2265 10-09-2004 14:26:52 24.9 C 6.87 g/m*3 24.9 C 0 km/h
2266 10-09-2004 14:38:52 25.3 C 7.02 g/m*3 25.3 C 0 km/h
2267 10-09-2004 14:50:52 25.7 C 6.7 g/m*3 25.7 C 0 km/h
2268 10-09-2004 15:02:52 26.4 C 7.47 g/m*3 26.4 C 0 km/h
2269 10-09-2004 15:14:52 27.2 C 7.81 g/m*3 27.2 C 0 km/h
2270 10-09-2004 15:26:52 27.2 C 7.29 g/m*3 27.2 C 0 km/h
2271 10-09-2004 15:38:52 26.1 C 8.32 g/m*3 26.1 C 0 km/h
2272 10-09-2004 15:50:52 27 C 7.98 g/m*3 27 C 0 km/h
2273 10-09-2004 16:02:52 28.5 C 8.38 g/m*3 28.5 C 0 km/h
2274 10-09-2004 16:14:52 29.2 C 7.84 g/m*3 29.2 C 0 km/h
2275 10-09-2004 16:26:52 29.5 C 7.67 g/m*3 29.5 C 0 km/h
Sensor: Nr:Datum:Temp:Abs-Feuchte:Windchill:Wind:
Aussen-T/F 2276 10-09-2004 16:38:52 29.9 C 8.14 g/m*3 29.9 C 0 km/h
2277 10-09-2004 16:50:52 29.3 C 7.88 g/m*3 29.3 C 0 km/h
2278 10-09-2004 17:02:52 28.8 C 7.96 g/m*3 28.8 C 0 km/h
2279 10-09-2004 17:14:52 28.8 C 8.81 g/m*3 28.8 C 0 km/h
2280 10-09-2004 17:26:52 30.1 C 8.54 g/m*3 30.1 C 0 km/h
2281 10-09-2004 17:38:52 29.8 C 9.6 g/m*3 29.8 C 0 km/h
2282 10-09-2004 17:50:51 29.8 C 9.9 g/m*3 29.8 C 0 km/h
2283 10-09-2004 18:02:51 28.1 C 9.84 g/m*3 28.1 C 0 km/h
2284 10-09-2004 18:14:51 26.2 C 10.09 g/m*3 26.2 C 0 km/h
2285 10-09-2004 18:26:51 25.8 C 10.11 g/m*3 25.8 C 0 km/h
2286 10-09-2004 18:38:51 27.1 C 10.09 g/m*3 27.1 C 0 km/h
2287 10-09-2004 18:50:51 27.3 C 10.47 g/m*3 27.3 C 0 km/h
2288 10-09-2004 19:02:52 26.7 C 10.12 g/m*3 26.7 C 0 km/h
2289 10-09-2004 19:14:52 25.6 C 10.48 g/m*3 25.6 C 0 km/h
2290 10-09-2004 19:26:52 24.5 C 10.74 g/m*3 24.5 C 0 km/h
2291 10-09-2004 19:38:52 23.3 C 10.45 g/m*3 23.3 C 0 km/h
2292 10-09-2004 19:50:52 22.6 C 10.45 g/m*3 22.6 C 0 km/h
2293 10-09-2004 20:02:52 22.2 C 10.41 g/m*3 22.2 C 0 km/h
2294 10-09-2004 20:14:51 21.8 C 10.36 g/m*3 21.8 C 0 km/h
2295 10-09-2004 20:26:51 21.7 C 10.3 g/m*3 21.7 C 0 km/h
2296 10-09-2004 20:38:51 21.6 C 10.24 g/m*3 21.6 C 0 km/h
2297 10-09-2004 20:50:51 21.6 C 10.24 g/m*3 21.6 C 0 km/h
2298 10-09-2004 21:02:51 21.3 C 10.07 g/m*3 21.3 C 0 km/h
2299 10-09-2004 21:14:51 20.9 C 10.2 g/m*3 20.9 C 0 km/h
2300 10-09-2004 21:26:51 20.8 C 10.5 g/m*3 20.8 C 0 km/h
Sensor: Nr:Datum:Temp:Abs-Feuchte:Windchill:Wind:
Aussen-T/F 2301 10-09-2004 21:38:51 20.5 C 10.5 g/m*3 20.5 C 0 km/h
2302 10-09-2004 21:50:51 20.3 C 10.55 g/m*3 20.3 C 0 km/h
2303 10-09-2004 22:02:51 20.3 C 10.73 g/m*3 20.3 C 0 km/h
2304 10-09-2004 22:14:51 20.4 C 10.97 g/m*3 20.4 C 0 km/h
2305 10-09-2004 22:26:51 20.3 C 10.9 g/m*3 20.3 C 0 km/h
2306 10-09-2004 22:38:51 20.2 C 11.02 g/m*3 20.2 C 0 km/h
2307 10-09-2004 22:50:51 20.3 C 11.08 g/m*3 20.3 C 0 km/h
2308 10-09-2004 23:02:50 20 C 11.06 g/m*3 20 C 0 km/h
2309 10-09-2004 23:14:51 19.7 C 11.21 g/m*3 19.7 C 0 km/h
2310 10-09-2004 23:26:51 19.6 C 11.48 g/m*3 19.6 C 0 km/h
2311 10-09-2004 23:38:51 19.4 C 11.51 g/m*3 19.4 C 0 km/h
2312 10-09-2004 23:50:51 19.3 C 11.61 g/m*3 19.3 C 0 km/h
2313 11-09-2004 00:02:51 19.2 C 11.54 g/m*3 19.2 C 0 km/h
2314 11-09-2004 00:14:53 19.1 C 11.47 g/m*3 19.1 C 0 km/h
2315 11-09-2004 00:26:54 19.1 C 11.8 g/m*3 19.1 C 0 km/h
2316 11-09-2004 00:38:51 19.2 C 11.71 g/m*3 19.2 C 0 km/h
2317 11-09-2004 00:50:51 19.1 C 11.64 g/m*3 19.1 C 0 km/h
2318 11-09-2004 01:02:51 18.9 C 11.66 g/m*3 18.9 C 0 km/h
2319 11-09-2004 01:14:50 18.9 C 11.83 g/m*3 18.9 C 0 km/h
2320 11-09-2004 01:26:50 18.8 C 11.76 g/m*3 18.8 C 0 km/h
2321 11-09-2004 01:38:50 18.5 C 11.71 g/m*3 18.5 C 0 km/h
2322 11-09-2004 01:50:50 18.7 C 11.85 g/m*3 18.7 C 0 km/h
2323 11-09-2004 02:02:51 18.8 C 11.92 g/m*3 18.8 C 0 km/h
2324 11-09-2004 02:14:51 18.9 C 11.99 g/m*3 18.9 C 0 km/h
2325 11-09-2004 02:26:51 18.8 C 11.92 g/m*3 18.8 C 0 km/h
Sensor: Nr:Datum:Temp:Abs-Feuchte:Windchill:Wind:
Aussen-T/F 2326 11-09-2004 02:38:51 18.5 C 12.02 g/m*3 18.5 C 0 km/h
2327 11-09-2004 02:51:52 18.4 C 13.21 g/m*3 18.4 C 0 km/h
2328 11-09-2004 03:03:52 18.4 C 13.53 g/m*3 18.4 C 0 km/h
2329 11-09-2004 03:15:52 18.1 C 13.75 g/m*3 18.1 C 0 km/h
2330 11-09-2004 03:27:52 18 C 13.82 g/m*3 18 C 0 km/h
2331 11-09-2004 03:39:52 17.9 C 14.05 g/m*3 17.9 C 0 km/h
2332 11-09-2004 03:51:52 17.9 C 14.05 g/m*3 17.9 C 0 km/h
2333 11-09-2004 04:03:52 17.9 C 13.89 g/m*3 17.9 C 0 km/h
2334 11-09-2004 04:15:52 17.9 C 13.89 g/m*3 17.9 C 0 km/h
2335 11-09-2004 04:27:52 17.8 C 13.96 g/m*3 17.8 C 0 km/h
2336 11-09-2004 04:39:52 17.5 C 13.72 g/m*3 17.5 C 0 km/h
2337 11-09-2004 04:51:52 17.3 C 13.55 g/m*3 17.3 C 0 km/h
2338 11-09-2004 05:03:52 17.2 C 13.47 g/m*3 17.2 C 0 km/h
2339 11-09-2004 05:15:52 17.1 C 13.39 g/m*3 17.1 C 0 km/h
2340 11-09-2004 05:27:52 17.2 C 13.62 g/m*3 17.2 C 0 km/h
2341 11-09-2004 05:39:52 16.9 C 13.38 g/m*3 16.9 C 0 km/h
2342 11-09-2004 05:51:52 16.8 C 13.3 g/m*3 16.8 C 0 km/h
2343 11-09-2004 06:03:52 16.9 C 13.52 g/m*3 16.9 C 0 km/h
2344 11-09-2004 06:15:52 16.9 C 13.52 g/m*3 16.9 C 0 km/h
2345 11-09-2004 06:27:52 16.8 C 13.44 g/m*3 16.8 C 0 km/h
2346 11-09-2004 06:39:52 16.8 C 13.44 g/m*3 16.8 C 0 km/h
2347 11-09-2004 06:51:51 16.7 C 13.36 g/m*3 16.7 C 0 km/h
2348 11-09-2004 07:03:51 16.6 C 13.28 g/m*3 16.6 C 0 km/h
2349 11-09-2004 07:15:51 16.9 C 13.52 g/m*3 16.9 C 0 km/h
2350 11-09-2004 07:27:51 17 C 13.6 g/m*3 17 C 0 km/h
Sensor: Nr:Datum:Temp:Abs-Feuchte:Windchill:Wind:
Aussen-T/F 2351 11-09-2004 07:39:51 17.1 C 13.68 g/m*3 17.1 C 0 km/h
2352 11-09-2004 07:51:52 17.1 C 13.54 g/m*3 17.1 C 0 km/h
2353 11-09-2004 08:03:52 17.1 C 13.54 g/m*3 17.1 C 0 km/h
2354 11-09-2004 08:15:01 17.5 C 13.72 g/m*3 17.5 C 0 km/h
2355 11-09-2004 08:27:01 17.9 C 13.89 g/m*3 17.9 C 0 km/h
2356 11-09-2004 08:39:01 18.7 C 13.61 g/m*3 18.7 C 0 km/h
2357 11-09-2004 08:51:01 18.9 C 13.45 g/m*3 18.9 C 0 km/h
2358 11-09-2004 09:03:01 19.1 C 13.28 g/m*3 19.1 C 0 km/h
2359 11-09-2004 09:15:01 19.1 C 13.28 g/m*3 19.1 C 0 km/h
2360 11-09-2004 09:27:01 19.4 C 13.51 g/m*3 19.4 C 0 km/h
2361 11-09-2004 09:39:01 19.5 C 13.43 g/m*3 19.5 C 0 km/h
2362 11-09-2004 09:51:01 19.9 C 13.57 g/m*3 19.9 C 0 km/h
2363 11-09-2004 10:03:00 20.3 C 13.72 g/m*3 20.3 C 0 km/h
2364 11-09-2004 10:15:00 20.4 C 13.44 g/m*3 20.4 C 0 km/h
2365 11-09-2004 10:27:00 20.4 C 13.27 g/m*3 20.4 C 0 km/h
2366 11-09-2004 10:39:00 20.7 C 13.14 g/m*3 20.7 C 0 km/h
2367 11-09-2004 10:51:00 20.5 C 13.17 g/m*3 20.5 C 0 km/h
2368 11-09-2004 11:03:00 20.8 C 13.04 g/m*3 20.8 C 0 km/h
2369 11-09-2004 11:15:00 21.1 C 12.9 g/m*3 21.1 C 0 km/h
2370 11-09-2004 11:27:00 21.5 C 12.82 g/m*3 21.5 C 0 km/h
2371 11-09-2004 11:39:00 21.8 C 12.85 g/m*3 21.8 C 0 km/h
2372 11-09-2004 11:51:00 21.9 C 12.54 g/m*3 21.9 C 0 km/h
2373 11-09-2004 12:03:00 22.2 C 12.57 g/m*3 22.2 C 0 km/h
2374 11-09-2004 12:15:00 22.5 C 12.38 g/m*3 22.5 C 0 km/h
2375 11-09-2004 12:27:00 22.8 C 12.6 g/m*3 22.8 C 0 km/h
Sensor: Nr:Datum:Temp:Abs-Feuchte:Windchill:Wind:
Aussen-T/F 2376 11-09-2004 12:39:01 23.1 C 12.2 g/m*3 23.1 C 0 km/h
2377 11-09-2004 12:51:00 23.4 C 11.99 g/m*3 23.4 C 0 km/h
2378 11-09-2004 13:03:00 23.3 C 11.5 g/m*3 23.3 C 0 km/h
2379 11-09-2004 13:15:00 23.5 C 11.63 g/m*3 23.5 C 0 km/h
2380 11-09-2004 13:27:00 23.3 C 11.29 g/m*3 23.3 C 0 km/h
2381 11-09-2004 13:39:00 23.7 C 11.34 g/m*3 23.7 C 0 km/h
2382 11-09-2004 13:51:00 24.1 C 11.16 g/m*3 24.1 C 0 km/h
2383 11-09-2004 14:03:00 24.2 C 11.22 g/m*3 24.2 C 0 km/h
2384 11-09-2004 14:15:00 24.5 C 11.19 g/m*3 24.5 C 0 km/h
2385 11-09-2004 14:27:00 24.8 C 10.47 g/m*3 24.8 C 0 km/h
2386 11-09-2004 14:39:00 25.2 C 10.71 g/m*3 25.2 C 0 km/h
2387 11-09-2004 14:51:00 25.2 C 10.71 g/m*3 25.2 C 0 km/h
2388 11-09-2004 15:03:00 24.5 C 10.74 g/m*3 24.5 C 0 km/h
2389 11-09-2004 15:15:59 24.4 C 10.68 g/m*3 24.4 C 0 km/h
2390 11-09-2004 15:27:59 24.8 C 10.7 g/m*3 24.8 C 0 km/h
2391 11-09-2004 15:39:59 24.3 C 10.62 g/m*3 24.3 C 0 km/h
2392 11-09-2004 15:50:59 24.6 C 11.03 g/m*3 24.6 C 0 km/h
2393 11-09-2004 16:03:00 24.1 C 10.72 g/m*3 24.1 C 0 km/h
2394 11-09-2004 16:15:00 24.3 C 10.62 g/m*3 24.3 C 0 km/h
2395 11-09-2004 16:27:00 24.7 C 10.86 g/m*3 24.7 C 0 km/h
2396 11-09-2004 16:39:00 24.6 C 10.35 g/m*3 24.6 C 0 km/h
2397 11-09-2004 16:51:00 24.6 C 10.13 g/m*3 24.6 C 0 km/h
2398 11-09-2004 17:03:00 24.7 C 10.19 g/m*3 24.7 C 0 km/h
2399 11-09-2004 17:15:00 24.1 C 10.06 g/m*3 24.1 C 0 km/h
2400 11-09-2004 17:27:00 24.1 C 10.06 g/m*3 24.1 C 0 km/h
Sensor: Nr:Datum:Temp:Abs-Feuchte:Windchill:Wind:
Aussen-T/F 2401 11-09-2004 17:39:00 23.9 C 9.95 g/m*3 23.9 C 0 km/h
2402 11-09-2004 17:51:59 23.7 C 10.05 g/m*3 23.7 C 0 km/h
2403 11-09-2004 18:03:59 23.5 C 10.15 g/m*3 23.5 C 0 km/h
2404 11-09-2004 18:15:59 23.8 C 10.33 g/m*3 23.8 C 0 km/h
2405 11-09-2004 18:27:59 23.6 C 10.21 g/m*3 23.6 C 0 km/h
2406 11-09-2004 18:39:00 23.8 C 9.9 g/m*3 23.8 C 0 km/h
2407 11-09-2004 18:51:59 23.9 C 10.17 g/m*3 23.9 C 0 km/h
2408 11-09-2004 19:03:59 23.7 C 10.05 g/m*3 23.7 C 0 km/h
2409 11-09-2004 19:15:00 23.2 C 11.02 g/m*3 23.2 C 0 km/h
2410 11-09-2004 19:27:00 22.3 C 11.26 g/m*3 22.3 C 0 km/h
2411 11-09-2004 19:39:01 21.7 C 11.64 g/m*3 21.7 C 0 km/h
2412 11-09-2004 19:51:00 21.3 C 11.74 g/m*3 21.3 C 0 km/h
2413 11-09-2004 20:03:00 20.9 C 11.29 g/m*3 20.9 C 0 km/h
2414 11-09-2004 20:15:00 20.7 C 11.34 g/m*3 20.7 C 0 km/h
2415 11-09-2004 20:27:00 20.4 C 10.97 g/m*3 20.4 C 0 km/h
2416 11-09-2004 20:39:00 20.5 C 10.85 g/m*3 20.5 C 0 km/h
2417 11-09-2004 20:51:00 20.5 C 10.85 g/m*3 20.5 C 0 km/h
2418 11-09-2004 21:03:01 20.3 C 10.9 g/m*3 20.3 C 0 km/h
2419 11-09-2004 21:15:00 20.1 C 10.95 g/m*3 20.1 C 0 km/h
2420 11-09-2004 21:27:00 20.1 C 10.95 g/m*3 20.1 C 0 km/h
2421 11-09-2004 21:39:59 20.1 C 10.95 g/m*3 20.1 C 0 km/h
2422 11-09-2004 21:51:59 20.3 C 10.9 g/m*3 20.3 C 0 km/h
2423 11-09-2004 22:03:59 20.4 C 11.14 g/m*3 20.4 C 0 km/h
2424 11-09-2004 22:15:59 20 C 11.23 g/m*3 20 C 0 km/h
2425 11-09-2004 22:27:59 19.8 C 11.44 g/m*3 19.8 C 0 km/h
Sensor: Nr:Datum:Temp:Abs-Feuchte:Windchill:Wind:
Aussen-T/F 2426 11-09-2004 22:39:59 19.7 C 11.38 g/m*3 19.7 C 0 km/h
2427 11-09-2004 22:51:59 19.8 C 11.44 g/m*3 19.8 C 0 km/h
2428 11-09-2004 23:03:59 19.7 C 11.55 g/m*3 19.7 C 0 km/h
2429 11-09-2004 23:15:59 19.6 C 11.65 g/m*3 19.6 C 0 km/h
2430 11-09-2004 23:27:59 19.5 C 11.58 g/m*3 19.5 C 0 km/h
2431 11-09-2004 23:39:59 19.5 C 11.75 g/m*3 19.5 C 0 km/h
2432 11-09-2004 23:51:59 19.5 C 11.58 g/m*3 19.5 C 0 km/h
2433 12-09-2004 00:03:59 19.8 C 11.44 g/m*3 19.8 C 0 km/h
2434 12-09-2004 00:15:59 20.2 C 10.84 g/m*3 20.2 C 0 km/h
2435 12-09-2004 00:27:59 20.1 C 11.13 g/m*3 20.1 C 0 km/h
2436 12-09-2004 00:39:59 20 C 11.06 g/m*3 20 C 0 km/h
2437 12-09-2004 00:51:59 19.8 C 11.27 g/m*3 19.8 C 0 km/h
2438 12-09-2004 01:03:59 19.7 C 11.55 g/m*3 19.7 C 0 km/h
2439 12-09-2004 01:15:59 19.2 C 11.87 g/m*3 19.2 C 0 km/h
2440 12-09-2004 01:28:00 19 C 11.9 g/m*3 19 C 0 km/h
2441 12-09-2004 01:39:59 18.9 C 11.99 g/m*3 18.9 C 0 km/h
2442 12-09-2004 01:51:59 18.9 C 11.99 g/m*3 18.9 C 0 km/h
2443 12-09-2004 02:03:59 18.8 C 11.92 g/m*3 18.8 C 0 km/h
2444 12-09-2004 02:15:58 18.8 C 11.92 g/m*3 18.8 C 0 km/h
2445 12-09-2004 02:27:58 18.8 C 12.08 g/m*3 18.8 C 0 km/h
2446 12-09-2004 02:39:58 18.7 C 11.85 g/m*3 18.7 C 0 km/h
2447 12-09-2004 02:52:00 18.9 C 11.99 g/m*3 18.9 C 0 km/h
2448 12-09-2004 03:04:00 18.9 C 11.83 g/m*3 18.9 C 0 km/h
2449 12-09-2004 03:16:00 18.2 C 12.12 g/m*3 18.2 C 0 km/h
2450 12-09-2004 03:28:00 17.9 C 12.52 g/m*3 17.9 C 0 km/h
Sensor: Nr:Datum:Temp:Abs-Feuchte:Windchill:Wind:
Aussen-T/F 2451 12-09-2004 03:40:00 17.9 C 12.37 g/m*3 17.9 C 0 km/h
2452 12-09-2004 03:52:01 17.3 C 12.37 g/m*3 17.3 C 0 km/h
2453 12-09-2004 04:04:00 16.9 C 12.51 g/m*3 16.9 C 0 km/h
2454 12-09-2004 04:16:00 16.8 C 12.44 g/m*3 16.8 C 0 km/h
2455 12-09-2004 04:28:00 17 C 12.44 g/m*3 17 C 0 km/h
2456 12-09-2004 04:40:00 17 C 12.59 g/m*3 17 C 0 km/h
2457 12-09-2004 04:52:59 17 C 12.44 g/m*3 17 C 0 km/h
2458 12-09-2004 05:04:59 16.9 C 11.79 g/m*3 16.9 C 0 km/h
2459 12-09-2004 05:15:59 16.6 C 11.16 g/m*3 16.6 C 0 km/h
2460 12-09-2004 05:27:59 16 C 10.49 g/m*3 16 C 0 km/h
2461 12-09-2004 05:40:00 15.9 C 10.83 g/m*3 15.9 C 0 km/h
2462 12-09-2004 05:52:00 15.6 C 10.51 g/m*3 15.6 C 0 km/h
2463 12-09-2004 06:04:00 15.2 C 10.38 g/m*3 15.2 C 0 km/h
2464 12-09-2004 06:16:00 14.8 C 10.39 g/m*3 14.8 C 0 km/h
2465 12-09-2004 06:28:01 14.6 C 10.39 g/m*3 14.6 C 0 km/h
2466 12-09-2004 06:40:00 14.5 C 10.45 g/m*3 14.5 C 0 km/h
2467 12-09-2004 06:52:00 14.3 C 10.44 g/m*3 14.3 C 0 km/h
2468 12-09-2004 07:04:00 14.1 C 10.44 g/m*3 14.1 C 0 km/h
2469 12-09-2004 07:16:59 13.9 C 10.55 g/m*3 13.9 C 0 km/h
2470 12-09-2004 07:28:59 14 C 10.61 g/m*3 14 C 0 km/h
2471 12-09-2004 07:40:59 14 C 10.61 g/m*3 14 C 0 km/h
2472 12-09-2004 07:52:59 14.1 C 10.68 g/m*3 14.1 C 0 km/h
2473 12-09-2004 08:04:59 14.1 C 10.56 g/m*3 14.1 C 0 km/h
2474 12-09-2004 08:16:00 14.2 C 10.5 g/m*3 14.2 C 0 km/h
2475 12-09-2004 08:28:00 14.3 C 10.32 g/m*3 14.3 C 0 km/h
Sensor: Nr:Datum:Temp:Abs-Feuchte:Windchill:Wind:
Aussen-T/F 2476 12-09-2004 08:40:59 14.7 C 10.58 g/m*3 14.7 C 0 km/h
2477 12-09-2004 08:51:59 14.7 C 10.45 g/m*3 14.7 C 0 km/h
2478 12-09-2004 09:04:00 14.8 C 10.26 g/m*3 14.8 C 0 km/h
2479 12-09-2004 09:16:00 15.4 C 9.99 g/m*3 15.4 C 0 km/h
2480 12-09-2004 09:28:00 15.7 C 9.9 g/m*3 15.7 C 0 km/h
2481 12-09-2004 09:40:00 15.8 C 9.69 g/m*3 15.8 C 0 km/h
2482 12-09-2004 09:52:00 15.5 C 9.78 g/m*3 15.5 C 0 km/h
2483 12-09-2004 10:04:59 15.6 C 9.71 g/m*3 15.6 C 0 km/h
2484 12-09-2004 10:16:59 16.3 C 9.71 g/m*3 16.3 C 0 km/h
2485 12-09-2004 10:28:59 16.6 C 8.05 g/m*3 16.6 C 0 km/h
2486 12-09-2004 10:40:59 16.5 C 7.3 g/m*3 16.5 C 0 km/h
2487 12-09-2004 10:52:59 16 C 7.36 g/m*3 16 C 0 km/h
2488 12-09-2004 11:04:59 16.8 C 7.72 g/m*3 16.8 C 0 km/h
2489 12-09-2004 11:16:01 16.5 C 7.16 g/m*3 16.5 C 0 km/h
2490 12-09-2004 11:28:01 17.2 C 6.88 g/m*3 17.2 C 0 km/h
2491 12-09-2004 11:40:01 16.8 C 7.01 g/m*3 16.8 C 0 km/h
2492 12-09-2004 11:52:01 18 C 7.07 g/m*3 18 C 0 km/h
2493 12-09-2004 12:04:01 17.9 C 6.87 g/m*3 17.9 C 0 km/h
2494 12-09-2004 12:16:01 17.4 C 6.82 g/m*3 17.4 C 0 km/h
2495 12-09-2004 12:28:01 17.7 C 6.94 g/m*3 17.7 C 0 km/h
2496 12-09-2004 12:40:00 18 C 6.76 g/m*3 18 C 0 km/h
2497 12-09-2004 12:52:00 18.3 C 6.41 g/m*3 18.3 C 0 km/h
2498 12-09-2004 13:04:00 17.9 C 6.57 g/m*3 17.9 C 0 km/h
2499 12-09-2004 13:16:00 18.3 C 6.88 g/m*3 18.3 C 0 km/h
2500 12-09-2004 13:28:00 18.7 C 6.56 g/m*3 18.7 C 0 km/h
Sensor: Nr:Datum:Temp:Abs-Feuchte:Windchill:Wind:
Aussen-T/F 2501 12-09-2004 13:40:00 18.9 C 6.8 g/m*3 18.9 C 0 km/h
2502 12-09-2004 13:52:00 18.9 C 6.64 g/m*3 18.9 C 0 km/h
2503 12-09-2004 14:04:01 18.4 C 6.61 g/m*3 18.4 C 0 km/h
2504 12-09-2004 14:16:01 19.2 C 6.27 g/m*3 19.2 C 0 km/h
2505 12-09-2004 14:28:01 19 C 6.03 g/m*3 19 C 0 km/h
2506 12-09-2004 14:40:01 20.4 C 6.19 g/m*3 20.4 C 0 km/h
2507 12-09-2004 14:52:00 21 C 5.86 g/m*3 21 C 0 km/h
2508 12-09-2004 15:04:00 21.2 C 6.12 g/m*3 21.2 C 0 km/h
2509 12-09-2004 15:16:00 20.8 C 6.16 g/m*3 20.8 C 0 km/h
2510 12-09-2004 15:28:00 20.5 C 6.23 g/m*3 20.5 C 0 km/h
2511 12-09-2004 15:40:01 20.7 C 5.58 g/m*3 20.7 C 0 km/h
2512 12-09-2004 15:52:01 19.7 C 6.11 g/m*3 19.7 C 0 km/h
2513 12-09-2004 16:04:01 19.7 C 6.11 g/m*3 19.7 C 0 km/h
2514 12-09-2004 16:16:01 19.4 C 6.17 g/m*3 19.4 C 0 km/h
2515 12-09-2004 16:28:01 18.8 C 6.44 g/m*3 18.8 C 0 km/h
2516 12-09-2004 16:40:00 18.2 C 6.37 g/m*3 18.2 C 0 km/h
2517 12-09-2004 16:52:00 18 C 6.45 g/m*3 18 C 0 km/h
2518 12-09-2004 17:04:00 18.9 C 7.13 g/m*3 18.9 C 0 km/h
2519 12-09-2004 17:16:00 19.8 C 6.49 g/m*3 19.8 C 0 km/h
2520 12-09-2004 17:28:00 20 C 6.57 g/m*3 20 C 0 km/h
2521 12-09-2004 17:40:00 19.7 C 6.45 g/m*3 19.7 C 0 km/h
2522 12-09-2004 17:52:00 19.9 C 6.7 g/m*3 19.9 C 0 km/h
2523 12-09-2004 18:04:00 19.1 C 6.72 g/m*3 19.1 C 0 km/h
2524 12-09-2004 18:16:00 18.7 C 6.56 g/m*3 18.7 C 0 km/h
2525 12-09-2004 18:28:00 18.4 C 6.76 g/m*3 18.4 C 0 km/h
Sensor: Nr:Datum:Temp:Abs-Feuchte:Windchill:Wind:
Aussen-T/F 2526 12-09-2004 18:40:00 18.3 C 7.04 g/m*3 18.3 C 0 km/h
2527 12-09-2004 18:52:00 18.9 C 7.29 g/m*3 18.9 C 0 km/h
2528 12-09-2004 19:04:59 19.2 C 7.42 g/m*3 19.2 C 0 km/h
2529 12-09-2004 19:16:00 18.2 C 7.15 g/m*3 18.2 C 0 km/h
2530 12-09-2004 19:28:00 17.5 C 7.16 g/m*3 17.5 C 0 km/h
2531 12-09-2004 19:40:00 17 C 7.23 g/m*3 17 C 0 km/h
2532 12-09-2004 19:52:00 16.6 C 7.35 g/m*3 16.6 C 0 km/h
2533 12-09-2004 20:04:00 16.3 C 7.49 g/m*3 16.3 C 0 km/h
2534 12-09-2004 20:16:00 15.8 C 7.81 g/m*3 15.8 C 0 km/h
2535 12-09-2004 20:28:00 15.5 C 7.8 g/m*3 15.5 C 0 km/h
2536 12-09-2004 20:40:00 15.2 C 7.79 g/m*3 15.2 C 0 km/h
2537 12-09-2004 20:52:00 15.1 C 8 g/m*3 15.1 C 0 km/h
2538 12-09-2004 21:04:00 15.1 C 8 g/m*3 15.1 C 0 km/h
2539 12-09-2004 21:16:00 15 C 8.08 g/m*3 15 C 0 km/h
2540 12-09-2004 21:28:00 14.8 C 8.23 g/m*3 14.8 C 0 km/h
2541 12-09-2004 21:40:00 14.8 C 8.23 g/m*3 14.8 C 0 km/h
2542 12-09-2004 21:52:59 14.8 C 8.36 g/m*3 14.8 C 0 km/h
2543 12-09-2004 22:04:59 14.5 C 8.33 g/m*3 14.5 C 0 km/h
2544 12-09-2004 22:16:59 14.4 C 8.41 g/m*3 14.4 C 0 km/h
2545 12-09-2004 22:28:59 14.5 C 8.46 g/m*3 14.5 C 0 km/h
2546 12-09-2004 22:40:59 14.6 C 8.63 g/m*3 14.6 C 0 km/h
2547 12-09-2004 22:51:59 14.6 C 8.63 g/m*3 14.6 C 0 km/h
2548 12-09-2004 23:04:00 14.5 C 8.58 g/m*3 14.5 C 0 km/h
2549 12-09-2004 23:16:00 14.4 C 8.53 g/m*3 14.4 C 0 km/h
2550 12-09-2004 23:28:00 14.2 C 8.55 g/m*3 14.2 C 0 km/h
Sensor: Nr:Datum:Temp:Abs-Feuchte:Windchill:Wind:
Aussen-T/F 2551 12-09-2004 23:40:00 14 C 8.44 g/m*3 14 C 0 km/h
2552 12-09-2004 23:52:00 13.9 C 8.51 g/m*3 13.9 C 0 km/h
2553 13-09-2004 00:04:00 13.9 C 8.51 g/m*3 13.9 C 0 km/h
2554 13-09-2004 00:16:00 13.7 C 8.53 g/m*3 13.7 C 0 km/h
2555 13-09-2004 00:28:00 13.5 C 8.42 g/m*3 13.5 C 0 km/h
2556 13-09-2004 00:40:00 13.3 C 8.2 g/m*3 13.3 C 0 km/h
2557 13-09-2004 00:52:00 13.1 C 8.22 g/m*3 13.1 C 0 km/h
2558 13-09-2004 01:04:59 13 C 8.17 g/m*3 13 C 0 km/h
2559 13-09-2004 01:16:59 13 C 8.17 g/m*3 13 C 0 km/h
2560 13-09-2004 01:28:59 13.1 C 8.22 g/m*3 13.1 C 0 km/h
2561 13-09-2004 01:40:59 13.2 C 8.27 g/m*3 13.2 C 0 km/h
2562 13-09-2004 01:52:59 13.1 C 8.22 g/m*3 13.1 C 0 km/h
2563 13-09-2004 02:04:59 13.1 C 8.22 g/m*3 13.1 C 0 km/h
2564 13-09-2004 02:16:59 13.1 C 8.22 g/m*3 13.1 C 0 km/h
2565 13-09-2004 02:28:59 13.2 C 8.38 g/m*3 13.2 C 0 km/h
2566 13-09-2004 02:40:59 13.2 C 8.27 g/m*3 13.2 C 0 km/h
2567 13-09-2004 02:53:01 13.4 C 8.37 g/m*3 13.4 C 0 km/h
2568 13-09-2004 03:05:01 13.4 C 8.37 g/m*3 13.4 C 0 km/h
2569 13-09-2004 03:17:01 13.2 C 8.27 g/m*3 13.2 C 0 km/h
2570 13-09-2004 03:29:01 13.1 C 8.1 g/m*3 13.1 C 0 km/h
2571 13-09-2004 03:41:00 13 C 8.05 g/m*3 13 C 0 km/h
2572 13-09-2004 03:53:00 12.9 C 8.11 g/m*3 12.9 C 0 km/h
2573 13-09-2004 04:05:00 13 C 8.05 g/m*3 13 C 0 km/h
2574 13-09-2004 04:17:00 13 C 8.05 g/m*3 13 C 0 km/h
2575 13-09-2004 04:29:00 13 C 7.94 g/m*3 13 C 0 km/h
Sensor: Nr:Datum:Temp:Abs-Feuchte:Windchill:Wind:
Aussen-T/F 2576 13-09-2004 04:41:00 12.9 C 8.11 g/m*3 12.9 C 0 km/h
2577 13-09-2004 04:53:00 12.9 C 8 g/m*3 12.9 C 0 km/h
2578 13-09-2004 05:05:01 13 C 8.05 g/m*3 13 C 0 km/h
2579 13-09-2004 05:17:01 13 C 8.05 g/m*3 13 C 0 km/h
2580 13-09-2004 05:29:01 13 C 7.94 g/m*3 13 C 0 km/h
2581 13-09-2004 05:41:01 13.1 C 8.1 g/m*3 13.1 C 0 km/h
2582 13-09-2004 05:53:01 13.1 C 8.1 g/m*3 13.1 C 0 km/h
2583 13-09-2004 06:05:00 13.1 C 8.1 g/m*3 13.1 C 0 km/h
2584 13-09-2004 06:17:00 13.1 C 8.1 g/m*3 13.1 C 0 km/h
2585 13-09-2004 06:29:00 13.1 C 8.1 g/m*3 13.1 C 0 km/h
2586 13-09-2004 06:41:00 13.1 C 8.22 g/m*3 13.1 C 0 km/h
2587 13-09-2004 06:53:00 13.1 C 8.1 g/m*3 13.1 C 0 km/h
2588 13-09-2004 07:05:00 13 C 8.17 g/m*3 13 C 0 km/h
2589 13-09-2004 07:17:00 13 C 8.28 g/m*3 13 C 0 km/h
2590 13-09-2004 07:29:00 13.1 C 8.33 g/m*3 13.1 C 0 km/h
2591 13-09-2004 07:41:00 13.2 C 8.38 g/m*3 13.2 C 0 km/h
2592 13-09-2004 07:53:00 13.3 C 8.32 g/m*3 13.3 C 0 km/h
2593 13-09-2004 08:05:00 13.6 C 8.47 g/m*3 13.6 C 0 km/h
2594 13-09-2004 08:17:00 13.5 C 8.42 g/m*3 13.5 C 0 km/h
2595 13-09-2004 08:29:00 13.7 C 8.53 g/m*3 13.7 C 0 km/h
2596 13-09-2004 08:41:00 14 C 8.68 g/m*3 14 C 0 km/h
2597 13-09-2004 08:53:00 14.5 C 9.08 g/m*3 14.5 C 0 km/h
2598 13-09-2004 09:05:00 14.9 C 8.92 g/m*3 14.9 C 0 km/h
2599 13-09-2004 09:17:00 15.1 C 8.77 g/m*3 15.1 C 0 km/h
2600 13-09-2004 09:29:00 15.2 C 8.96 g/m*3 15.2 C 0 km/h
Sensor: Nr:Datum:Temp:Abs-Feuchte:Windchill:Wind:
Aussen-T/F 2601 13-09-2004 09:41:00 15.2 C 9.35 g/m*3 15.2 C 0 km/h
2602 13-09-2004 09:53:00 15.1 C 9.16 g/m*3 15.1 C 0 km/h
2603 13-09-2004 10:05:00 15.1 C 9.03 g/m*3 15.1 C 0 km/h
2604 13-09-2004 10:17:00 15.2 C 9.09 g/m*3 15.2 C 0 km/h
2605 13-09-2004 10:29:00 15.5 C 9.25 g/m*3 15.5 C 0 km/h
2606 13-09-2004 10:41:00 15.9 C 9.62 g/m*3 15.9 C 0 km/h
2607 13-09-2004 10:53:00 16.2 C 9.1 g/m*3 16.2 C 0 km/h
2608 13-09-2004 11:05:59 17 C 8.83 g/m*3 17 C 0 km/h
2609 13-09-2004 11:17:59 17.4 C 8.89 g/m*3 17.4 C 0 km/h
2610 13-09-2004 11:29:59 18.2 C 8.86 g/m*3 18.2 C 0 km/h
2611 13-09-2004 11:41:59 18.9 C 8.75 g/m*3 18.9 C 0 km/h
2612 13-09-2004 11:53:00 18.9 C 8.75 g/m*3 18.9 C 0 km/h
2613 13-09-2004 12:05:00 19.1 C 8.69 g/m*3 19.1 C 0 km/h
2614 13-09-2004 12:17:00 19.3 C 8.79 g/m*3 19.3 C 0 km/h
2615 13-09-2004 12:29:00 19.5 C 9.06 g/m*3 19.5 C 0 km/h
2616 13-09-2004 12:41:00 19.2 C 8.57 g/m*3 19.2 C 0 km/h
2617 13-09-2004 12:53:00 18.9 C 8.91 g/m*3 18.9 C 0 km/h
2618 13-09-2004 13:05:00 18.6 C 8.91 g/m*3 18.6 C 0 km/h
2619 13-09-2004 13:17:00 18.6 C 8.59 g/m*3 18.6 C 0 km/h
2620 13-09-2004 13:29:00 18.5 C 8.7 g/m*3 18.5 C 0 km/h
2621 13-09-2004 13:41:59 18.5 C 8.7 g/m*3 18.5 C 0 km/h
2622 13-09-2004 13:53:59 18.8 C 8.86 g/m*3 18.8 C 0 km/h
2623 13-09-2004 14:05:59 19.2 C 9.07 g/m*3 19.2 C 0 km/h
2624 13-09-2004 14:17:59 19.3 C 9.12 g/m*3 19.3 C 0 km/h
2625 13-09-2004 14:29:59 19.5 C 8.56 g/m*3 19.5 C 0 km/h
Sensor: Nr:Datum:Temp:Abs-Feuchte:Windchill:Wind:
Aussen-T/F 2626 13-09-2004 14:41:59 20.1 C 8.52 g/m*3 20.1 C 0 km/h
2627 13-09-2004 14:53:59 20.9 C 8.56 g/m*3 20.9 C 0 km/h
2628 13-09-2004 15:04:59 21.6 C 8.53 g/m*3 21.6 C 0 km/h
2629 13-09-2004 15:17:00 22.2 C 8.64 g/m*3 22.2 C 0 km/h
2630 13-09-2004 15:29:00 22.1 C 8.59 g/m*3 22.1 C 0 km/h
2631 13-09-2004 15:41:00 22.2 C 8.83 g/m*3 22.2 C 0 km/h
2632 13-09-2004 15:53:00 21.7 C 8.58 g/m*3 21.7 C 0 km/h
2633 13-09-2004 16:05:59 22.3 C 8.89 g/m*3 22.3 C 0 km/h
2634 13-09-2004 16:17:59 23 C 8.43 g/m*3 23 C 0 km/h
2635 13-09-2004 16:29:59 22.6 C 8.04 g/m*3 22.6 C 0 km/h
2636 13-09-2004 16:41:59 22.6 C 8.04 g/m*3 22.6 C 0 km/h
2637 13-09-2004 16:53:59 22.4 C 7.75 g/m*3 22.4 C 0 km/h
2638 13-09-2004 17:05:59 22.9 C 8.17 g/m*3 22.9 C 0 km/h
2639 13-09-2004 17:17:59 22.8 C 8.33 g/m*3 22.8 C 0 km/h
2640 13-09-2004 17:29:59 22.1 C 8.2 g/m*3 22.1 C 0 km/h
2641 13-09-2004 17:41:59 21.6 C 8.53 g/m*3 21.6 C 0 km/h
2642 13-09-2004 17:53:59 21.6 C 8.72 g/m*3 21.6 C 0 km/h
2643 13-09-2004 18:05:59 22.5 C 9.19 g/m*3 22.5 C 0 km/h
2644 13-09-2004 18:17:59 23.1 C 8.68 g/m*3 23.1 C 0 km/h
2645 13-09-2004 18:28:59 22.8 C 9.14 g/m*3 22.8 C 0 km/h
2646 13-09-2004 18:41:59 22.8 C 9.35 g/m*3 22.8 C 0 km/h
2647 13-09-2004 18:53:59 22.2 C 9.23 g/m*3 22.2 C 0 km/h
2648 13-09-2004 19:05:00 21.9 C 9.84 g/m*3 21.9 C 0 km/h
2649 13-09-2004 19:17:59 21.6 C 9.67 g/m*3 21.6 C 0 km/h
2650 13-09-2004 19:29:59 21.1 C 9.4 g/m*3 21.1 C 0 km/h
Sensor: Nr:Datum:Temp:Abs-Feuchte:Windchill:Wind:
Aussen-T/F 2651 13-09-2004 19:41:59 20.7 C 9.54 g/m*3 20.7 C 0 km/h
2652 13-09-2004 19:53:59 20.3 C 9.67 g/m*3 20.3 C 0 km/h
2653 13-09-2004 20:05:59 20 C 9.51 g/m*3 20 C 0 km/h
2654 13-09-2004 20:17:59 19.7 C 9.51 g/m*3 19.7 C 0 km/h
2655 13-09-2004 20:29:59 19.4 C 9.34 g/m*3 19.4 C 0 km/h
2656 13-09-2004 20:41:59 19.1 C 9.51 g/m*3 19.1 C 0 km/h
2657 13-09-2004 20:53:59 18.9 C 9.72 g/m*3 18.9 C 0 km/h
2658 13-09-2004 21:04:59 18.8 C 9.82 g/m*3 18.8 C 0 km/h
2659 13-09-2004 21:17:58 18.8 C 9.66 g/m*3 18.8 C 0 km/h
2660 13-09-2004 21:29:58 18.7 C 9.77 g/m*3 18.7 C 0 km/h
2661 13-09-2004 21:41:58 18.5 C 9.97 g/m*3 18.5 C 0 km/h
2662 13-09-2004 21:53:58 18.5 C 10.13 g/m*3 18.5 C 0 km/h
2663 13-09-2004 22:05:58 18.5 C 10.13 g/m*3 18.5 C 0 km/h
2664 13-09-2004 22:17:59 18.5 C 10.13 g/m*3 18.5 C 0 km/h
2665 13-09-2004 22:29:59 18.5 C 10.13 g/m*3 18.5 C 0 km/h
2666 13-09-2004 22:41:59 18.4 C 10.07 g/m*3 18.4 C 0 km/h
2667 13-09-2004 22:53:59 18.3 C 10.32 g/m*3 18.3 C 0 km/h
2668 13-09-2004 23:05:59 17.8 C 8.65 g/m*3 17.8 C 0 km/h
2669 13-09-2004 23:17:59 17.4 C 8.15 g/m*3 17.4 C 0 km/h
2670 13-09-2004 23:29:59 17.2 C 8.05 g/m*3 17.2 C 0 km/h
2671 13-09-2004 23:41:59 17.1 C 8.3 g/m*3 17.1 C 0 km/h
2672 13-09-2004 23:53:58 16.9 C 8.34 g/m*3 16.9 C 0 km/h
2673 14-09-2004 00:05:58 16.8 C 8.58 g/m*3 16.8 C 0 km/h
2674 14-09-2004 00:17:59 16.6 C 8.33 g/m*3 16.6 C 0 km/h
2675 14-09-2004 00:29:59 16.5 C 8.43 g/m*3 16.5 C 0 km/h
Sensor: Nr:Datum:Temp:Abs-Feuchte:Windchill:Wind:
Aussen-T/F 2676 14-09-2004 00:41:58 16.4 C 8.37 g/m*3 16.4 C 0 km/h
2677 14-09-2004 00:53:58 16.2 C 8.27 g/m*3 16.2 C 0 km/h
2678 14-09-2004 01:05:58 16.1 C 8.36 g/m*3 16.1 C 0 km/h
2679 14-09-2004 01:17:59 16.1 C 8.5 g/m*3 16.1 C 0 km/h
2680 14-09-2004 01:29:59 16.1 C 8.36 g/m*3 16.1 C 0 km/h
2681 14-09-2004 01:41:59 16.2 C 8.69 g/m*3 16.2 C 0 km/h
2682 14-09-2004 01:53:59 16.1 C 8.77 g/m*3 16.1 C 0 km/h
2683 14-09-2004 02:05:58 16 C 8.72 g/m*3 16 C 0 km/h
2684 14-09-2004 02:17:58 16 C 9.13 g/m*3 16 C 0 km/h
2685 14-09-2004 02:29:58 15.9 C 9.48 g/m*3 15.9 C 0 km/h
2686 14-09-2004 02:41:58 15.8 C 9.15 g/m*3 15.8 C 0 km/h
2687 14-09-2004 02:54:00 15.7 C 9.23 g/m*3 15.7 C 0 km/h
2688 14-09-2004 03:06:00 15.6 C 9.31 g/m*3 15.6 C 0 km/h
2689 14-09-2004 03:18:00 15.3 C 9.27 g/m*3 15.3 C 0 km/h
2690 14-09-2004 03:30:00 15.2 C 9.22 g/m*3 15.2 C 0 km/h
2691 14-09-2004 03:42:00 15.2 C 9.22 g/m*3 15.2 C 0 km/h
2692 14-09-2004 03:54:00 15.1 C 9.16 g/m*3 15.1 C 0 km/h
2693 14-09-2004 04:06:00 15.2 C 9.48 g/m*3 15.2 C 0 km/h
2694 14-09-2004 04:18:00 15.9 C 9.48 g/m*3 15.9 C 0 km/h
2695 14-09-2004 04:30:00 16 C 9.26 g/m*3 16 C 0 km/h
2696 14-09-2004 04:42:59 16 C 9.13 g/m*3 16 C 0 km/h
2697 14-09-2004 04:54:59 16 C 9.13 g/m*3 16 C 0 km/h
2698 14-09-2004 05:06:59 15.6 C 9.18 g/m*3 15.6 C 0 km/h
2699 14-09-2004 05:18:59 15.3 C 9.14 g/m*3 15.3 C 0 km/h
2700 14-09-2004 05:30:59 15 C 9.1 g/m*3 15 C 0 km/h
Sensor: Nr:Datum:Temp:Abs-Feuchte:Windchill:Wind:
Aussen-T/F 2701 14-09-2004 05:42:59 14.8 C 9.12 g/m*3 14.8 C 0 km/h
2702 14-09-2004 05:54:59 14.4 C 9.02 g/m*3 14.4 C 0 km/h
2703 14-09-2004 06:05:59 14.1 C 8.98 g/m*3 14.1 C 0 km/h
2704 14-09-2004 06:30:00 13.8 C 9.06 g/m*3 13.8 C 0 km/h
2705 14-09-2004 06:42:00 13.7 C 9 g/m*3 13.7 C 0 km/h
2706 14-09-2004 06:54:59 13.7 C 9.12 g/m*3 13.7 C 0 km/h
2707 14-09-2004 07:06:59 14 C 9.17 g/m*3 14 C 0 km/h
2708 14-09-2004 07:18:59 13.9 C 9.23 g/m*3 13.9 C 0 km/h
2709 14-09-2004 07:30:59 14 C 9.29 g/m*3 14 C 0 km/h
2710 14-09-2004 07:42:59 14 C 9.17 g/m*3 14 C 0 km/h
2711 14-09-2004 07:54:01 14.1 C 9.34 g/m*3 14.1 C 0 km/h
2712 14-09-2004 08:06:02 14 C 9.29 g/m*3 14 C 0 km/h
2713 14-09-2004 08:18:04 14.2 C 9.52 g/m*3 14.2 C 0 km/h
2714 14-09-2004 08:30:04 14.1 C 9.34 g/m*3 14.1 C 0 km/h
2715 14-09-2004 08:42:05 14.4 C 9.52 g/m*3 14.4 C 0 km/h
2716 14-09-2004 08:54:01 15 C 9.23 g/m*3 15 C 0 km/h
2717 14-09-2004 09:06:01 15.2 C 9.09 g/m*3 15.2 C 0 km/h
2718 14-09-2004 09:18:01 15.4 C 9.07 g/m*3 15.4 C 0 km/h
2719 14-09-2004 09:30:01 15.6 C 8.91 g/m*3 15.6 C 0 km/h
2720 14-09-2004 09:42:01 15.9 C 8.94 g/m*3 15.9 C 0 km/h
2721 14-09-2004 09:54:02 16 C 8.72 g/m*3 16 C 0 km/h
2722 14-09-2004 10:06:02 16.2 C 8.55 g/m*3 16.2 C 0 km/h
2723 14-09-2004 10:18:02 16.4 C 7.96 g/m*3 16.4 C 0 km/h
2724 14-09-2004 10:30:02 16.6 C 8.33 g/m*3 16.6 C 0 km/h
2725 14-09-2004 10:42:02 16.5 C 8.14 g/m*3 16.5 C 0 km/h
Sensor: Nr:Datum:Temp:Abs-Feuchte:Windchill:Wind:
Aussen-T/F 2726 14-09-2004 10:54:01 16.8 C 8.01 g/m*3 16.8 C 0 km/h
2727 14-09-2004 11:06:01 16.2 C 7.72 g/m*3 16.2 C 0 km/h
2728 14-09-2004 11:18:01 16.9 C 7.91 g/m*3 16.9 C 0 km/h
2729 14-09-2004 11:30:01 17 C 7.81 g/m*3 17 C 0 km/h
2730 14-09-2004 11:42:01 17.6 C 7.8 g/m*3 17.6 C 0 km/h
2731 14-09-2004 11:54:01 18.4 C 7.55 g/m*3 18.4 C 0 km/h
2732 14-09-2004 12:06:01 18.1 C 7.42 g/m*3 18.1 C 0 km/h
2733 14-09-2004 12:18:01 18.4 C 7.39 g/m*3 18.4 C 0 km/h
2734 14-09-2004 12:30:01 18.7 C 7.2 g/m*3 18.7 C 0 km/h
2735 14-09-2004 12:42:01 19.2 C 7.42 g/m*3 19.2 C 0 km/h
2736 14-09-2004 12:54:01 19.7 C 7.3 g/m*3 19.7 C 0 km/h
2737 14-09-2004 13:06:02 20.1 C 6.95 g/m*3 20.1 C 0 km/h
2738 14-09-2004 13:18:02 20.6 C 6.8 g/m*3 20.6 C 0 km/h
2739 14-09-2004 13:30:02 21.1 C 6.63 g/m*3 21.1 C 0 km/h
2740 14-09-2004 13:42:02 21.2 C 7.04 g/m*3 21.2 C 0 km/h
2741 14-09-2004 13:54:01 21.1 C 6.82 g/m*3 21.1 C 0 km/h
2742 14-09-2004 14:06:01 21.5 C 6.79 g/m*3 21.5 C 0 km/h
2743 14-09-2004 14:18:01 21.4 C 6.56 g/m*3 21.4 C 0 km/h
2744 14-09-2004 14:30:01 21.5 C 6.98 g/m*3 21.5 C 0 km/h
2745 14-09-2004 14:42:01 20.9 C 6.92 g/m*3 20.9 C 0 km/h
2746 14-09-2004 14:54:01 21.1 C 6.82 g/m*3 21.1 C 0 km/h
2747 14-09-2004 15:06:01 20.8 C 7.06 g/m*3 20.8 C 0 km/h
2748 14-09-2004 15:18:01 21.2 C 7.23 g/m*3 21.2 C 0 km/h
2749 14-09-2004 15:30:01 21.6 C 7.4 g/m*3 21.6 C 0 km/h
2750 14-09-2004 15:42:01 22.2 C 7.07 g/m*3 22.2 C 0 km/h
Sensor: Nr:Datum:Temp:Abs-Feuchte:Windchill:Wind:
Aussen-T/F 2751 14-09-2004 15:54:01 21.5 C 6.98 g/m*3 21.5 C 0 km/h
2752 14-09-2004 16:06:01 22 C 6.79 g/m*3 22 C 0 km/h
2753 14-09-2004 16:18:02 21.8 C 6.91 g/m*3 21.8 C 0 km/h
2754 14-09-2004 16:30:02 21.8 C 7.1 g/m*3 21.8 C 0 km/h
2755 14-09-2004 16:42:02 21.3 C 6.9 g/m*3 21.3 C 0 km/h
2756 14-09-2004 16:54:01 21 C 6.78 g/m*3 21 C 0 km/h
2757 14-09-2004 17:06:01 21.7 C 7.06 g/m*3 21.7 C 0 km/h
2758 14-09-2004 17:18:01 22 C 6.99 g/m*3 22 C 0 km/h
2759 14-09-2004 17:30:01 21.9 C 7.14 g/m*3 21.9 C 0 km/h
2760 14-09-2004 17:42:01 20.8 C 6.88 g/m*3 20.8 C 0 km/h
2761 14-09-2004 17:54:01 20.5 C 7.12 g/m*3 20.5 C 0 km/h
2762 14-09-2004 18:06:01 20.2 C 6.99 g/m*3 20.2 C 0 km/h
2763 14-09-2004 18:18:01 20.1 C 7.13 g/m*3 20.1 C 0 km/h
2764 14-09-2004 18:30:01 20.1 C 7.3 g/m*3 20.1 C 0 km/h
2765 14-09-2004 18:42:00 20 C 7.26 g/m*3 20 C 0 km/h
2766 14-09-2004 18:54:01 19.9 C 7.39 g/m*3 19.9 C 0 km/h
2767 14-09-2004 19:06:01 20.4 C 7.43 g/m*3 20.4 C 0 km/h
2768 14-09-2004 19:18:02 20.8 C 7.6 g/m*3 20.8 C 0 km/h
2769 14-09-2004 19:30:02 20.2 C 7.52 g/m*3 20.2 C 0 km/h
2770 14-09-2004 19:42:02 19.5 C 7.55 g/m*3 19.5 C 0 km/h
2771 14-09-2004 19:54:02 19.1 C 7.38 g/m*3 19.1 C 0 km/h
2772 14-09-2004 20:06:03 18.7 C 7.68 g/m*3 18.7 C 0 km/h
2773 14-09-2004 20:18:02 18.6 C 7.8 g/m*3 18.6 C 0 km/h
2774 14-09-2004 20:30:02 18.1 C 7.88 g/m*3 18.1 C 0 km/h
2775 14-09-2004 20:42:02 18.3 C 8.29 g/m*3 18.3 C 0 km/h
Sensor: Nr:Datum:Temp:Abs-Feuchte:Windchill:Wind:
Aussen-T/F 2776 14-09-2004 20:54:01 18.1 C 8.03 g/m*3 18.1 C 0 km/h
2777 14-09-2004 21:06:01 17.7 C 8.3 g/m*3 17.7 C 0 km/h
2778 14-09-2004 21:18:01 17.5 C 8.2 g/m*3 17.5 C 0 km/h
2779 14-09-2004 21:30:01 17.2 C 8.49 g/m*3 17.2 C 0 km/h
2780 14-09-2004 21:42:01 16.9 C 8.63 g/m*3 16.9 C 0 km/h
2781 14-09-2004 21:54:01 16.7 C 8.67 g/m*3 16.7 C 0 km/h
2782 14-09-2004 22:06:01 16.5 C 8.71 g/m*3 16.5 C 0 km/h
2783 14-09-2004 22:18:01 16.4 C 8.65 g/m*3 16.4 C 0 km/h
2784 14-09-2004 22:30:01 16.2 C 8.55 g/m*3 16.2 C 0 km/h
2785 14-09-2004 22:42:01 15.9 C 8.67 g/m*3 15.9 C 0 km/h
2786 14-09-2004 22:54:01 15.8 C 8.75 g/m*3 15.8 C 0 km/h
2787 14-09-2004 23:06:01 15.5 C 8.72 g/m*3 15.5 C 0 km/h
2788 14-09-2004 23:18:01 15.2 C 8.83 g/m*3 15.2 C 0 km/h
2789 14-09-2004 23:30:01 14.9 C 8.92 g/m*3 14.9 C 0 km/h
2790 14-09-2004 23:42:02 14.6 C 8.88 g/m*3 14.6 C 0 km/h
2791 14-09-2004 23:54:01 14.5 C 8.95 g/m*3 14.5 C 0 km/h
2792 15-09-2004 00:06:01 14.4 C 9.02 g/m*3 14.4 C 0 km/h
2793 15-09-2004 00:18:00 14.3 C 8.97 g/m*3 14.3 C 0 km/h
2794 15-09-2004 00:30:00 14.4 C 9.02 g/m*3 14.4 C 0 km/h
2795 15-09-2004 00:42:00 14 C 8.93 g/m*3 14 C 0 km/h
2796 15-09-2004 00:54:01 13.9 C 9.11 g/m*3 13.9 C 0 km/h
2797 15-09-2004 01:06:01 13.9 C 9.11 g/m*3 13.9 C 0 km/h
2798 15-09-2004 01:18:01 13.6 C 8.94 g/m*3 13.6 C 0 km/h
2799 15-09-2004 01:30:01 13.4 C 8.95 g/m*3 13.4 C 0 km/h
2800 15-09-2004 01:42:01 13.3 C 9.01 g/m*3 13.3 C 0 km/h
Sensor: Nr:Datum:Temp:Abs-Feuchte:Windchill:Wind:
Aussen-T/F 2801 15-09-2004 01:54:01 13.2 C 9.07 g/m*3 13.2 C 0 km/h
2802 15-09-2004 02:06:02 13 C 8.96 g/m*3 13 C 0 km/h
2803 15-09-2004 02:18:02 13.2 C 9.07 g/m*3 13.2 C 0 km/h
2804 15-09-2004 02:30:02 13.3 C 9.13 g/m*3 13.3 C 0 km/h
2805 15-09-2004 02:42:02 12.8 C 8.96 g/m*3 12.8 C 0 km/h
2806 15-09-2004 02:54:01 12.7 C 9.02 g/m*3 12.7 C 0 km/h
2807 15-09-2004 03:06:01 12.7 C 9.13 g/m*3 12.7 C 0 km/h
2808 15-09-2004 03:18:01 12.6 C 9.07 g/m*3 12.6 C 0 km/h
2809 15-09-2004 03:30:01 12.5 C 9.02 g/m*3 12.5 C 0 km/h
2810 15-09-2004 03:42:00 12.5 C 9.13 g/m*3 12.5 C 0 km/h
2811 15-09-2004 03:54:00 12.3 C 9.01 g/m*3 12.3 C 0 km/h
2812 15-09-2004 04:06:00 12.1 C 8.9 g/m*3 12.1 C 0 km/h
2813 15-09-2004 04:18:00 12 C 8.85 g/m*3 12 C 0 km/h
2814 15-09-2004 04:30:00 11.8 C 8.95 g/m*3 11.8 C 0 km/h
2815 15-09-2004 04:42:00 11.7 C 8.89 g/m*3 11.7 C 0 km/h
2816 15-09-2004 04:54:00 11.7 C 8.99 g/m*3 11.7 C 0 km/h
2817 15-09-2004 05:06:00 11.8 C 8.95 g/m*3 11.8 C 0 km/h
2818 15-09-2004 05:18:00 11.9 C 9 g/m*3 11.9 C 0 km/h
2819 15-09-2004 05:30:00 11.7 C 8.89 g/m*3 11.7 C 0 km/h
2820 15-09-2004 05:42:01 11.5 C 8.88 g/m*3 11.5 C 0 km/h
2821 15-09-2004 05:54:01 11.5 C 8.99 g/m*3 11.5 C 0 km/h
2822 15-09-2004 06:06:01 11.5 C 8.99 g/m*3 11.5 C 0 km/h
2823 15-09-2004 06:18:01 11.6 C 8.94 g/m*3 11.6 C 0 km/h
2824 15-09-2004 06:30:01 11.6 C 8.83 g/m*3 11.6 C 0 km/h
2825 15-09-2004 06:42:01 11.5 C 8.78 g/m*3 11.5 C 0 km/h
Sensor: Nr:Datum:Temp:Abs-Feuchte:Windchill:Wind:
Aussen-T/F 2826 15-09-2004 06:54:01 11.7 C 8.89 g/m*3 11.7 C 0 km/h
2827 15-09-2004 07:06:00 11.8 C 8.84 g/m*3 11.8 C 0 km/h
2828 15-09-2004 07:18:00 12 C 8.74 g/m*3 12 C 0 km/h
2829 15-09-2004 07:30:00 12.2 C 8.63 g/m*3 12.2 C 0 km/h
2830 15-09-2004 07:42:00 12.4 C 8.63 g/m*3 12.4 C 0 km/h
2831 15-09-2004 07:54:00 12.4 C 8.63 g/m*3 12.4 C 0 km/h
2832 15-09-2004 08:06:00 12.4 C 8.63 g/m*3 12.4 C 0 km/h
2833 15-09-2004 08:18:00 12.6 C 8.63 g/m*3 12.6 C 0 km/h
2834 15-09-2004 08:30:00 12.8 C 8.51 g/m*3 12.8 C 0 km/h
2835 15-09-2004 08:42:00 13 C 8.39 g/m*3 13 C 0 km/h
2836 15-09-2004 08:54:00 13.5 C 8.54 g/m*3 13.5 C 0 km/h
2837 15-09-2004 09:06:00 13.5 C 8.42 g/m*3 13.5 C 0 km/h
2838 15-09-2004 09:18:01 13.5 C 8.54 g/m*3 13.5 C 0 km/h
2839 15-09-2004 09:30:01 13.8 C 8.7 g/m*3 13.8 C 0 km/h
2840 15-09-2004 09:42:01 14.2 C 8.55 g/m*3 14.2 C 0 km/h
2841 15-09-2004 09:54:01 14.2 C 8.43 g/m*3 14.2 C 0 km/h
2842 15-09-2004 10:06:01 14.4 C 8.28 g/m*3 14.4 C 0 km/h
2843 15-09-2004 10:18:00 14.6 C 8.38 g/m*3 14.6 C 0 km/h
2844 15-09-2004 10:30:00 14.5 C 8.33 g/m*3 14.5 C 0 km/h
2845 15-09-2004 10:42:00 14.7 C 8.31 g/m*3 14.7 C 0 km/h
2846 15-09-2004 10:54:00 15.2 C 8.31 g/m*3 15.2 C 0 km/h
2847 15-09-2004 11:06:00 15.8 C 8.08 g/m*3 15.8 C 0 km/h
2848 15-09-2004 11:18:00 16.2 C 8.14 g/m*3 16.2 C 0 km/h
2849 15-09-2004 11:30:00 16.4 C 8.1 g/m*3 16.4 C 0 km/h
2850 15-09-2004 11:42:00 16.7 C 8.1 g/m*3 16.7 C 0 km/h
Sensor: Nr:Datum:Temp:Abs-Feuchte:Windchill:Wind:
Aussen-T/F 2851 15-09-2004 11:54:00 16.8 C 8.15 g/m*3 16.8 C 0 km/h
2852 15-09-2004 12:06:00 15.4 C 8.93 g/m*3 15.4 C 0 km/h
2853 15-09-2004 12:18:00 14.6 C 9.51 g/m*3 14.6 C 0 km/h
2854 15-09-2004 12:30:00 14.9 C 9.81 g/m*3 14.9 C 0 km/h
2855 15-09-2004 12:42:01 15.6 C 9.58 g/m*3 15.6 C 0 km/h
2856 15-09-2004 12:54:01 16.2 C 9.24 g/m*3 16.2 C 0 km/h
2857 15-09-2004 13:06:01 16.6 C 9.04 g/m*3 16.6 C 0 km/h
2858 15-09-2004 13:18:01 16.8 C 8.72 g/m*3 16.8 C 0 km/h
2859 15-09-2004 13:30:01 16.8 C 8.29 g/m*3 16.8 C 0 km/h
2860 15-09-2004 13:42:01 16.8 C 8.29 g/m*3 16.8 C 0 km/h
2861 15-09-2004 13:54:00 17 C 7.96 g/m*3 17 C 0 km/h
2862 15-09-2004 14:06:00 17.2 C 8.05 g/m*3 17.2 C 0 km/h
2863 15-09-2004 14:18:00 17.5 C 8.35 g/m*3 17.5 C 0 km/h
2864 15-09-2004 14:30:00 17.5 C 8.2 g/m*3 17.5 C 0 km/h
2865 15-09-2004 14:42:00 17.5 C 6.71 g/m*3 17.5 C 0 km/h
2866 15-09-2004 14:54:00 17 C 6.66 g/m*3 17 C 0 km/h
2867 15-09-2004 15:06:00 18 C 6.6 g/m*3 18 C 0 km/h
2868 15-09-2004 15:18:00 19.1 C 6.07 g/m*3 19.1 C 0 km/h
2869 15-09-2004 15:30:00 19.6 C 5.74 g/m*3 19.6 C 0 km/h
2870 15-09-2004 15:42:00 19.8 C 5.12 g/m*3 19.8 C 0 km/h
2871 15-09-2004 15:54:01 19.3 C 5.14 g/m*3 19.3 C 0 km/h
2872 15-09-2004 16:06:01 19.9 C 5.33 g/m*3 19.9 C 0 km/h
2873 15-09-2004 16:18:01 19.8 C 5.3 g/m*3 19.8 C 0 km/h
2874 15-09-2004 16:30:01 19.4 C 5.34 g/m*3 19.4 C 0 km/h
2875 15-09-2004 16:42:01 19.7 C 5.43 g/m*3 19.7 C 0 km/h
Sensor: Nr:Datum:Temp:Abs-Feuchte:Windchill:Wind:
Aussen-T/F 2876 15-09-2004 16:54:00 20.3 C 5.63 g/m*3 20.3 C 0 km/h
2877 15-09-2004 17:06:00 20 C 5.7 g/m*3 20 C 0 km/h
2878 15-09-2004 17:18:00 20.3 C 5.8 g/m*3 20.3 C 0 km/h
2879 15-09-2004 17:30:00 19.2 C 6.1 g/m*3 19.2 C 0 km/h
2880 15-09-2004 17:42:00 17.9 C 6.87 g/m*3 17.9 C 0 km/h
2881 15-09-2004 17:54:00 18.2 C 6.99 g/m*3 18.2 C 0 km/h
2882 15-09-2004 18:06:00 18.6 C 6.53 g/m*3 18.6 C 0 km/h
2883 15-09-2004 18:18:00 18.5 C 6.49 g/m*3 18.5 C 0 km/h
2884 15-09-2004 18:30:00 18.6 C 6.68 g/m*3 18.6 C 0 km/h
2885 15-09-2004 18:42:00 17.4 C 6.67 g/m*3 17.4 C 0 km/h
2886 15-09-2004 18:54:00 16.6 C 6.64 g/m*3 16.6 C 0 km/h
2887 15-09-2004 19:06:01 16.8 C 6.72 g/m*3 16.8 C 0 km/h
2888 15-09-2004 19:18:01 17.1 C 6.84 g/m*3 17.1 C 0 km/h
2889 15-09-2004 19:30:01 16.3 C 6.8 g/m*3 16.3 C 0 km/h
2890 15-09-2004 19:42:01 15.5 C 6.74 g/m*3 15.5 C 0 km/h
2891 15-09-2004 19:54:01 15.1 C 6.58 g/m*3 15.1 C 0 km/h
2892 15-09-2004 20:06:01 14.7 C 6.92 g/m*3 14.7 C 0 km/h
2893 15-09-2004 20:18:00 14.1 C 6.92 g/m*3 14.1 C 0 km/h
2894 15-09-2004 20:30:00 13.8 C 7.03 g/m*3 13.8 C 0 km/h
2895 15-09-2004 20:42:00 13.7 C 7.1 g/m*3 13.7 C 0 km/h
2896 15-09-2004 20:54:00 13.5 C 7.13 g/m*3 13.5 C 0 km/h
2897 15-09-2004 21:06:00 13.2 C 7.23 g/m*3 13.2 C 0 km/h
2898 15-09-2004 21:18:00 13 C 7.14 g/m*3 13 C 0 km/h
2899 15-09-2004 21:30:00 12.7 C 7.35 g/m*3 12.7 C 0 km/h
2900 15-09-2004 21:42:00 12.5 C 7.37 g/m*3 12.5 C 0 km/h
Sensor: Nr:Datum:Temp:Abs-Feuchte:Windchill:Wind:
Aussen-T/F 2901 15-09-2004 21:54:00 12.3 C 7.38 g/m*3 12.3 C 0 km/h
2902 15-09-2004 22:06:00 12 C 7.35 g/m*3 12 C 0 km/h
2903 15-09-2004 22:18:00 11.9 C 7.52 g/m*3 11.9 C 0 km/h
2904 15-09-2004 22:30:01 11.7 C 7.64 g/m*3 11.7 C 0 km/h
2905 15-09-2004 22:42:01 11.4 C 7.29 g/m*3 11.4 C 0 km/h
2906 15-09-2004 22:54:01 11.2 C 7.4 g/m*3 11.2 C 0 km/h
2907 15-09-2004 23:06:01 11.1 C 7.35 g/m*3 11.1 C 0 km/h
2908 15-09-2004 23:18:01 10.9 C 7.36 g/m*3 10.9 C 0 km/h
2909 15-09-2004 23:30:01 10.8 C 7.41 g/m*3 10.8 C 0 km/h
2910 15-09-2004 23:42:00 10.6 C 7.42 g/m*3 10.6 C 0 km/h
2911 15-09-2004 23:54:00 10.5 C 7.37 g/m*3 10.5 C 0 km/h
2912 16-09-2004 00:06:00 10.3 C 7.37 g/m*3 10.3 C 0 km/h
2913 16-09-2004 00:18:01 10.2 C 7.42 g/m*3 10.2 C 0 km/h
2914 16-09-2004 00:30:01 9.8 C 7.42 g/m*3 9.8 C 0 km/h
2915 16-09-2004 00:42:01 9.8 C 7.52 g/m*3 9.8 C 0 km/h
2916 16-09-2004 00:54:01 9.5 C 7.37 g/m*3 9.5 C 0 km/h
2917 16-09-2004 01:06:00 9.5 C 7.46 g/m*3 9.5 C 0 km/h
2918 16-09-2004 01:18:00 9.5 C 7.46 g/m*3 9.5 C 0 km/h
2919 16-09-2004 01:30:00 9.7 C 7.47 g/m*3 9.7 C 0 km/h
2920 16-09-2004 01:42:00 10 C 7.42 g/m*3 10 C 0 km/h
2921 16-09-2004 01:54:00 9.8 C 7.42 g/m*3 9.8 C 0 km/h
2922 16-09-2004 02:06:00 9.6 C 7.42 g/m*3 9.6 C 0 km/h
2923 16-09-2004 02:18:00 9.5 C 7.37 g/m*3 9.5 C 0 km/h
2924 16-09-2004 02:30:00 9.5 C 7.37 g/m*3 9.5 C 0 km/h
2925 16-09-2004 02:42:00 9.1 C 7.28 g/m*3 9.1 C 0 km/h
Sensor: Nr:Datum:Temp:Abs-Feuchte:Windchill:Wind:
Aussen-T/F 2926 16-09-2004 02:55:03 8.8 C 7.31 g/m*3 8.8 C 0 km/h
2927 16-09-2004 03:07:03 8.6 C 7.3 g/m*3 8.6 C 0 km/h
2928 16-09-2004 03:19:04 8.5 C 7.34 g/m*3 8.5 C 0 km/h
2929 16-09-2004 03:31:01 8.4 C 7.3 g/m*3 8.4 C 0 km/h
2930 16-09-2004 03:43:01 8.2 C 7.29 g/m*3 8.2 C 0 km/h
2931 16-09-2004 03:55:01 8.1 C 7.24 g/m*3 8.1 C 0 km/h
2932 16-09-2004 04:07:01 8 C 7.19 g/m*3 8 C 0 km/h
2933 16-09-2004 04:19:01 8 C 7.28 g/m*3 8 C 0 km/h
2934 16-09-2004 04:31:00 7.9 C 7.31 g/m*3 7.9 C 0 km/h
2935 16-09-2004 04:43:00 7.7 C 7.22 g/m*3 7.7 C 0 km/h
2936 16-09-2004 04:55:01 7.6 C 7.17 g/m*3 7.6 C 0 km/h
2937 16-09-2004 05:07:01 7.6 C 7.25 g/m*3 7.6 C 0 km/h
2938 16-09-2004 05:19:01 7.4 C 7.16 g/m*3 7.4 C 0 km/h
2939 16-09-2004 05:31:00 7.2 C 7.06 g/m*3 7.2 C 0 km/h
2940 16-09-2004 05:43:00 7.1 C 7.02 g/m*3 7.1 C 0 km/h
2941 16-09-2004 05:55:01 7.2 C 7.06 g/m*3 7.2 C 0 km/h
2942 16-09-2004 06:07:01 7 C 7.05 g/m*3 7 C 0 km/h
2943 16-09-2004 06:19:00 6.9 C 7.01 g/m*3 6.9 C 0 km/h
2944 16-09-2004 06:31:00 6.9 C 7.01 g/m*3 6.9 C 0 km/h
2945 16-09-2004 06:43:00 6.8 C 6.96 g/m*3 6.8 C 0 km/h
2946 16-09-2004 06:55:02 6.8 C 6.96 g/m*3 6.8 C 0 km/h
2947 16-09-2004 07:07:02 6.7 C 6.91 g/m*3 6.7 C 0 km/h
2948 16-09-2004 07:19:02 6.4 C 6.85 g/m*3 6.4 C 0 km/h
2949 16-09-2004 07:31:01 6.4 C 6.85 g/m*3 6.4 C 0 km/h
2950 16-09-2004 07:43:01 6.4 C 6.85 g/m*3 6.4 C 0 km/h
Sensor: Nr:Datum:Temp:Abs-Feuchte:Windchill:Wind:
Aussen-T/F 2951 16-09-2004 07:55:01 6.5 C 6.9 g/m*3 6.5 C 0 km/h
2952 16-09-2004 08:07:01 6.7 C 7.07 g/m*3 6.7 C 0 km/h
2953 16-09-2004 08:19:01 6.8 C 7.11 g/m*3 6.8 C 0 km/h
2954 16-09-2004 08:31:00 7 C 7.13 g/m*3 7 C 0 km/h
2955 16-09-2004 08:43:00 7.4 C 7.24 g/m*3 7.4 C 0 km/h
2956 16-09-2004 08:55:01 7.5 C 7.2 g/m*3 7.5 C 0 km/h
2957 16-09-2004 09:07:01 7.8 C 7.26 g/m*3 7.8 C 0 km/h
2958 16-09-2004 09:19:00 8.1 C 7.24 g/m*3 8.1 C 0 km/h
2959 16-09-2004 09:31:00 8.4 C 7.3 g/m*3 8.4 C 0 km/h
2960 16-09-2004 09:43:00 8.8 C 7.4 g/m*3 8.8 C 0 km/h
2961 16-09-2004 09:55:01 9.3 C 7.46 g/m*3 9.3 C 0 km/h
2962 16-09-2004 10:07:01 9.5 C 7.46 g/m*3 9.5 C 0 km/h
2963 16-09-2004 10:19:01 9.8 C 7.52 g/m*3 9.8 C 0 km/h
2964 16-09-2004 10:31:01 10.4 C 7.81 g/m*3 10.4 C 0 km/h
2965 16-09-2004 10:43:01 10.9 C 7.96 g/m*3 10.9 C 0 km/h
2966 16-09-2004 10:55:01 11.5 C 8.06 g/m*3 11.5 C 0 km/h
2967 16-09-2004 11:07:01 12.1 C 8.26 g/m*3 12.1 C 0 km/h
2968 16-09-2004 11:19:00 12.5 C 8.25 g/m*3 12.5 C 0 km/h
2969 16-09-2004 11:31:00 13.1 C 8.33 g/m*3 13.1 C 0 km/h
2970 16-09-2004 11:43:00 13.6 C 8.24 g/m*3 13.6 C 0 km/h
2971 16-09-2004 11:55:01 14.2 C 8.3 g/m*3 14.2 C 0 km/h
2972 16-09-2004 12:07:01 14.6 C 8.13 g/m*3 14.6 C 0 km/h
2973 16-09-2004 12:19:01 15 C 7.95 g/m*3 15 C 0 km/h
2974 16-09-2004 12:31:00 15.5 C 7.67 g/m*3 15.5 C 0 km/h
2975 16-09-2004 12:43:00 15.6 C 7.31 g/m*3 15.6 C 0 km/h
Sensor: Nr:Datum:Temp:Abs-Feuchte:Windchill:Wind:
Aussen-T/F 2976 16-09-2004 12:55:01 15.8 C 7.27 g/m*3 15.8 C 0 km/h
2977 16-09-2004 13:07:01 16.1 C 7.4 g/m*3 16.1 C 0 km/h
2978 16-09-2004 13:19:00 16.7 C 6.96 g/m*3 16.7 C 0 km/h
2979 16-09-2004 13:31:01 17.5 C 6.11 g/m*3 17.5 C 0 km/h
2980 16-09-2004 13:43:01 17.9 C 6.26 g/m*3 17.9 C 0 km/h
2981 16-09-2004 13:55:01 18.3 C 6.41 g/m*3 18.3 C 0 km/h
2982 16-09-2004 14:07:01 18.7 C 5.92 g/m*3 18.7 C 0 km/h
2983 16-09-2004 14:19:00 19.2 C 5.44 g/m*3 19.2 C 0 km/h
2984 16-09-2004 14:31:00 19.7 C 5.94 g/m*3 19.7 C 0 km/h
2985 16-09-2004 14:43:00 20.5 C 5.69 g/m*3 20.5 C 0 km/h
2986 16-09-2004 14:55:01 21.4 C 5.62 g/m*3 21.4 C 0 km/h
2987 16-09-2004 15:07:01 21.8 C 5.76 g/m*3 21.8 C 0 km/h
2988 16-09-2004 15:19:01 21 C 5.31 g/m*3 21 C 0 km/h
2989 16-09-2004 15:31:00 19.7 C 5.6 g/m*3 19.7 C 0 km/h
2990 16-09-2004 15:43:00 20.5 C 5.52 g/m*3 20.5 C 0 km/h
2991 16-09-2004 15:55:01 21.2 C 5 g/m*3 21.2 C 0 km/h
2992 16-09-2004 16:07:01 21.3 C 4.85 g/m*3 21.3 C 0 km/h
2993 16-09-2004 16:19:00 21.6 C 4.74 g/m*3 21.6 C 0 km/h
2994 16-09-2004 16:31:00 21.9 C 4.82 g/m*3 21.9 C 0 km/h
2995 16-09-2004 16:43:00 22 C 5.82 g/m*3 22 C 0 km/h
2996 16-09-2004 16:55:02 22 C 5.05 g/m*3 22 C 0 km/h
2997 16-09-2004 17:07:02 22 C 6.02 g/m*3 22 C 0 km/h
2998 16-09-2004 17:19:02 21.2 C 6.12 g/m*3 21.2 C 0 km/h
2999 16-09-2004 17:31:01 22.3 C 6.52 g/m*3 22.3 C 0 km/h
3000 16-09-2004 17:43:01 22.9 C 6.54 g/m*3 22.9 C 0 km/h
Sensor: Nr:Datum:Temp:Abs-Feuchte:Windchill:Wind:
Aussen-T/F 3001 16-09-2004 17:55:01 22.7 C 6.26 g/m*3 22.7 C 0 km/h
3002 16-09-2004 18:07:01 21.6 C 6.26 g/m*3 21.6 C 0 km/h
3003 16-09-2004 18:19:01 21.1 C 5.9 g/m*3 21.1 C 0 km/h
3004 16-09-2004 18:31:01 20 C 6.22 g/m*3 20 C 0 km/h
3005 16-09-2004 18:43:01 18.4 C 6.29 g/m*3 18.4 C 0 km/h
3006 16-09-2004 18:55:01 17.4 C 6.08 g/m*3 17.4 C 0 km/h
3007 16-09-2004 19:07:01 16.9 C 6.18 g/m*3 16.9 C 0 km/h
3008 16-09-2004 19:19:01 16.2 C 5.93 g/m*3 16.2 C 0 km/h
3009 16-09-2004 19:31:01 16.1 C 5.76 g/m*3 16.1 C 0 km/h
3010 16-09-2004 19:43:01 15.3 C 6.01 g/m*3 15.3 C 0 km/h
3011 16-09-2004 19:55:01 14.8 C 6.08 g/m*3 14.8 C 0 km/h
3012 16-09-2004 20:07:02 14.3 C 6.02 g/m*3 14.3 C 0 km/h
3013 16-09-2004 20:19:02 13.7 C 6.04 g/m*3 13.7 C 0 km/h
3014 16-09-2004 20:31:02 13.1 C 5.82 g/m*3 13.1 C 0 km/h
3015 16-09-2004 20:43:02 12.8 C 6.16 g/m*3 12.8 C 0 km/h
3016 16-09-2004 20:55:01 12.5 C 6.27 g/m*3 12.5 C 0 km/h
3017 16-09-2004 21:07:01 12.4 C 6.23 g/m*3 12.4 C 0 km/h
3018 16-09-2004 21:19:01 12.1 C 6.33 g/m*3 12.1 C 0 km/h
3019 16-09-2004 21:31:01 11.9 C 6.35 g/m*3 11.9 C 0 km/h
3020 16-09-2004 21:43:01 11.6 C 6.34 g/m*3 11.6 C 0 km/h
3021 16-09-2004 21:55:01 11.2 C 6.28 g/m*3 11.2 C 0 km/h
3022 16-09-2004 22:07:01 11.1 C 6.25 g/m*3 11.1 C 0 km/h
3023 16-09-2004 22:19:01 11 C 6.31 g/m*3 11 C 0 km/h
3024 16-09-2004 22:31:01 10.8 C 6.33 g/m*3 10.8 C 0 km/h
3025 16-09-2004 22:43:01 10.7 C 6.38 g/m*3 10.7 C 0 km/h
Sensor: Nr:Datum:Temp:Abs-Feuchte:Windchill:Wind:
Aussen-T/F 3026 16-09-2004 22:55:01 10.4 C 6.26 g/m*3 10.4 C 0 km/h
3027 16-09-2004 23:07:01 10.1 C 6.24 g/m*3 10.1 C 0 km/h
3028 16-09-2004 23:19:01 9.8 C 6.4 g/m*3 9.8 C 0 km/h
3029 16-09-2004 23:31:00 9.7 C 6.36 g/m*3 9.7 C 0 km/h
3030 16-09-2004 23:43:00 9.5 C 6.37 g/m*3 9.5 C 0 km/h
3031 16-09-2004 23:55:01 9.4 C 6.51 g/m*3 9.4 C 0 km/h
3032 17-09-2004 00:07:02 9.2 C 6.34 g/m*3 9.2 C 0 km/h
3033 17-09-2004 00:19:01 9 C 6.35 g/m*3 9 C 0 km/h
3034 17-09-2004 00:31:01 8.9 C 6.48 g/m*3 8.9 C 0 km/h
3035 17-09-2004 00:43:01 8.6 C 6.27 g/m*3 8.6 C 0 km/h
3036 17-09-2004 00:55:01 8.7 C 6.4 g/m*3 8.7 C 0 km/h
3037 17-09-2004 01:07:01 8.3 C 6.32 g/m*3 8.3 C 0 km/h
3038 17-09-2004 01:19:01 8.1 C 6.41 g/m*3 8.1 C 0 km/h
3039 17-09-2004 01:31:01 8 C 6.45 g/m*3 8 C 0 km/h
3040 17-09-2004 01:43:01 8 C 6.37 g/m*3 8 C 0 km/h
3041 17-09-2004 01:55:01 7.9 C 6.49 g/m*3 7.9 C 0 km/h
3042 17-09-2004 02:07:01 7.7 C 6.57 g/m*3 7.7 C 0 km/h
3043 17-09-2004 02:19:01 7.6 C 6.44 g/m*3 7.6 C 0 km/h
3044 17-09-2004 02:31:01 7.5 C 6.4 g/m*3 7.5 C 0 km/h
3045 17-09-2004 02:43:01 7.4 C 6.44 g/m*3 7.4 C 0 km/h
3046 17-09-2004 02:55:01 7.1 C 6.32 g/m*3 7.1 C 0 km/h
3047 17-09-2004 03:07:01 7 C 6.35 g/m*3 7 C 0 km/h
3048 17-09-2004 03:19:01 7 C 6.35 g/m*3 7 C 0 km/h
3049 17-09-2004 03:31:00 6.9 C 6.39 g/m*3 6.9 C 0 km/h
3050 17-09-2004 03:43:00 6.9 C 6.39 g/m*3 6.9 C 0 km/h
Sensor: Nr:Datum:Temp:Abs-Feuchte:Windchill:Wind:
Aussen-T/F 3051 17-09-2004 03:55:00 6.9 C 6.39 g/m*3 6.9 C 0 km/h
3052 17-09-2004 04:07:00 6.7 C 6.38 g/m*3 6.7 C 0 km/h
3053 17-09-2004 04:19:00 6.6 C 6.42 g/m*3 6.6 C 0 km/h
3054 17-09-2004 04:31:00 6.4 C 6.33 g/m*3 6.4 C 0 km/h
3055 17-09-2004 04:43:00 6.2 C 6.25 g/m*3 6.2 C 0 km/h
3056 17-09-2004 04:55:00 6 C 6.17 g/m*3 6 C 0 km/h
3057 17-09-2004 05:07:00 6 C 6.24 g/m*3 6 C 0 km/h
3058 17-09-2004 05:19:00 5.9 C 6.27 g/m*3 5.9 C 0 km/h
3059 17-09-2004 05:31:00 5.8 C 6.23 g/m*3 5.8 C 0 km/h
3060 17-09-2004 05:43:00 5.7 C 6.19 g/m*3 5.7 C 0 km/h
3061 17-09-2004 05:55:00 5.5 C 6.18 g/m*3 5.5 C 0 km/h
3062 17-09-2004 06:07:01 5.4 C 6.14 g/m*3 5.4 C 0 km/h
3063 17-09-2004 06:19:01 5.3 C 6.1 g/m*3 5.3 C 0 km/h
3064 17-09-2004 06:31:01 5.2 C 6.13 g/m*3 5.2 C 0 km/h
3065 17-09-2004 06:43:01 5.2 C 6.13 g/m*3 5.2 C 0 km/h
3066 17-09-2004 06:55:01 5.1 C 6.09 g/m*3 5.1 C 0 km/h
3067 17-09-2004 07:07:01 5.1 C 6.16 g/m*3 5.1 C 0 km/h
3068 17-09-2004 07:19:00 5 C 6.12 g/m*3 5 C 0 km/h
3069 17-09-2004 07:31:01 5 C 6.12 g/m*3 5 C 0 km/h
3070 17-09-2004 07:43:01 4.9 C 6.21 g/m*3 4.9 C 0 km/h
3071 17-09-2004 07:55:00 4.9 C 6.21 g/m*3 4.9 C 0 km/h
3072 17-09-2004 08:07:00 5.3 C 6.38 g/m*3 5.3 C 0 km/h
3073 17-09-2004 08:19:00 5.5 C 6.39 g/m*3 5.5 C 0 km/h
3074 17-09-2004 08:31:00 5.7 C 6.48 g/m*3 5.7 C 0 km/h
3075 17-09-2004 08:43:00 5.9 C 6.49 g/m*3 5.9 C 0 km/h
Sensor: Nr:Datum:Temp:Abs-Feuchte:Windchill:Wind:
Aussen-T/F 3076 17-09-2004 08:55:00 6.3 C 6.51 g/m*3 6.3 C 0 km/h
3077 17-09-2004 09:07:00 6.5 C 6.6 g/m*3 6.5 C 0 km/h
3078 17-09-2004 09:19:00 6.7 C 6.61 g/m*3 6.7 C 0 km/h
3079 17-09-2004 09:31:00 6.6 C 6.64 g/m*3 6.6 C 0 km/h
3080 17-09-2004 09:43:01 6.8 C 6.81 g/m*3 6.8 C 0 km/h
3081 17-09-2004 09:55:01 7.2 C 6.91 g/m*3 7.2 C 0 km/h
3082 17-09-2004 10:07:01 7.7 C 7.14 g/m*3 7.7 C 0 km/h
3083 17-09-2004 10:19:01 8 C 6.94 g/m*3 8 C 0 km/h
3084 17-09-2004 10:31:01 8.6 C 7.22 g/m*3 8.6 C 0 km/h
3085 17-09-2004 10:43:01 9.2 C 7.41 g/m*3 9.2 C 0 km/h
3086 17-09-2004 10:55:00 10.2 C 7.52 g/m*3 10.2 C 0 km/h
3087 17-09-2004 11:07:00 11.1 C 7.55 g/m*3 11.1 C 0 km/h
3088 17-09-2004 11:19:00 12 C 7.67 g/m*3 12 C 0 km/h
3089 17-09-2004 11:31:00 12.4 C 7.65 g/m*3 12.4 C 0 km/h
3090 17-09-2004 11:43:00 13.1 C 7.65 g/m*3 13.1 C 0 km/h
3091 17-09-2004 11:55:00 13.8 C 7.86 g/m*3 13.8 C 0 km/h
3092 17-09-2004 12:07:00 14.5 C 7.96 g/m*3 14.5 C 0 km/h
3093 17-09-2004 12:19:00 15.2 C 8.18 g/m*3 15.2 C 0 km/h
3094 17-09-2004 12:31:00 15.6 C 8.38 g/m*3 15.6 C 0 km/h
3095 17-09-2004 12:43:00 16 C 8.45 g/m*3 16 C 0 km/h
3096 17-09-2004 12:55:00 16.4 C 8.37 g/m*3 16.4 C 0 km/h
3097 17-09-2004 13:07:00 17 C 8.54 g/m*3 17 C 0 km/h
3098 17-09-2004 13:19:01 17.7 C 8.6 g/m*3 17.7 C 0 km/h
3099 17-09-2004 13:31:01 18.6 C 8.75 g/m*3 18.6 C 0 km/h
3100 17-09-2004 13:43:01 19.2 C 7.09 g/m*3 19.2 C 0 km/h
Sensor: Nr:Datum:Temp:Abs-Feuchte:Windchill:Wind:
Aussen-T/F 3101 17-09-2004 13:55:01 20.1 C 8 g/m*3 20.1 C 0 km/h
3102 17-09-2004 14:07:01 21 C 8.24 g/m*3 21 C 0 km/h
3103 17-09-2004 14:19:01 21.3 C 6.71 g/m*3 21.3 C 0 km/h
3104 17-09-2004 14:31:00 21.9 C 6.75 g/m*3 21.9 C 0 km/h
3105 17-09-2004 14:43:00 22.3 C 6.52 g/m*3 22.3 C 0 km/h
3106 17-09-2004 14:55:00 22 C 6.6 g/m*3 22 C 0 km/h
3107 17-09-2004 15:07:00 22.7 C 6.26 g/m*3 22.7 C 0 km/h
3108 17-09-2004 15:19:00 22.7 C 6.06 g/m*3 22.7 C 0 km/h
3109 17-09-2004 15:31:00 23.2 C 5.61 g/m*3 23.2 C 0 km/h
3110 17-09-2004 15:43:00 24 C 5.87 g/m*3 24 C 0 km/h
3111 17-09-2004 15:55:00 22.8 C 5.49 g/m*3 22.8 C 0 km/h
3112 17-09-2004 16:07:00 23.4 C 5.89 g/m*3 23.4 C 0 km/h
3113 17-09-2004 16:19:00 24.6 C 6.08 g/m*3 24.6 C 0 km/h
3114 17-09-2004 16:31:00 25.1 C 6.25 g/m*3 25.1 C 0 km/h
3115 17-09-2004 16:43:00 25.4 C 6.12 g/m*3 25.4 C 0 km/h
3116 17-09-2004 16:55:00 25.3 C 6.09 g/m*3 25.3 C 0 km/h
3117 17-09-2004 17:07:01 25.4 C 6.12 g/m*3 25.4 C 0 km/h
3118 17-09-2004 17:19:01 25.3 C 6.55 g/m*3 25.3 C 0 km/h
3119 17-09-2004 17:31:01 25.4 C 5.89 g/m*3 25.4 C 0 km/h
3120 17-09-2004 17:43:01 25.7 C 6.22 g/m*3 25.7 C 0 km/h
3121 17-09-2004 17:55:01 25.1 C 6.48 g/m*3 25.1 C 0 km/h
3122 17-09-2004 18:07:01 25 C 6.22 g/m*3 25 C 0 km/h
3123 17-09-2004 18:19:00 24.3 C 7.08 g/m*3 24.3 C 0 km/h
3124 17-09-2004 18:31:00 24.1 C 7.44 g/m*3 24.1 C 0 km/h
3125 17-09-2004 18:43:00 22.4 C 7.55 g/m*3 22.4 C 0 km/h
Sensor: Nr:Datum:Temp:Abs-Feuchte:Windchill:Wind:
Aussen-T/F 3126 17-09-2004 18:55:00 21.7 C 7.44 g/m*3 21.7 C 0 km/h
3127 17-09-2004 19:07:00 20.8 C 7.6 g/m*3 20.8 C 0 km/h
3128 17-09-2004 19:19:00 19.4 C 7.34 g/m*3 19.4 C 0 km/h
3129 17-09-2004 19:31:00 18.3 C 7.19 g/m*3 18.3 C 0 km/h
3130 17-09-2004 19:43:00 17.3 C 7.07 g/m*3 17.3 C 0 km/h
3131 17-09-2004 19:55:00 16.7 C 7.11 g/m*3 16.7 C 0 km/h
3132 17-09-2004 20:07:00 16.4 C 7.12 g/m*3 16.4 C 0 km/h
3133 17-09-2004 20:19:00 15.9 C 7.04 g/m*3 15.9 C 0 km/h
3134 17-09-2004 20:31:00 15.7 C 7.09 g/m*3 15.7 C 0 km/h
3135 17-09-2004 20:43:01 15.6 C 7.18 g/m*3 15.6 C 0 km/h
3136 17-09-2004 20:55:01 15.2 C 7.14 g/m*3 15.2 C 0 km/h
3137 17-09-2004 21:07:01 15 C 7.05 g/m*3 15 C 0 km/h
3138 17-09-2004 21:19:01 14.9 C 7.39 g/m*3 14.9 C 0 km/h
3139 17-09-2004 21:31:01 15 C 7.31 g/m*3 15 C 0 km/h
3140 17-09-2004 21:43:01 14.9 C 7.39 g/m*3 14.9 C 0 km/h
3141 17-09-2004 21:55:01 15 C 7.18 g/m*3 15 C 0 km/h
3142 17-09-2004 22:07:00 14.9 C 7.52 g/m*3 14.9 C 0 km/h
3143 17-09-2004 22:19:00 14.7 C 7.55 g/m*3 14.7 C 0 km/h
3144 17-09-2004 22:31:00 14.5 C 7.59 g/m*3 14.5 C 0 km/h
3145 17-09-2004 22:43:00 14.3 C 7.49 g/m*3 14.3 C 0 km/h
3146 17-09-2004 22:55:00 14.2 C 7.33 g/m*3 14.2 C 0 km/h
3147 17-09-2004 23:07:00 14.3 C 7.37 g/m*3 14.3 C 0 km/h
3148 17-09-2004 23:19:00 14 C 7.36 g/m*3 14 C 0 km/h
3149 17-09-2004 23:31:00 13.6 C 7.65 g/m*3 13.6 C 0 km/h
3150 17-09-2004 23:43:00 13.1 C 7.65 g/m*3 13.1 C 0 km/h
Sensor: Nr:Datum:Temp:Abs-Feuchte:Windchill:Wind:
Aussen-T/F 3151 17-09-2004 23:55:00 12.8 C 7.73 g/m*3 12.8 C 0 km/h
3152 18-09-2004 00:07:00 12.5 C 7.7 g/m*3 12.5 C 0 km/h
3153 18-09-2004 00:19:01 12.2 C 7.66 g/m*3 12.2 C 0 km/h
3154 18-09-2004 00:31:01 11.8 C 7.47 g/m*3 11.8 C 0 km/h
3155 18-09-2004 00:43:01 11.7 C 7.53 g/m*3 11.7 C 0 km/h
3156 18-09-2004 00:55:01 11.4 C 7.6 g/m*3 11.4 C 0 km/h
3157 18-09-2004 01:07:01 11.3 C 7.75 g/m*3 11.3 C 0 km/h
3158 18-09-2004 01:19:01 11.2 C 7.6 g/m*3 11.2 C 0 km/h
3159 18-09-2004 01:31:00 10.9 C 7.56 g/m*3 10.9 C 0 km/h
3160 18-09-2004 01:43:00 10.8 C 7.61 g/m*3 10.8 C 0 km/h
3161 18-09-2004 01:55:00 10.8 C 7.61 g/m*3 10.8 C 0 km/h
3162 18-09-2004 02:07:00 10.4 C 7.42 g/m*3 10.4 C 0 km/h
3163 18-09-2004 02:19:00 10.2 C 7.42 g/m*3 10.2 C 0 km/h
3164 18-09-2004 02:31:00 10 C 7.33 g/m*3 10 C 0 km/h
3165 18-09-2004 02:43:00 9.8 C 7.42 g/m*3 9.8 C 0 km/h
3166 18-09-2004 02:56:03 9.8 C 7.42 g/m*3 9.8 C 0 km/h
3167 18-09-2004 03:08:03 9.6 C 7.42 g/m*3 9.6 C 0 km/h
3168 18-09-2004 03:20:03 9.4 C 7.42 g/m*3 9.4 C 0 km/h
3169 18-09-2004 03:32:01 9.3 C 7.37 g/m*3 9.3 C 0 km/h
3170 18-09-2004 03:44:01 9 C 7.32 g/m*3 9 C 0 km/h
3171 18-09-2004 03:56:01 9 C 7.32 g/m*3 9 C 0 km/h
3172 18-09-2004 04:08:01 9 C 7.32 g/m*3 9 C 0 km/h
3173 18-09-2004 04:20:01 8.9 C 7.36 g/m*3 8.9 C 0 km/h
3174 18-09-2004 04:32:01 8.8 C 7.31 g/m*3 8.8 C 0 km/h
3175 18-09-2004 04:44:01 8.7 C 7.35 g/m*3 8.7 C 0 km/h
Sensor: Nr:Datum:Temp:Abs-Feuchte:Windchill:Wind:
Aussen-T/F 3176 18-09-2004 04:56:02 8.6 C 7.3 g/m*3 8.6 C 0 km/h
3177 18-09-2004 05:08:02 8.6 C 7.3 g/m*3 8.6 C 0 km/h
3178 18-09-2004 05:20:02 8.4 C 7.3 g/m*3 8.4 C 0 km/h
3179 18-09-2004 05:32:02 8.3 C 7.25 g/m*3 8.3 C 0 km/h
3180 18-09-2004 05:44:02 8.2 C 7.2 g/m*3 8.2 C 0 km/h
3181 18-09-2004 05:56:01 8.1 C 7.16 g/m*3 8.1 C 0 km/h
3182 18-09-2004 06:08:01 7.8 C 7.1 g/m*3 7.8 C 0 km/h
3183 18-09-2004 06:20:01 7.6 C 7.01 g/m*3 7.6 C 0 km/h
3184 18-09-2004 06:32:01 7.7 C 7.14 g/m*3 7.7 C 0 km/h
3185 18-09-2004 06:44:01 7.7 C 7.14 g/m*3 7.7 C 0 km/h
3186 18-09-2004 06:56:01 7.6 C 7.09 g/m*3 7.6 C 0 km/h
3187 18-09-2004 07:08:01 7.6 C 7.09 g/m*3 7.6 C 0 km/h
3188 18-09-2004 07:20:01 7.5 C 7.04 g/m*3 7.5 C 0 km/h
3189 18-09-2004 07:32:00 7.5 C 7.04 g/m*3 7.5 C 0 km/h
3190 18-09-2004 07:44:00 7.8 C 7.18 g/m*3 7.8 C 0 km/h
3191 18-09-2004 07:56:01 7.9 C 7.23 g/m*3 7.9 C 0 km/h
3192 18-09-2004 08:08:02 8 C 7.28 g/m*3 8 C 0 km/h
3193 18-09-2004 08:20:02 8 C 7.19 g/m*3 8 C 0 km/h
3194 18-09-2004 08:32:01 8 C 7.19 g/m*3 8 C 0 km/h
3195 18-09-2004 08:44:01 8.1 C 7.24 g/m*3 8.1 C 0 km/h
3196 18-09-2004 08:56:01 8.1 C 7.24 g/m*3 8.1 C 0 km/h
3197 18-09-2004 09:08:01 8.2 C 7.37 g/m*3 8.2 C 0 km/h
3198 18-09-2004 09:20:01 8.5 C 7.51 g/m*3 8.5 C 0 km/h
3199 18-09-2004 09:32:00 8.7 C 7.61 g/m*3 8.7 C 0 km/h
3200 18-09-2004 09:44:00 9.1 C 7.72 g/m*3 9.1 C 0 km/h
Sensor: Nr:Datum:Temp:Abs-Feuchte:Windchill:Wind:
Aussen-T/F 3201 18-09-2004 09:56:01 9.6 C 8.06 g/m*3 9.6 C 0 km/h
3202 18-09-2004 10:08:01 10.1 C 8.13 g/m*3 10.1 C 0 km/h
3203 18-09-2004 10:20:01 10.6 C 8.3 g/m*3 10.6 C 0 km/h
3204 18-09-2004 10:32:00 11.5 C 8.68 g/m*3 11.5 C 0 km/h
3205 18-09-2004 10:44:00 11.9 C 8.58 g/m*3 11.9 C 0 km/h
3206 18-09-2004 10:56:01 12.7 C 8.91 g/m*3 12.7 C 0 km/h
3207 18-09-2004 11:08:02 13.6 C 9.18 g/m*3 13.6 C 0 km/h
3208 18-09-2004 11:20:01 14.5 C 8.95 g/m*3 14.5 C 0 km/h
3209 18-09-2004 11:32:01 15.3 C 9.01 g/m*3 15.3 C 0 km/h
3210 18-09-2004 11:44:01 15.7 C 9.37 g/m*3 15.7 C 0 km/h
3211 18-09-2004 11:56:02 16.2 C 9.52 g/m*3 16.2 C 0 km/h
3212 18-09-2004 12:08:02 16.7 C 9.81 g/m*3 16.7 C 0 km/h
3213 18-09-2004 12:20:02 17.7 C 9.66 g/m*3 17.7 C 0 km/h
3214 18-09-2004 12:32:02 18.2 C 9.48 g/m*3 18.2 C 0 km/h
3215 18-09-2004 12:44:02 18.7 C 9.29 g/m*3 18.7 C 0 km/h
3216 18-09-2004 12:56:01 20 C 8.3 g/m*3 20 C 0 km/h
3217 18-09-2004 13:08:01 20.4 C 8.67 g/m*3 20.4 C 0 km/h
3218 18-09-2004 13:20:01 21 C 8.43 g/m*3 21 C 0 km/h
3219 18-09-2004 13:32:00 21.6 C 8.16 g/m*3 21.6 C 0 km/h
3220 18-09-2004 13:44:00 22.2 C 8.05 g/m*3 22.2 C 0 km/h
3221 18-09-2004 13:56:01 22.8 C 8.33 g/m*3 22.8 C 0 km/h
3222 18-09-2004 14:08:01 23.3 C 7.95 g/m*3 23.3 C 0 km/h
3223 18-09-2004 14:20:01 23.8 C 7.96 g/m*3 23.8 C 0 km/h
3224 18-0